<?xml version='1.0' encoding='UTF-8'?><gpx version="1.1" creator="JPX - https://github.com/jenetics/jpx" xmlns="http://www.topografix.com/GPX/1/1"><trk><trkseg><trkpt lat="44.4578118" lon="7.3738889"><ele>616.0</ele><time>2026-04-19T10:21:37.215Z</time></trkpt><trkpt lat="44.4577989" lon="7.373984"><ele>616.0</ele><time>2026-04-19T10:21:50.236Z</time></trkpt><trkpt lat="44.4578171" lon="7.3740706"><ele>616.0</ele><time>2026-04-19T10:21:56.215Z</time></trkpt><trkpt lat="44.4578459" lon="7.3741557"><ele>616.0</ele><time>2026-04-19T10:22:08.215Z</time></trkpt><trkpt lat="44.4577963" lon="7.3742107"><ele>616.0</ele><time>2026-04-19T10:22:38.215Z</time></trkpt><trkpt lat="44.457724" lon="7.3742128"><ele>616.0</ele><time>2026-04-19T10:22:41.215Z</time></trkpt><trkpt lat="44.4576435" lon="7.3741908"><ele>616.0</ele><time>2026-04-19T10:22:43.216Z</time></trkpt><trkpt lat="44.4575398" lon="7.3742081"><ele>616.0</ele><time>2026-04-19T10:22:45.215Z</time></trkpt><trkpt lat="44.4574767" lon="7.3742181"><ele>616.0</ele><time>2026-04-19T10:22:46.216Z</time></trkpt><trkpt lat="44.457413" lon="7.3742328"><ele>616.0</ele><time>2026-04-19T10:22:47.216Z</time></trkpt><trkpt lat="44.4573503" lon="7.3742443"><ele>616.0</ele><time>2026-04-19T10:22:48.215Z</time></trkpt><trkpt lat="44.4572865" lon="7.3742521"><ele>616.0</ele><time>2026-04-19T10:22:49.215Z</time></trkpt><trkpt lat="44.4571651" lon="7.3742626"><ele>616.0</ele><time>2026-04-19T10:22:51.216Z</time></trkpt><trkpt lat="44.4570494" lon="7.3742801"><ele>617.25</ele><time>2026-04-19T10:22:53.215Z</time></trkpt><trkpt lat="44.4569321" lon="7.3742941"><ele>618.5</ele><time>2026-04-19T10:22:55.215Z</time></trkpt><trkpt lat="44.4568154" lon="7.3743"><ele>619.75</ele><time>2026-04-19T10:22:57.215Z</time></trkpt><trkpt lat="44.4567016" lon="7.3743244"><ele>621.0</ele><time>2026-04-19T10:22:59.215Z</time></trkpt><trkpt lat="44.4566027" lon="7.3743479"><ele>620.9999999999999</ele><time>2026-04-19T10:23:01.215Z</time></trkpt><trkpt lat="44.456548" lon="7.3742681"><ele>621.0</ele><time>2026-04-19T10:23:03.215Z</time></trkpt><trkpt lat="44.4565711" lon="7.374176"><ele>621.0</ele><time>2026-04-19T10:23:05.215Z</time></trkpt><trkpt lat="44.4566082" lon="7.3741005"><ele>621.0</ele><time>2026-04-19T10:23:07.215Z</time></trkpt><trkpt lat="44.4566447" lon="7.3740147"><ele>621.0</ele><time>2026-04-19T10:23:10.216Z</time></trkpt><trkpt lat="44.4566602" lon="7.3739216"><ele>620.9999999999999</ele><time>2026-04-19T10:23:26.216Z</time></trkpt><trkpt lat="44.4566881" lon="7.3738409"><ele>621.0</ele><time>2026-04-19T10:23:29.215Z</time></trkpt><trkpt lat="44.4567065" lon="7.3737501"><ele>622.0</ele><time>2026-04-19T10:23:31.215Z</time></trkpt><trkpt lat="44.4567295" lon="7.3736442"><ele>623.0</ele><time>2026-04-19T10:23:33.217Z</time></trkpt><trkpt lat="44.4567481" lon="7.3735494"><ele>624.0</ele><time>2026-04-19T10:23:35.215Z</time></trkpt><trkpt lat="44.4567725" lon="7.3734531"><ele>625.0</ele><time>2026-04-19T10:23:37.215Z</time></trkpt><trkpt lat="44.4568023" lon="7.3733429"><ele>626.0</ele><time>2026-04-19T10:23:39.214Z</time></trkpt><trkpt lat="44.456831" lon="7.3732124"><ele>627.0</ele><time>2026-04-19T10:23:41.215Z</time></trkpt><trkpt lat="44.4568576" lon="7.3730784"><ele>628.5</ele><time>2026-04-19T10:23:43.215Z</time></trkpt><trkpt lat="44.45687" lon="7.3729399"><ele>630.0</ele><time>2026-04-19T10:23:45.214Z</time></trkpt><trkpt lat="44.4568908" lon="7.372787"><ele>631.5</ele><time>2026-04-19T10:23:47.214Z</time></trkpt><trkpt lat="44.4568896" lon="7.3726164"><ele>633.0</ele><time>2026-04-19T10:23:49.215Z</time></trkpt><trkpt lat="44.4568795" lon="7.3724455"><ele>633.0</ele><time>2026-04-19T10:23:51.215Z</time></trkpt><trkpt lat="44.4568622" lon="7.3722772"><ele>633.0</ele><time>2026-04-19T10:23:53.214Z</time></trkpt><trkpt lat="44.4568469" lon="7.3721241"><ele>633.0</ele><time>2026-04-19T10:23:55.215Z</time></trkpt><trkpt lat="44.4568469" lon="7.3719622"><ele>633.0</ele><time>2026-04-19T10:23:57.214Z</time></trkpt><trkpt lat="44.4568269" lon="7.3718184"><ele>633.5</ele><time>2026-04-19T10:23:59.216Z</time></trkpt><trkpt lat="44.4568085" lon="7.371707"><ele>634.0</ele><time>2026-04-19T10:24:01.214Z</time></trkpt><trkpt lat="44.4567948" lon="7.3716016"><ele>634.5</ele><time>2026-04-19T10:24:03.216Z</time></trkpt><trkpt lat="44.4567815" lon="7.3714875"><ele>635.0</ele><time>2026-04-19T10:24:05.214Z</time></trkpt><trkpt lat="44.456766" lon="7.3713628"><ele>635.5</ele><time>2026-04-19T10:24:07.216Z</time></trkpt><trkpt lat="44.4567472" lon="7.3712269"><ele>636.0</ele><time>2026-04-19T10:24:09.214Z</time></trkpt><trkpt lat="44.4567287" lon="7.3710829"><ele>636.4</ele><time>2026-04-19T10:24:11.214Z</time></trkpt><trkpt lat="44.4566986" lon="7.3709434"><ele>636.8</ele><time>2026-04-19T10:24:13.214Z</time></trkpt><trkpt lat="44.4566827" lon="7.3708076"><ele>637.1999999999999</ele><time>2026-04-19T10:24:15.214Z</time></trkpt><trkpt lat="44.4566713" lon="7.3706722"><ele>637.6</ele><time>2026-04-19T10:24:17.215Z</time></trkpt><trkpt lat="44.4566745" lon="7.3705383"><ele>638.0</ele><time>2026-04-19T10:24:19.215Z</time></trkpt><trkpt lat="44.4566845" lon="7.3703974"><ele>638.0</ele><time>2026-04-19T10:24:21.214Z</time></trkpt><trkpt lat="44.4566673" lon="7.3702551"><ele>638.0</ele><time>2026-04-19T10:24:23.214Z</time></trkpt><trkpt lat="44.4566362" lon="7.3701007"><ele>638.0</ele><time>2026-04-19T10:24:25.215Z</time></trkpt><trkpt lat="44.456613" lon="7.3699351"><ele>638.0</ele><time>2026-04-19T10:24:27.215Z</time></trkpt><trkpt lat="44.4566019" lon="7.3697737"><ele>636.6</ele><time>2026-04-19T10:24:29.214Z</time></trkpt><trkpt lat="44.4565836" lon="7.369607"><ele>635.1999999999999</ele><time>2026-04-19T10:24:31.215Z</time></trkpt><trkpt lat="44.4565715" lon="7.3694714"><ele>633.8</ele><time>2026-04-19T10:24:33.214Z</time></trkpt><trkpt lat="44.4565714" lon="7.3693585"><ele>632.4</ele><time>2026-04-19T10:24:35.215Z</time></trkpt><trkpt lat="44.4566104" lon="7.369266"><ele>631.0</ele><time>2026-04-19T10:24:37.214Z</time></trkpt><trkpt lat="44.4566728" lon="7.3691836"><ele>631.0</ele><time>2026-04-19T10:24:39.214Z</time></trkpt><trkpt lat="44.4567141" lon="7.3690672"><ele>631.0</ele><time>2026-04-19T10:24:41.215Z</time></trkpt><trkpt lat="44.4567234" lon="7.3689201"><ele>631.0</ele><time>2026-04-19T10:24:43.215Z</time></trkpt><trkpt lat="44.4567109" lon="7.3687708"><ele>631.0</ele><time>2026-04-19T10:24:45.214Z</time></trkpt><trkpt lat="44.4566983" lon="7.3686239"><ele>631.0</ele><time>2026-04-19T10:24:47.214Z</time></trkpt><trkpt lat="44.4566821" lon="7.3684743"><ele>630.2</ele><time>2026-04-19T10:24:49.215Z</time></trkpt><trkpt lat="44.4566839" lon="7.3683241"><ele>629.4000000000001</ele><time>2026-04-19T10:24:51.214Z</time></trkpt><trkpt lat="44.4566588" lon="7.3681799"><ele>628.6</ele><time>2026-04-19T10:24:53.214Z</time></trkpt><trkpt lat="44.4566468" lon="7.3680437"><ele>627.8000000000001</ele><time>2026-04-19T10:24:55.215Z</time></trkpt><trkpt lat="44.4566466" lon="7.3679074"><ele>627.0</ele><time>2026-04-19T10:24:57.214Z</time></trkpt><trkpt lat="44.4566439" lon="7.3677747"><ele>627.0</ele><time>2026-04-19T10:24:59.215Z</time></trkpt><trkpt lat="44.4566543" lon="7.3676326"><ele>627.0</ele><time>2026-04-19T10:25:01.214Z</time></trkpt><trkpt lat="44.4566795" lon="7.3674947"><ele>627.0</ele><time>2026-04-19T10:25:03.215Z</time></trkpt><trkpt lat="44.4567033" lon="7.3673577"><ele>627.0</ele><time>2026-04-19T10:25:05.216Z</time></trkpt><trkpt lat="44.4567302" lon="7.3672407"><ele>627.0</ele><time>2026-04-19T10:25:07.215Z</time></trkpt><trkpt lat="44.456725" lon="7.3671357"><ele>627.1666666666666</ele><time>2026-04-19T10:25:10.214Z</time></trkpt><trkpt lat="44.4566992" lon="7.3670247"><ele>627.3333333333334</ele><time>2026-04-19T10:25:13.215Z</time></trkpt><trkpt lat="44.4566878" lon="7.3669208"><ele>627.5</ele><time>2026-04-19T10:25:15.214Z</time></trkpt><trkpt lat="44.4566791" lon="7.3668089"><ele>627.6666666666667</ele><time>2026-04-19T10:25:17.215Z</time></trkpt><trkpt lat="44.4566661" lon="7.3667055"><ele>627.8333333333334</ele><time>2026-04-19T10:25:19.215Z</time></trkpt><trkpt lat="44.4566991" lon="7.3666032"><ele>628.0</ele><time>2026-04-19T10:25:21.215Z</time></trkpt><trkpt lat="44.4567966" lon="7.3665779"><ele>628.0</ele><time>2026-04-19T10:25:23.215Z</time></trkpt><trkpt lat="44.4568911" lon="7.3665984"><ele>628.0</ele><time>2026-04-19T10:25:25.214Z</time></trkpt><trkpt lat="44.4569945" lon="7.36662"><ele>628.0</ele><time>2026-04-19T10:25:27.215Z</time></trkpt><trkpt lat="44.4570961" lon="7.3666413"><ele>628.0</ele><time>2026-04-19T10:25:29.215Z</time></trkpt><trkpt lat="44.4572008" lon="7.3666669"><ele>628.0</ele><time>2026-04-19T10:25:31.215Z</time></trkpt><trkpt lat="44.4573086" lon="7.366692"><ele>627.6</ele><time>2026-04-19T10:25:33.214Z</time></trkpt><trkpt lat="44.4574187" lon="7.3667184"><ele>627.1999999999999</ele><time>2026-04-19T10:25:35.215Z</time></trkpt><trkpt lat="44.4575274" lon="7.3667413"><ele>626.8</ele><time>2026-04-19T10:25:37.215Z</time></trkpt><trkpt lat="44.4576361" lon="7.3667717"><ele>626.4</ele><time>2026-04-19T10:25:39.215Z</time></trkpt><trkpt lat="44.457745" lon="7.3667848"><ele>626.0</ele><time>2026-04-19T10:25:41.214Z</time></trkpt><trkpt lat="44.4578505" lon="7.3668019"><ele>625.6</ele><time>2026-04-19T10:25:43.215Z</time></trkpt><trkpt lat="44.4579558" lon="7.3668083"><ele>625.2</ele><time>2026-04-19T10:25:45.215Z</time></trkpt><trkpt lat="44.4580518" lon="7.366816"><ele>624.8</ele><time>2026-04-19T10:25:47.215Z</time></trkpt><trkpt lat="44.4581256" lon="7.3667673"><ele>624.4</ele><time>2026-04-19T10:25:49.216Z</time></trkpt><trkpt lat="44.4581586" lon="7.3666502"><ele>624.0</ele><time>2026-04-19T10:25:51.215Z</time></trkpt><trkpt lat="44.4581648" lon="7.3665362"><ele>624.0</ele><time>2026-04-19T10:25:53.215Z</time></trkpt><trkpt lat="44.4581808" lon="7.3664056"><ele>624.0</ele><time>2026-04-19T10:25:55.215Z</time></trkpt><trkpt lat="44.4582013" lon="7.3662635"><ele>624.0</ele><time>2026-04-19T10:25:57.214Z</time></trkpt><trkpt lat="44.4582313" lon="7.3661135"><ele>624.0</ele><time>2026-04-19T10:25:59.214Z</time></trkpt><trkpt lat="44.4582601" lon="7.3659518"><ele>624.0</ele><time>2026-04-19T10:26:01.214Z</time></trkpt><trkpt lat="44.4582849" lon="7.3657839"><ele>624.0</ele><time>2026-04-19T10:26:03.216Z</time></trkpt><trkpt lat="44.4583034" lon="7.3656178"><ele>624.0</ele><time>2026-04-19T10:26:05.214Z</time></trkpt><trkpt lat="44.4583171" lon="7.3654425"><ele>624.0</ele><time>2026-04-19T10:26:07.216Z</time></trkpt><trkpt lat="44.4583176" lon="7.3652733"><ele>624.0</ele><time>2026-04-19T10:26:09.214Z</time></trkpt><trkpt lat="44.458313" lon="7.3651037"><ele>624.0</ele><time>2026-04-19T10:26:11.215Z</time></trkpt><trkpt lat="44.4583004" lon="7.364942"><ele>624.0</ele><time>2026-04-19T10:26:13.214Z</time></trkpt><trkpt lat="44.4582823" lon="7.3647799"><ele>624.0</ele><time>2026-04-19T10:26:15.216Z</time></trkpt><trkpt lat="44.4582596" lon="7.3646133"><ele>624.0</ele><time>2026-04-19T10:26:17.215Z</time></trkpt><trkpt lat="44.4582278" lon="7.3644481"><ele>623.75</ele><time>2026-04-19T10:26:19.215Z</time></trkpt><trkpt lat="44.4581732" lon="7.3642935"><ele>623.5</ele><time>2026-04-19T10:26:21.214Z</time></trkpt><trkpt lat="44.4581205" lon="7.3641473"><ele>623.25</ele><time>2026-04-19T10:26:23.214Z</time></trkpt><trkpt lat="44.458074" lon="7.3639964"><ele>623.0</ele><time>2026-04-19T10:26:25.214Z</time></trkpt><trkpt lat="44.4580478" lon="7.3638373"><ele>623.0</ele><time>2026-04-19T10:26:27.214Z</time></trkpt><trkpt lat="44.4580352" lon="7.3636767"><ele>623.0</ele><time>2026-04-19T10:26:29.215Z</time></trkpt><trkpt lat="44.4580226" lon="7.3635248"><ele>623.0</ele><time>2026-04-19T10:26:31.214Z</time></trkpt><trkpt lat="44.4580099" lon="7.3633821"><ele>623.0</ele><time>2026-04-19T10:26:33.214Z</time></trkpt><trkpt lat="44.4580072" lon="7.3632515"><ele>623.0</ele><time>2026-04-19T10:26:35.214Z</time></trkpt><trkpt lat="44.4580066" lon="7.3631281"><ele>623.0</ele><time>2026-04-19T10:26:37.215Z</time></trkpt><trkpt lat="44.4580014" lon="7.3630152"><ele>623.0</ele><time>2026-04-19T10:26:39.215Z</time></trkpt><trkpt lat="44.4580121" lon="7.362903"><ele>623.0</ele><time>2026-04-19T10:26:42.216Z</time></trkpt><trkpt lat="44.4580176" lon="7.3628132"><ele>623.0</ele><time>2026-04-19T10:26:58.214Z</time></trkpt><trkpt lat="44.4580115" lon="7.3626796"><ele>623.0</ele><time>2026-04-19T10:27:01.214Z</time></trkpt><trkpt lat="44.4580075" lon="7.3625715"><ele>623.0</ele><time>2026-04-19T10:27:03.214Z</time></trkpt><trkpt lat="44.4580142" lon="7.3624568"><ele>623.0</ele><time>2026-04-19T10:27:05.215Z</time></trkpt><trkpt lat="44.4580175" lon="7.3623376"><ele>623.0</ele><time>2026-04-19T10:27:07.214Z</time></trkpt><trkpt lat="44.458024" lon="7.362213"><ele>623.0</ele><time>2026-04-19T10:27:09.215Z</time></trkpt><trkpt lat="44.4580349" lon="7.3620796"><ele>623.0</ele><time>2026-04-19T10:27:11.215Z</time></trkpt><trkpt lat="44.4580482" lon="7.3619431"><ele>623.0</ele><time>2026-04-19T10:27:13.215Z</time></trkpt><trkpt lat="44.4580695" lon="7.3617978"><ele>623.4</ele><time>2026-04-19T10:27:15.215Z</time></trkpt><trkpt lat="44.4580938" lon="7.3616578"><ele>623.8</ele><time>2026-04-19T10:27:17.215Z</time></trkpt><trkpt lat="44.4581204" lon="7.3615109"><ele>624.2</ele><time>2026-04-19T10:27:19.215Z</time></trkpt><trkpt lat="44.4581459" lon="7.3613606"><ele>624.6</ele><time>2026-04-19T10:27:21.215Z</time></trkpt><trkpt lat="44.4581727" lon="7.3612042"><ele>625.0</ele><time>2026-04-19T10:27:23.214Z</time></trkpt><trkpt lat="44.4581953" lon="7.3610421"><ele>625.0</ele><time>2026-04-19T10:27:25.215Z</time></trkpt><trkpt lat="44.4582275" lon="7.360883"><ele>625.0</ele><time>2026-04-19T10:27:27.214Z</time></trkpt><trkpt lat="44.4582518" lon="7.3607244"><ele>625.0</ele><time>2026-04-19T10:27:29.214Z</time></trkpt><trkpt lat="44.4582776" lon="7.3605617"><ele>625.0</ele><time>2026-04-19T10:27:31.214Z</time></trkpt><trkpt lat="44.4582996" lon="7.3603985"><ele>625.25</ele><time>2026-04-19T10:27:33.214Z</time></trkpt><trkpt lat="44.4583197" lon="7.3602329"><ele>625.5</ele><time>2026-04-19T10:27:35.215Z</time></trkpt><trkpt lat="44.4583432" lon="7.3600732"><ele>625.75</ele><time>2026-04-19T10:27:37.214Z</time></trkpt><trkpt lat="44.4583566" lon="7.3599134"><ele>626.0</ele><time>2026-04-19T10:27:39.214Z</time></trkpt><trkpt lat="44.4583663" lon="7.3597542"><ele>626.2</ele><time>2026-04-19T10:27:41.214Z</time></trkpt><trkpt lat="44.4583748" lon="7.3596013"><ele>626.4000000000001</ele><time>2026-04-19T10:27:43.214Z</time></trkpt><trkpt lat="44.458384" lon="7.3594461"><ele>626.6</ele><time>2026-04-19T10:27:45.214Z</time></trkpt><trkpt lat="44.4583759" lon="7.359295"><ele>626.8000000000001</ele><time>2026-04-19T10:27:47.216Z</time></trkpt><trkpt lat="44.4583721" lon="7.3591467"><ele>627.0</ele><time>2026-04-19T10:27:49.215Z</time></trkpt><trkpt lat="44.4583704" lon="7.3590047"><ele>627.0</ele><time>2026-04-19T10:27:51.214Z</time></trkpt><trkpt lat="44.4583566" lon="7.358868"><ele>627.0</ele><time>2026-04-19T10:27:53.215Z</time></trkpt><trkpt lat="44.4583336" lon="7.3587332"><ele>627.0</ele><time>2026-04-19T10:27:55.214Z</time></trkpt><trkpt lat="44.4583067" lon="7.3586023"><ele>627.0</ele><time>2026-04-19T10:27:57.215Z</time></trkpt><trkpt lat="44.4582794" lon="7.358475"><ele>627.0</ele><time>2026-04-19T10:27:59.214Z</time></trkpt><trkpt lat="44.4582504" lon="7.3583446"><ele>627.0</ele><time>2026-04-19T10:28:01.214Z</time></trkpt><trkpt lat="44.4582247" lon="7.3582184"><ele>627.0</ele><time>2026-04-19T10:28:03.214Z</time></trkpt><trkpt lat="44.4582004" lon="7.3580912"><ele>627.0</ele><time>2026-04-19T10:28:05.216Z</time></trkpt><trkpt lat="44.4581894" lon="7.3579604"><ele>627.0</ele><time>2026-04-19T10:28:07.213Z</time></trkpt><trkpt lat="44.4581859" lon="7.3578301"><ele>627.0</ele><time>2026-04-19T10:28:09.213Z</time></trkpt><trkpt lat="44.4581862" lon="7.3576942"><ele>627.2</ele><time>2026-04-19T10:28:11.213Z</time></trkpt><trkpt lat="44.4581956" lon="7.3575511"><ele>627.4000000000001</ele><time>2026-04-19T10:28:13.215Z</time></trkpt><trkpt lat="44.4582129" lon="7.3574104"><ele>627.5999999999999</ele><time>2026-04-19T10:28:15.213Z</time></trkpt><trkpt lat="44.4582274" lon="7.3572805"><ele>627.8</ele><time>2026-04-19T10:28:17.213Z</time></trkpt><trkpt lat="44.4582446" lon="7.3571575"><ele>628.0</ele><time>2026-04-19T10:28:19.214Z</time></trkpt><trkpt lat="44.4582552" lon="7.3570351"><ele>628.6666666666667</ele><time>2026-04-19T10:28:21.214Z</time></trkpt><trkpt lat="44.4582725" lon="7.3569114"><ele>629.3333333333334</ele><time>2026-04-19T10:28:23.213Z</time></trkpt><trkpt lat="44.4582858" lon="7.3567922"><ele>630.0</ele><time>2026-04-19T10:28:25.214Z</time></trkpt><trkpt lat="44.4582978" lon="7.3566773"><ele>630.6666666666666</ele><time>2026-04-19T10:28:27.213Z</time></trkpt><trkpt lat="44.4583111" lon="7.3565677"><ele>631.3333333333333</ele><time>2026-04-19T10:28:29.214Z</time></trkpt><trkpt lat="44.4583251" lon="7.3564609"><ele>632.0</ele><time>2026-04-19T10:28:31.214Z</time></trkpt><trkpt lat="44.4583367" lon="7.3563577"><ele>632.7142857142858</ele><time>2026-04-19T10:28:33.213Z</time></trkpt><trkpt lat="44.4583502" lon="7.3562565"><ele>633.4285714285714</ele><time>2026-04-19T10:28:35.215Z</time></trkpt><trkpt lat="44.4583631" lon="7.3561566"><ele>634.1428571428571</ele><time>2026-04-19T10:28:37.213Z</time></trkpt><trkpt lat="44.4583727" lon="7.3560585"><ele>634.8571428571429</ele><time>2026-04-19T10:28:39.213Z</time></trkpt><trkpt lat="44.458391" lon="7.3559581"><ele>635.5714285714286</ele><time>2026-04-19T10:28:41.213Z</time></trkpt><trkpt lat="44.4584024" lon="7.3558509"><ele>636.2857142857143</ele><time>2026-04-19T10:28:43.213Z</time></trkpt><trkpt lat="44.4584187" lon="7.3557432"><ele>637.0</ele><time>2026-04-19T10:28:45.213Z</time></trkpt><trkpt lat="44.4584319" lon="7.3556374"><ele>637.5</ele><time>2026-04-19T10:28:47.214Z</time></trkpt><trkpt lat="44.458446" lon="7.3555337"><ele>638.0</ele><time>2026-04-19T10:28:49.214Z</time></trkpt><trkpt lat="44.4584642" lon="7.3554315"><ele>638.5</ele><time>2026-04-19T10:28:51.214Z</time></trkpt><trkpt lat="44.4584749" lon="7.3553284"><ele>639.0</ele><time>2026-04-19T10:28:53.214Z</time></trkpt><trkpt lat="44.4584956" lon="7.3552247"><ele>639.5</ele><time>2026-04-19T10:28:55.213Z</time></trkpt><trkpt lat="44.4585117" lon="7.3551178"><ele>640.0</ele><time>2026-04-19T10:28:57.214Z</time></trkpt><trkpt lat="44.4585233" lon="7.3550124"><ele>640.0</ele><time>2026-04-19T10:28:59.213Z</time></trkpt><trkpt lat="44.4585307" lon="7.3549114"><ele>640.0</ele><time>2026-04-19T10:29:01.213Z</time></trkpt><trkpt lat="44.4585421" lon="7.3548204"><ele>640.0</ele><time>2026-04-19T10:29:03.213Z</time></trkpt><trkpt lat="44.4585526" lon="7.3546903"><ele>640.0</ele><time>2026-04-19T10:29:06.214Z</time></trkpt><trkpt lat="44.4585558" lon="7.3545598"><ele>640.0</ele><time>2026-04-19T10:29:09.213Z</time></trkpt><trkpt lat="44.4585591" lon="7.3544678"><ele>640.0</ele><time>2026-04-19T10:29:11.213Z</time></trkpt><trkpt lat="44.4585644" lon="7.3543376"><ele>640.5</ele><time>2026-04-19T10:29:14.213Z</time></trkpt><trkpt lat="44.4585685" lon="7.3542169"><ele>641.0</ele><time>2026-04-19T10:29:17.214Z</time></trkpt><trkpt lat="44.4585727" lon="7.3541093"><ele>641.5</ele><time>2026-04-19T10:29:20.213Z</time></trkpt><trkpt lat="44.4585833" lon="7.3540031"><ele>642.0</ele><time>2026-04-19T10:29:23.214Z</time></trkpt><trkpt lat="44.4585996" lon="7.3538831"><ele>642.5</ele><time>2026-04-19T10:29:26.215Z</time></trkpt><trkpt lat="44.4586173" lon="7.3537981"><ele>643.0</ele><time>2026-04-19T10:29:28.213Z</time></trkpt><trkpt lat="44.4586373" lon="7.353673"><ele>642.5</ele><time>2026-04-19T10:29:31.215Z</time></trkpt><trkpt lat="44.4586654" lon="7.3535596"><ele>642.0</ele><time>2026-04-19T10:29:34.213Z</time></trkpt><trkpt lat="44.4586853" lon="7.3534524"><ele>641.5</ele><time>2026-04-19T10:29:37.214Z</time></trkpt><trkpt lat="44.4587138" lon="7.3533566"><ele>641.0</ele><time>2026-04-19T10:29:40.213Z</time></trkpt><trkpt lat="44.4587379" lon="7.3532576"><ele>640.5</ele><time>2026-04-19T10:29:43.213Z</time></trkpt><trkpt lat="44.4587738" lon="7.3531485"><ele>640.0</ele><time>2026-04-19T10:29:46.214Z</time></trkpt><trkpt lat="44.4587956" lon="7.3530634"><ele>640.4285714285714</ele><time>2026-04-19T10:29:48.213Z</time></trkpt><trkpt lat="44.4588166" lon="7.3529728"><ele>640.8571428571429</ele><time>2026-04-19T10:29:50.213Z</time></trkpt><trkpt lat="44.4588362" lon="7.352883"><ele>641.2857142857142</ele><time>2026-04-19T10:29:52.213Z</time></trkpt><trkpt lat="44.4588521" lon="7.3527886"><ele>641.7142857142858</ele><time>2026-04-19T10:29:54.215Z</time></trkpt><trkpt lat="44.4588643" lon="7.3526886"><ele>642.1428571428572</ele><time>2026-04-19T10:29:56.214Z</time></trkpt><trkpt lat="44.4588749" lon="7.3525828"><ele>642.5714285714286</ele><time>2026-04-19T10:29:58.214Z</time></trkpt><trkpt lat="44.4588876" lon="7.3524672"><ele>643.0</ele><time>2026-04-19T10:30:00.214Z</time></trkpt><trkpt lat="44.4589014" lon="7.3523487"><ele>643.0</ele><time>2026-04-19T10:30:02.213Z</time></trkpt><trkpt lat="44.4589141" lon="7.3522272"><ele>643.0</ele><time>2026-04-19T10:30:04.214Z</time></trkpt><trkpt lat="44.4589278" lon="7.3521045"><ele>643.0</ele><time>2026-04-19T10:30:06.214Z</time></trkpt><trkpt lat="44.4589443" lon="7.3519846"><ele>643.0</ele><time>2026-04-19T10:30:08.214Z</time></trkpt><trkpt lat="44.4589542" lon="7.3518745"><ele>643.0</ele><time>2026-04-19T10:30:10.213Z</time></trkpt><trkpt lat="44.4589665" lon="7.3517586"><ele>643.0</ele><time>2026-04-19T10:30:12.213Z</time></trkpt><trkpt lat="44.4589707" lon="7.3516389"><ele>642.8333333333334</ele><time>2026-04-19T10:30:14.215Z</time></trkpt><trkpt lat="44.4589703" lon="7.3515255"><ele>642.6666666666667</ele><time>2026-04-19T10:30:16.213Z</time></trkpt><trkpt lat="44.4589651" lon="7.3514254"><ele>642.5</ele><time>2026-04-19T10:30:18.213Z</time></trkpt><trkpt lat="44.4589918" lon="7.3513288"><ele>642.3333333333334</ele><time>2026-04-19T10:30:21.213Z</time></trkpt><trkpt lat="44.4590552" lon="7.3513149"><ele>642.1666666666666</ele><time>2026-04-19T10:30:23.213Z</time></trkpt><trkpt lat="44.4591441" lon="7.3513572"><ele>642.0</ele><time>2026-04-19T10:30:25.213Z</time></trkpt><trkpt lat="44.4592477" lon="7.3514243"><ele>642.0</ele><time>2026-04-19T10:30:27.213Z</time></trkpt><trkpt lat="44.4593081" lon="7.3514582"><ele>642.0</ele><time>2026-04-19T10:30:28.213Z</time></trkpt><trkpt lat="44.4594316" lon="7.3515183"><ele>642.0</ele><time>2026-04-19T10:30:30.213Z</time></trkpt><trkpt lat="44.4594996" lon="7.3515446"><ele>642.0</ele><time>2026-04-19T10:30:31.214Z</time></trkpt><trkpt lat="44.4595713" lon="7.3515692"><ele>642.0</ele><time>2026-04-19T10:30:32.214Z</time></trkpt><trkpt lat="44.459644" lon="7.3515882"><ele>642.0</ele><time>2026-04-19T10:30:33.213Z</time></trkpt><trkpt lat="44.4597214" lon="7.3516054"><ele>640.6666666666666</ele><time>2026-04-19T10:30:34.214Z</time></trkpt><trkpt lat="44.4598003" lon="7.351626"><ele>639.3333333333334</ele><time>2026-04-19T10:30:35.214Z</time></trkpt><trkpt lat="44.4598836" lon="7.351646"><ele>638.0</ele><time>2026-04-19T10:30:36.213Z</time></trkpt><trkpt lat="44.4599658" lon="7.3516668"><ele>636.6666666666667</ele><time>2026-04-19T10:30:37.215Z</time></trkpt><trkpt lat="44.460052" lon="7.3516905"><ele>635.3333333333334</ele><time>2026-04-19T10:30:38.213Z</time></trkpt><trkpt lat="44.4601356" lon="7.3517154"><ele>634.0</ele><time>2026-04-19T10:30:39.214Z</time></trkpt><trkpt lat="44.4602247" lon="7.3517506"><ele>634.0</ele><time>2026-04-19T10:30:40.215Z</time></trkpt><trkpt lat="44.4603154" lon="7.3517858"><ele>634.0</ele><time>2026-04-19T10:30:41.214Z</time></trkpt><trkpt lat="44.460407" lon="7.3518212"><ele>634.0</ele><time>2026-04-19T10:30:42.215Z</time></trkpt><trkpt lat="44.4605006" lon="7.3518598"><ele>634.0</ele><time>2026-04-19T10:30:43.213Z</time></trkpt><trkpt lat="44.4605921" lon="7.3518942"><ele>634.0</ele><time>2026-04-19T10:30:44.214Z</time></trkpt><trkpt lat="44.4606813" lon="7.3519249"><ele>633.1666666666667</ele><time>2026-04-19T10:30:45.214Z</time></trkpt><trkpt lat="44.460768" lon="7.3519544"><ele>632.3333333333334</ele><time>2026-04-19T10:30:46.213Z</time></trkpt><trkpt lat="44.4608516" lon="7.3519811"><ele>631.5</ele><time>2026-04-19T10:30:47.213Z</time></trkpt><trkpt lat="44.4609294" lon="7.3520042"><ele>630.6666666666666</ele><time>2026-04-19T10:30:48.214Z</time></trkpt><trkpt lat="44.4610034" lon="7.3520257"><ele>629.8333333333333</ele><time>2026-04-19T10:30:49.213Z</time></trkpt><trkpt lat="44.4610729" lon="7.3520452"><ele>629.0</ele><time>2026-04-19T10:30:50.213Z</time></trkpt><trkpt lat="44.4611875" lon="7.3520864"><ele>628.3333333333333</ele><time>2026-04-19T10:30:52.213Z</time></trkpt><trkpt lat="44.4612852" lon="7.3521372"><ele>627.6666666666666</ele><time>2026-04-19T10:30:54.214Z</time></trkpt><trkpt lat="44.4613602" lon="7.3522181"><ele>627.0</ele><time>2026-04-19T10:30:56.213Z</time></trkpt><trkpt lat="44.4614111" lon="7.352298"><ele>626.3333333333334</ele><time>2026-04-19T10:30:58.213Z</time></trkpt><trkpt lat="44.4614797" lon="7.3523364"><ele>625.6666666666667</ele><time>2026-04-19T10:31:01.213Z</time></trkpt><trkpt lat="44.4615216" lon="7.3522498"><ele>625.0</ele><time>2026-04-19T10:31:03.213Z</time></trkpt><trkpt lat="44.4615442" lon="7.3521134"><ele>625.0</ele><time>2026-04-19T10:31:05.214Z</time></trkpt><trkpt lat="44.4615693" lon="7.3519448"><ele>625.0</ele><time>2026-04-19T10:31:07.213Z</time></trkpt><trkpt lat="44.4615868" lon="7.3518545"><ele>625.0</ele><time>2026-04-19T10:31:08.213Z</time></trkpt><trkpt lat="44.4616047" lon="7.3517568"><ele>625.0</ele><time>2026-04-19T10:31:09.215Z</time></trkpt><trkpt lat="44.4616269" lon="7.3516587"><ele>625.0</ele><time>2026-04-19T10:31:10.213Z</time></trkpt><trkpt lat="44.4616508" lon="7.3515561"><ele>625.0</ele><time>2026-04-19T10:31:11.214Z</time></trkpt><trkpt lat="44.4616651" lon="7.3514483"><ele>625.1666666666667</ele><time>2026-04-19T10:31:12.214Z</time></trkpt><trkpt lat="44.4616644" lon="7.3513477"><ele>625.3333333333334</ele><time>2026-04-19T10:31:13.213Z</time></trkpt><trkpt lat="44.4616509" lon="7.351243"><ele>625.5</ele><time>2026-04-19T10:31:14.214Z</time></trkpt><trkpt lat="44.4616353" lon="7.351145"><ele>625.6666666666666</ele><time>2026-04-19T10:31:15.215Z</time></trkpt><trkpt lat="44.4616136" lon="7.3510518"><ele>625.8333333333333</ele><time>2026-04-19T10:31:16.213Z</time></trkpt><trkpt lat="44.4615888" lon="7.3509694"><ele>626.0</ele><time>2026-04-19T10:31:17.214Z</time></trkpt><trkpt lat="44.4615574" lon="7.3508127"><ele>626.0</ele><time>2026-04-19T10:31:19.214Z</time></trkpt><trkpt lat="44.4615615" lon="7.3506796"><ele>626.0</ele><time>2026-04-19T10:31:21.214Z</time></trkpt><trkpt lat="44.4615715" lon="7.3505779"><ele>626.0</ele><time>2026-04-19T10:31:23.214Z</time></trkpt><trkpt lat="44.4615774" lon="7.3504889"><ele>626.0</ele><time>2026-04-19T10:31:25.213Z</time></trkpt><trkpt lat="44.4615852" lon="7.3503974"><ele>626.0</ele><time>2026-04-19T10:31:27.213Z</time></trkpt><trkpt lat="44.4615856" lon="7.3503089"><ele>626.0</ele><time>2026-04-19T10:31:29.213Z</time></trkpt><trkpt lat="44.46159" lon="7.3501821"><ele>625.8333333333333</ele><time>2026-04-19T10:31:32.213Z</time></trkpt><trkpt lat="44.4615912" lon="7.3500561"><ele>625.6666666666666</ele><time>2026-04-19T10:31:35.214Z</time></trkpt><trkpt lat="44.4615873" lon="7.3499323"><ele>625.5</ele><time>2026-04-19T10:31:38.213Z</time></trkpt><trkpt lat="44.4615922" lon="7.3498085"><ele>625.3333333333334</ele><time>2026-04-19T10:31:41.214Z</time></trkpt><trkpt lat="44.4615877" lon="7.3497054"><ele>625.1666666666667</ele><time>2026-04-19T10:31:43.213Z</time></trkpt><trkpt lat="44.4615691" lon="7.3495891"><ele>625.0</ele><time>2026-04-19T10:31:45.213Z</time></trkpt><trkpt lat="44.4615366" lon="7.3494684"><ele>624.8</ele><time>2026-04-19T10:31:47.213Z</time></trkpt><trkpt lat="44.4614949" lon="7.3493386"><ele>624.6</ele><time>2026-04-19T10:31:49.213Z</time></trkpt><trkpt lat="44.4614424" lon="7.3492143"><ele>624.4</ele><time>2026-04-19T10:31:51.215Z</time></trkpt><trkpt lat="44.4613827" lon="7.3490935"><ele>624.2</ele><time>2026-04-19T10:31:53.214Z</time></trkpt><trkpt lat="44.4613114" lon="7.3489738"><ele>624.0</ele><time>2026-04-19T10:31:55.213Z</time></trkpt><trkpt lat="44.461234" lon="7.3488661"><ele>624.0</ele><time>2026-04-19T10:31:57.213Z</time></trkpt><trkpt lat="44.4611505" lon="7.3487559"><ele>624.0</ele><time>2026-04-19T10:31:59.215Z</time></trkpt><trkpt lat="44.461068" lon="7.3486497"><ele>624.0</ele><time>2026-04-19T10:32:01.213Z</time></trkpt><trkpt lat="44.4609941" lon="7.3485472"><ele>624.0</ele><time>2026-04-19T10:32:03.214Z</time></trkpt><trkpt lat="44.4609368" lon="7.3484324"><ele>624.0</ele><time>2026-04-19T10:32:05.214Z</time></trkpt><trkpt lat="44.4608682" lon="7.3483211"><ele>624.0</ele><time>2026-04-19T10:32:07.215Z</time></trkpt><trkpt lat="44.4608157" lon="7.3482627"><ele>624.0</ele><time>2026-04-19T10:32:08.214Z</time></trkpt><trkpt lat="44.4607469" lon="7.3482064"><ele>624.0</ele><time>2026-04-19T10:32:09.215Z</time></trkpt><trkpt lat="44.4606722" lon="7.3481478"><ele>624.0</ele><time>2026-04-19T10:32:10.213Z</time></trkpt><trkpt lat="44.4605971" lon="7.3480841"><ele>624.0</ele><time>2026-04-19T10:32:11.213Z</time></trkpt><trkpt lat="44.4605272" lon="7.3480154"><ele>624.0</ele><time>2026-04-19T10:32:12.214Z</time></trkpt><trkpt lat="44.4604617" lon="7.3479387"><ele>626.6666666666666</ele><time>2026-04-19T10:32:13.213Z</time></trkpt><trkpt lat="44.460402" lon="7.3478486"><ele>629.3333333333334</ele><time>2026-04-19T10:32:14.213Z</time></trkpt><trkpt lat="44.4603496" lon="7.3477616"><ele>632.0</ele><time>2026-04-19T10:32:15.214Z</time></trkpt><trkpt lat="44.4603074" lon="7.3476675"><ele>634.6666666666667</ele><time>2026-04-19T10:32:16.213Z</time></trkpt><trkpt lat="44.4602712" lon="7.3475728"><ele>637.3333333333334</ele><time>2026-04-19T10:32:17.214Z</time></trkpt><trkpt lat="44.4602424" lon="7.3474786"><ele>640.0</ele><time>2026-04-19T10:32:18.214Z</time></trkpt><trkpt lat="44.4602218" lon="7.3473938"><ele>640.0</ele><time>2026-04-19T10:32:19.213Z</time></trkpt><trkpt lat="44.4601998" lon="7.3473016"><ele>640.0</ele><time>2026-04-19T10:32:20.213Z</time></trkpt><trkpt lat="44.4601822" lon="7.347212"><ele>640.0</ele><time>2026-04-19T10:32:21.213Z</time></trkpt><trkpt lat="44.4601684" lon="7.3470344"><ele>640.0</ele><time>2026-04-19T10:32:23.213Z</time></trkpt><trkpt lat="44.4601631" lon="7.3469383"><ele>640.0</ele><time>2026-04-19T10:32:24.213Z</time></trkpt><trkpt lat="44.4601629" lon="7.3468381"><ele>640.0</ele><time>2026-04-19T10:32:25.212Z</time></trkpt><trkpt lat="44.4601723" lon="7.3467466"><ele>640.5</ele><time>2026-04-19T10:32:26.213Z</time></trkpt><trkpt lat="44.4601831" lon="7.3466591"><ele>641.0</ele><time>2026-04-19T10:32:27.214Z</time></trkpt><trkpt lat="44.4601899" lon="7.3464949"><ele>641.5</ele><time>2026-04-19T10:32:29.213Z</time></trkpt><trkpt lat="44.4602049" lon="7.3463257"><ele>642.0</ele><time>2026-04-19T10:32:31.212Z</time></trkpt><trkpt lat="44.4602103" lon="7.3462341"><ele>642.5</ele><time>2026-04-19T10:32:32.213Z</time></trkpt><trkpt lat="44.4602156" lon="7.3461438"><ele>643.0</ele><time>2026-04-19T10:32:33.213Z</time></trkpt><trkpt lat="44.4602316" lon="7.3459699"><ele>643.8333333333334</ele><time>2026-04-19T10:32:35.213Z</time></trkpt><trkpt lat="44.4602364" lon="7.3458799"><ele>644.6666666666667</ele><time>2026-04-19T10:32:36.212Z</time></trkpt><trkpt lat="44.460237" lon="7.3457916"><ele>645.5</ele><time>2026-04-19T10:32:37.212Z</time></trkpt><trkpt lat="44.4602437" lon="7.3456181"><ele>646.3333333333334</ele><time>2026-04-19T10:32:39.212Z</time></trkpt><trkpt lat="44.4602496" lon="7.3455265"><ele>647.1666666666666</ele><time>2026-04-19T10:32:40.213Z</time></trkpt><trkpt lat="44.460256" lon="7.3454376"><ele>648.0</ele><time>2026-04-19T10:32:41.213Z</time></trkpt><trkpt lat="44.4602773" lon="7.3452688"><ele>649.75</ele><time>2026-04-19T10:32:43.212Z</time></trkpt><trkpt lat="44.460311" lon="7.3451119"><ele>651.5</ele><time>2026-04-19T10:32:45.213Z</time></trkpt><trkpt lat="44.460348" lon="7.3449609"><ele>653.25</ele><time>2026-04-19T10:32:47.212Z</time></trkpt><trkpt lat="44.4603803" lon="7.3448104"><ele>655.0</ele><time>2026-04-19T10:32:49.212Z</time></trkpt><trkpt lat="44.4604162" lon="7.3446613"><ele>656.25</ele><time>2026-04-19T10:32:51.212Z</time></trkpt><trkpt lat="44.4604492" lon="7.3445044"><ele>657.5</ele><time>2026-04-19T10:32:53.214Z</time></trkpt><trkpt lat="44.4604732" lon="7.3443408"><ele>658.75</ele><time>2026-04-19T10:32:55.214Z</time></trkpt><trkpt lat="44.4604927" lon="7.3441846"><ele>660.0</ele><time>2026-04-19T10:32:57.212Z</time></trkpt><trkpt lat="44.4604989" lon="7.3440154"><ele>648.25</ele><time>2026-04-19T10:32:59.212Z</time></trkpt><trkpt lat="44.4604929" lon="7.3438515"><ele>636.5</ele><time>2026-04-19T10:33:01.214Z</time></trkpt><trkpt lat="44.4604805" lon="7.3436886"><ele>624.75</ele><time>2026-04-19T10:33:03.212Z</time></trkpt><trkpt lat="44.4604671" lon="7.3435158"><ele>613.0</ele><time>2026-04-19T10:33:05.213Z</time></trkpt><trkpt lat="44.4604599" lon="7.343359"><ele>613.0</ele><time>2026-04-19T10:33:07.212Z</time></trkpt><trkpt lat="44.4604504" lon="7.3431962"><ele>613.0</ele><time>2026-04-19T10:33:09.214Z</time></trkpt><trkpt lat="44.4604542" lon="7.343035"><ele>613.0</ele><time>2026-04-19T10:33:11.213Z</time></trkpt><trkpt lat="44.4604755" lon="7.3428809"><ele>613.0</ele><time>2026-04-19T10:33:13.214Z</time></trkpt><trkpt lat="44.4605052" lon="7.3427255"><ele>613.8</ele><time>2026-04-19T10:33:15.212Z</time></trkpt><trkpt lat="44.4605357" lon="7.3425862"><ele>614.5999999999999</ele><time>2026-04-19T10:33:17.212Z</time></trkpt><trkpt lat="44.4605604" lon="7.342443"><ele>615.4000000000001</ele><time>2026-04-19T10:33:19.213Z</time></trkpt><trkpt lat="44.4605826" lon="7.3422938"><ele>616.2</ele><time>2026-04-19T10:33:21.212Z</time></trkpt><trkpt lat="44.4606154" lon="7.3421555"><ele>617.0</ele><time>2026-04-19T10:33:23.214Z</time></trkpt><trkpt lat="44.4606352" lon="7.342031"><ele>619.2</ele><time>2026-04-19T10:33:25.212Z</time></trkpt><trkpt lat="44.4606651" lon="7.341887"><ele>621.4000000000001</ele><time>2026-04-19T10:33:27.212Z</time></trkpt><trkpt lat="44.4606904" lon="7.3417524"><ele>623.5999999999999</ele><time>2026-04-19T10:33:29.213Z</time></trkpt><trkpt lat="44.4607264" lon="7.3416065"><ele>625.8</ele><time>2026-04-19T10:33:31.212Z</time></trkpt><trkpt lat="44.4607678" lon="7.3414638"><ele>628.0</ele><time>2026-04-19T10:33:33.213Z</time></trkpt><trkpt lat="44.4608116" lon="7.3413275"><ele>631.2</ele><time>2026-04-19T10:33:35.213Z</time></trkpt><trkpt lat="44.4608585" lon="7.3411975"><ele>634.4</ele><time>2026-04-19T10:33:37.212Z</time></trkpt><trkpt lat="44.460912" lon="7.341069"><ele>637.6</ele><time>2026-04-19T10:33:39.213Z</time></trkpt><trkpt lat="44.4609802" lon="7.3409598"><ele>640.8000000000001</ele><time>2026-04-19T10:33:41.212Z</time></trkpt><trkpt lat="44.4610463" lon="7.3408579"><ele>644.0</ele><time>2026-04-19T10:33:43.212Z</time></trkpt><trkpt lat="44.4611144" lon="7.3407791"><ele>644.0</ele><time>2026-04-19T10:33:45.213Z</time></trkpt><trkpt lat="44.4611897" lon="7.3406817"><ele>644.0</ele><time>2026-04-19T10:33:47.213Z</time></trkpt><trkpt lat="44.4612624" lon="7.3405781"><ele>644.0</ele><time>2026-04-19T10:33:49.212Z</time></trkpt><trkpt lat="44.4613204" lon="7.3404656"><ele>644.0</ele><time>2026-04-19T10:33:51.213Z</time></trkpt><trkpt lat="44.4613603" lon="7.3403614"><ele>644.0</ele><time>2026-04-19T10:33:53.212Z</time></trkpt><trkpt lat="44.4613986" lon="7.3402654"><ele>640.8571428571429</ele><time>2026-04-19T10:33:55.212Z</time></trkpt><trkpt lat="44.4614206" lon="7.3401811"><ele>637.7142857142858</ele><time>2026-04-19T10:33:57.214Z</time></trkpt><trkpt lat="44.4614482" lon="7.3400791"><ele>634.5714285714286</ele><time>2026-04-19T10:34:00.212Z</time></trkpt><trkpt lat="44.4614878" lon="7.3399925"><ele>631.4285714285714</ele><time>2026-04-19T10:34:03.212Z</time></trkpt><trkpt lat="44.461557" lon="7.3399331"><ele>628.2857142857143</ele><time>2026-04-19T10:34:06.213Z</time></trkpt><trkpt lat="44.4616087" lon="7.3398645"><ele>625.1428571428571</ele><time>2026-04-19T10:34:09.213Z</time></trkpt><trkpt lat="44.4616151" lon="7.3397752"><ele>622.0</ele><time>2026-04-19T10:34:12.213Z</time></trkpt><trkpt lat="44.46158" lon="7.3396746"><ele>621.8333333333334</ele><time>2026-04-19T10:34:16.212Z</time></trkpt><trkpt lat="44.4615307" lon="7.3395986"><ele>621.6666666666667</ele><time>2026-04-19T10:34:31.213Z</time></trkpt><trkpt lat="44.4614733" lon="7.3395219"><ele>621.5</ele><time>2026-04-19T10:34:34.213Z</time></trkpt><trkpt lat="44.4614065" lon="7.3394778"><ele>621.3333333333334</ele><time>2026-04-19T10:34:36.213Z</time></trkpt><trkpt lat="44.4613319" lon="7.3393916"><ele>621.1666666666666</ele><time>2026-04-19T10:34:38.213Z</time></trkpt><trkpt lat="44.4612818" lon="7.3393011"><ele>621.0</ele><time>2026-04-19T10:34:39.212Z</time></trkpt><trkpt lat="44.4612538" lon="7.3392087"><ele>621.3333333333334</ele><time>2026-04-19T10:34:40.214Z</time></trkpt><trkpt lat="44.4612286" lon="7.3391053"><ele>621.6666666666666</ele><time>2026-04-19T10:34:41.213Z</time></trkpt><trkpt lat="44.4612124" lon="7.3390042"><ele>622.0</ele><time>2026-04-19T10:34:42.212Z</time></trkpt><trkpt lat="44.4612386" lon="7.3389095"><ele>622.3333333333333</ele><time>2026-04-19T10:34:43.212Z</time></trkpt><trkpt lat="44.4612591" lon="7.3388122"><ele>622.6666666666666</ele><time>2026-04-19T10:34:44.212Z</time></trkpt><trkpt lat="44.46129" lon="7.3386561"><ele>623.0</ele><time>2026-04-19T10:34:46.212Z</time></trkpt><trkpt lat="44.4613178" lon="7.3385043"><ele>623.0</ele><time>2026-04-19T10:34:48.213Z</time></trkpt><trkpt lat="44.4613746" lon="7.3383519"><ele>623.0</ele><time>2026-04-19T10:34:50.212Z</time></trkpt><trkpt lat="44.4614448" lon="7.3382245"><ele>623.0</ele><time>2026-04-19T10:34:52.213Z</time></trkpt><trkpt lat="44.461484" lon="7.3381552"><ele>623.0</ele><time>2026-04-19T10:34:53.213Z</time></trkpt><trkpt lat="44.4615181" lon="7.3380759"><ele>623.0</ele><time>2026-04-19T10:34:54.212Z</time></trkpt><trkpt lat="44.4615735" lon="7.3379934"><ele>623.0</ele><time>2026-04-19T10:34:55.212Z</time></trkpt><trkpt lat="44.461636" lon="7.3379172"><ele>626.3333333333333</ele><time>2026-04-19T10:34:56.213Z</time></trkpt><trkpt lat="44.4616887" lon="7.3378392"><ele>629.6666666666666</ele><time>2026-04-19T10:34:57.213Z</time></trkpt><trkpt lat="44.4617489" lon="7.3377627"><ele>633.0</ele><time>2026-04-19T10:34:58.212Z</time></trkpt><trkpt lat="44.4618014" lon="7.337688"><ele>636.3333333333334</ele><time>2026-04-19T10:34:59.212Z</time></trkpt><trkpt lat="44.4618579" lon="7.3376183"><ele>639.6666666666667</ele><time>2026-04-19T10:35:00.212Z</time></trkpt><trkpt lat="44.4619234" lon="7.3375534"><ele>643.0</ele><time>2026-04-19T10:35:01.212Z</time></trkpt><trkpt lat="44.4619743" lon="7.3374932"><ele>643.0</ele><time>2026-04-19T10:35:02.212Z</time></trkpt><trkpt lat="44.4620316" lon="7.3374117"><ele>643.0</ele><time>2026-04-19T10:35:03.213Z</time></trkpt><trkpt lat="44.4620737" lon="7.3373337"><ele>643.0</ele><time>2026-04-19T10:35:04.212Z</time></trkpt><trkpt lat="44.4621145" lon="7.3372545"><ele>643.0</ele><time>2026-04-19T10:35:05.212Z</time></trkpt><trkpt lat="44.4621661" lon="7.3371007"><ele>643.0</ele><time>2026-04-19T10:35:07.212Z</time></trkpt><trkpt lat="44.4622006" lon="7.3369582"><ele>642.1999999999999</ele><time>2026-04-19T10:35:09.212Z</time></trkpt><trkpt lat="44.4622303" lon="7.3368229"><ele>641.4</ele><time>2026-04-19T10:35:11.212Z</time></trkpt><trkpt lat="44.462267" lon="7.3366989"><ele>640.5999999999999</ele><time>2026-04-19T10:35:13.213Z</time></trkpt><trkpt lat="44.4622882" lon="7.3365673"><ele>639.8</ele><time>2026-04-19T10:35:15.212Z</time></trkpt><trkpt lat="44.4623187" lon="7.3364103"><ele>639.0</ele><time>2026-04-19T10:35:17.213Z</time></trkpt><trkpt lat="44.4623595" lon="7.3362676"><ele>639.0</ele><time>2026-04-19T10:35:19.213Z</time></trkpt><trkpt lat="44.4623932" lon="7.336133"><ele>639.0</ele><time>2026-04-19T10:35:21.213Z</time></trkpt><trkpt lat="44.4624399" lon="7.3360191"><ele>639.0</ele><time>2026-04-19T10:35:23.212Z</time></trkpt><trkpt lat="44.4625175" lon="7.3359047"><ele>639.0</ele><time>2026-04-19T10:35:25.213Z</time></trkpt><trkpt lat="44.4626013" lon="7.3357896"><ele>639.0</ele><time>2026-04-19T10:35:27.214Z</time></trkpt><trkpt lat="44.4626599" lon="7.3356729"><ele>639.0</ele><time>2026-04-19T10:35:29.212Z</time></trkpt><trkpt lat="44.4626963" lon="7.3355627"><ele>639.0</ele><time>2026-04-19T10:35:31.214Z</time></trkpt><trkpt lat="44.4627391" lon="7.3354505"><ele>639.0</ele><time>2026-04-19T10:35:33.212Z</time></trkpt><trkpt lat="44.4627782" lon="7.3353213"><ele>639.0</ele><time>2026-04-19T10:35:35.213Z</time></trkpt><trkpt lat="44.4628105" lon="7.335207"><ele>639.0</ele><time>2026-04-19T10:35:37.212Z</time></trkpt><trkpt lat="44.4628546" lon="7.3351"><ele>636.5714285714287</ele><time>2026-04-19T10:35:39.212Z</time></trkpt><trkpt lat="44.4628815" lon="7.3350056"><ele>634.1428571428571</ele><time>2026-04-19T10:35:41.212Z</time></trkpt><trkpt lat="44.4629081" lon="7.3349235"><ele>631.7142857142858</ele><time>2026-04-19T10:35:43.212Z</time></trkpt><trkpt lat="44.4629454" lon="7.3348049"><ele>629.2857142857143</ele><time>2026-04-19T10:35:46.212Z</time></trkpt><trkpt lat="44.4629518" lon="7.3347165"><ele>626.8571428571429</ele><time>2026-04-19T10:35:48.212Z</time></trkpt><trkpt lat="44.4629637" lon="7.3346282"><ele>624.4285714285714</ele><time>2026-04-19T10:35:50.212Z</time></trkpt><trkpt lat="44.4629742" lon="7.3345385"><ele>622.0</ele><time>2026-04-19T10:35:52.212Z</time></trkpt><trkpt lat="44.4629818" lon="7.3344414"><ele>622.0</ele><time>2026-04-19T10:35:54.212Z</time></trkpt><trkpt lat="44.462993" lon="7.3343304"><ele>622.0</ele><time>2026-04-19T10:35:56.212Z</time></trkpt><trkpt lat="44.4630086" lon="7.3342253"><ele>622.0</ele><time>2026-04-19T10:35:58.213Z</time></trkpt><trkpt lat="44.4630239" lon="7.3341211"><ele>622.0</ele><time>2026-04-19T10:36:00.212Z</time></trkpt><trkpt lat="44.4630417" lon="7.3340143"><ele>622.0</ele><time>2026-04-19T10:36:02.213Z</time></trkpt><trkpt lat="44.4630504" lon="7.3338985"><ele>622.0</ele><time>2026-04-19T10:36:04.212Z</time></trkpt><trkpt lat="44.4630644" lon="7.3338004"><ele>622.6</ele><time>2026-04-19T10:36:05.876Z</time></trkpt><trkpt lat="44.4630763" lon="7.3336678"><ele>623.2</ele><time>2026-04-19T10:36:08.213Z</time></trkpt><trkpt lat="44.4630952" lon="7.333548"><ele>623.8</ele><time>2026-04-19T10:36:10.212Z</time></trkpt><trkpt lat="44.463121" lon="7.3334279"><ele>624.4</ele><time>2026-04-19T10:36:12.214Z</time></trkpt><trkpt lat="44.4631598" lon="7.3333021"><ele>625.0</ele><time>2026-04-19T10:36:14.213Z</time></trkpt><trkpt lat="44.4631916" lon="7.3331653"><ele>627.0</ele><time>2026-04-19T10:36:16.212Z</time></trkpt><trkpt lat="44.4632295" lon="7.3330182"><ele>629.0</ele><time>2026-04-19T10:36:18.212Z</time></trkpt><trkpt lat="44.4632629" lon="7.3328601"><ele>631.0</ele><time>2026-04-19T10:36:20.212Z</time></trkpt><trkpt lat="44.4633083" lon="7.332699"><ele>633.0</ele><time>2026-04-19T10:36:22.212Z</time></trkpt><trkpt lat="44.4633339" lon="7.3326135"><ele>635.0</ele><time>2026-04-19T10:36:23.212Z</time></trkpt><trkpt lat="44.4633593" lon="7.3325301"><ele>635.0</ele><time>2026-04-19T10:36:24.212Z</time></trkpt><trkpt lat="44.4634059" lon="7.3323832"><ele>635.0</ele><time>2026-04-19T10:36:26.213Z</time></trkpt><trkpt lat="44.4634492" lon="7.3322662"><ele>635.0</ele><time>2026-04-19T10:36:28.212Z</time></trkpt><trkpt lat="44.4634927" lon="7.3321627"><ele>635.0</ele><time>2026-04-19T10:36:30.212Z</time></trkpt><trkpt lat="44.4634963" lon="7.3320505"><ele>635.0</ele><time>2026-04-19T10:36:32.212Z</time></trkpt><trkpt lat="44.4634649" lon="7.3319476"><ele>635.8571428571428</ele><time>2026-04-19T10:36:34.212Z</time></trkpt><trkpt lat="44.4634464" lon="7.331845"><ele>636.7142857142857</ele><time>2026-04-19T10:36:36.214Z</time></trkpt><trkpt lat="44.4634659" lon="7.331744"><ele>637.5714285714286</ele><time>2026-04-19T10:36:38.213Z</time></trkpt><trkpt lat="44.4634971" lon="7.3316464"><ele>638.4285714285713</ele><time>2026-04-19T10:36:40.214Z</time></trkpt><trkpt lat="44.4635419" lon="7.3315637"><ele>639.2857142857142</ele><time>2026-04-19T10:36:42.212Z</time></trkpt><trkpt lat="44.4635928" lon="7.3314957"><ele>640.1428571428571</ele><time>2026-04-19T10:36:44.213Z</time></trkpt><trkpt lat="44.4636454" lon="7.3314448"><ele>641.0</ele><time>2026-04-19T10:36:46.213Z</time></trkpt><trkpt lat="44.4637179" lon="7.3313767"><ele>641.2857142857143</ele><time>2026-04-19T10:36:49.212Z</time></trkpt><trkpt lat="44.4637767" lon="7.331306"><ele>641.5714285714286</ele><time>2026-04-19T10:36:52.211Z</time></trkpt><trkpt lat="44.4638337" lon="7.3312397"><ele>641.8571428571429</ele><time>2026-04-19T10:36:55.212Z</time></trkpt><trkpt lat="44.4638851" lon="7.3311723"><ele>642.1428571428571</ele><time>2026-04-19T10:36:58.211Z</time></trkpt><trkpt lat="44.4639178" lon="7.3310846"><ele>642.4285714285714</ele><time>2026-04-19T10:37:01.212Z</time></trkpt><trkpt lat="44.4639543" lon="7.331"><ele>642.7142857142857</ele><time>2026-04-19T10:37:04.211Z</time></trkpt><trkpt lat="44.4639723" lon="7.3309004"><ele>643.0</ele><time>2026-04-19T10:37:07.211Z</time></trkpt><trkpt lat="44.4639974" lon="7.3307945"><ele>642.4285714285714</ele><time>2026-04-19T10:37:10.212Z</time></trkpt><trkpt lat="44.4640502" lon="7.3306959"><ele>641.8571428571429</ele><time>2026-04-19T10:37:13.211Z</time></trkpt><trkpt lat="44.4640934" lon="7.330629"><ele>641.2857142857143</ele><time>2026-04-19T10:37:15.212Z</time></trkpt><trkpt lat="44.4641334" lon="7.3305531"><ele>640.7142857142858</ele><time>2026-04-19T10:37:17.212Z</time></trkpt><trkpt lat="44.464176" lon="7.3304798"><ele>640.1428571428571</ele><time>2026-04-19T10:37:19.211Z</time></trkpt><trkpt lat="44.4642109" lon="7.3303889"><ele>639.5714285714287</ele><time>2026-04-19T10:37:21.213Z</time></trkpt><trkpt lat="44.464241" lon="7.33029"><ele>639.0</ele><time>2026-04-19T10:37:23.211Z</time></trkpt><trkpt lat="44.4642704" lon="7.330193"><ele>639.0</ele><time>2026-04-19T10:37:25.213Z</time></trkpt><trkpt lat="44.4642964" lon="7.3300988"><ele>639.0</ele><time>2026-04-19T10:37:27.212Z</time></trkpt><trkpt lat="44.4643206" lon="7.3299953"><ele>639.0</ele><time>2026-04-19T10:37:29.211Z</time></trkpt><trkpt lat="44.4643427" lon="7.3299112"><ele>639.0</ele><time>2026-04-19T10:37:31.212Z</time></trkpt><trkpt lat="44.4643673" lon="7.3297925"><ele>639.0</ele><time>2026-04-19T10:37:34.211Z</time></trkpt><trkpt lat="44.4643752" lon="7.3296872"><ele>639.0</ele><time>2026-04-19T10:37:36.212Z</time></trkpt><trkpt lat="44.4643795" lon="7.3295771"><ele>639.6666666666666</ele><time>2026-04-19T10:37:38.212Z</time></trkpt><trkpt lat="44.4643795" lon="7.3294658"><ele>640.3333333333334</ele><time>2026-04-19T10:37:40.212Z</time></trkpt><trkpt lat="44.4643777" lon="7.3293606"><ele>641.0</ele><time>2026-04-19T10:37:42.211Z</time></trkpt><trkpt lat="44.46437" lon="7.3292507"><ele>641.6666666666667</ele><time>2026-04-19T10:37:44.211Z</time></trkpt><trkpt lat="44.4643517" lon="7.3291564"><ele>642.3333333333334</ele><time>2026-04-19T10:37:46.215Z</time></trkpt><trkpt lat="44.4643452" lon="7.3290418"><ele>643.0</ele><time>2026-04-19T10:37:49.165Z</time></trkpt><trkpt lat="44.4643529" lon="7.3289397"><ele>643.1428571428571</ele><time>2026-04-19T10:37:51.211Z</time></trkpt><trkpt lat="44.4643659" lon="7.3288384"><ele>643.2857142857143</ele><time>2026-04-19T10:37:53.212Z</time></trkpt><trkpt lat="44.4643817" lon="7.3287395"><ele>643.4285714285714</ele><time>2026-04-19T10:37:55.211Z</time></trkpt><trkpt lat="44.4643939" lon="7.3286368"><ele>643.5714285714286</ele><time>2026-04-19T10:37:57.211Z</time></trkpt><trkpt lat="44.4644036" lon="7.3285339"><ele>643.7142857142858</ele><time>2026-04-19T10:37:59.211Z</time></trkpt><trkpt lat="44.4644173" lon="7.3284303"><ele>643.8571428571429</ele><time>2026-04-19T10:38:01.211Z</time></trkpt><trkpt lat="44.4644367" lon="7.328324"><ele>644.0</ele><time>2026-04-19T10:38:03.243Z</time></trkpt><trkpt lat="44.4644542" lon="7.3282238"><ele>644.0</ele><time>2026-04-19T10:38:05.211Z</time></trkpt><trkpt lat="44.4644694" lon="7.328124"><ele>644.0</ele><time>2026-04-19T10:38:07.211Z</time></trkpt><trkpt lat="44.4644844" lon="7.3280233"><ele>644.0</ele><time>2026-04-19T10:38:09.212Z</time></trkpt><trkpt lat="44.4644951" lon="7.3279191"><ele>644.0</ele><time>2026-04-19T10:38:11.211Z</time></trkpt><trkpt lat="44.4644965" lon="7.3278142"><ele>644.0</ele><time>2026-04-19T10:38:13.211Z</time></trkpt><trkpt lat="44.4645006" lon="7.3277054"><ele>644.0</ele><time>2026-04-19T10:38:15.214Z</time></trkpt><trkpt lat="44.4645182" lon="7.3275987"><ele>644.1666666666666</ele><time>2026-04-19T10:38:17.203Z</time></trkpt><trkpt lat="44.464536" lon="7.3274852"><ele>644.3333333333333</ele><time>2026-04-19T10:38:19.247Z</time></trkpt><trkpt lat="44.4645447" lon="7.3273751"><ele>644.5</ele><time>2026-04-19T10:38:21.212Z</time></trkpt><trkpt lat="44.4645489" lon="7.3272634"><ele>644.6666666666666</ele><time>2026-04-19T10:38:23.212Z</time></trkpt><trkpt lat="44.4645557" lon="7.3271579"><ele>644.8333333333334</ele><time>2026-04-19T10:38:25.211Z</time></trkpt><trkpt lat="44.4645611" lon="7.3270511"><ele>645.0</ele><time>2026-04-19T10:38:27.212Z</time></trkpt><trkpt lat="44.4645789" lon="7.3269448"><ele>645.5</ele><time>2026-04-19T10:38:29.213Z</time></trkpt><trkpt lat="44.4645998" lon="7.3268375"><ele>646.0</ele><time>2026-04-19T10:38:31.211Z</time></trkpt><trkpt lat="44.4646132" lon="7.3267277"><ele>646.5</ele><time>2026-04-19T10:38:33.212Z</time></trkpt><trkpt lat="44.4646058" lon="7.3266134"><ele>647.0</ele><time>2026-04-19T10:38:35.211Z</time></trkpt><trkpt lat="44.4645819" lon="7.3265001"><ele>647.5</ele><time>2026-04-19T10:38:37.206Z</time></trkpt><trkpt lat="44.4645598" lon="7.3263867"><ele>648.0</ele><time>2026-04-19T10:38:39.211Z</time></trkpt><trkpt lat="44.464536" lon="7.3262777"><ele>648.0</ele><time>2026-04-19T10:38:41.211Z</time></trkpt><trkpt lat="44.464491" lon="7.3261864"><ele>648.0</ele><time>2026-04-19T10:38:43.199Z</time></trkpt><trkpt lat="44.4644329" lon="7.326126"><ele>648.0</ele><time>2026-04-19T10:38:45.142Z</time></trkpt><trkpt lat="44.4643568" lon="7.3261155"><ele>648.0</ele><time>2026-04-19T10:38:47.212Z</time></trkpt><trkpt lat="44.4642862" lon="7.3261124"><ele>648.0</ele><time>2026-04-19T10:38:49.13Z</time></trkpt><trkpt lat="44.4642107" lon="7.3261218"><ele>648.0</ele><time>2026-04-19T10:38:51.211Z</time></trkpt><trkpt lat="44.4641333" lon="7.3261012"><ele>648.0</ele><time>2026-04-19T10:38:53.211Z</time></trkpt><trkpt lat="44.4640753" lon="7.3260126"><ele>648.0</ele><time>2026-04-19T10:38:55.212Z</time></trkpt><trkpt lat="44.4640579" lon="7.3258884"><ele>648.0</ele><time>2026-04-19T10:38:57.211Z</time></trkpt><trkpt lat="44.4640439" lon="7.3257701"><ele>648.0</ele><time>2026-04-19T10:38:59.211Z</time></trkpt><trkpt lat="44.464057" lon="7.3256634"><ele>648.0</ele><time>2026-04-19T10:39:01.06Z</time></trkpt><trkpt lat="44.4640889" lon="7.3255441"><ele>648.0</ele><time>2026-04-19T10:39:03.158Z</time></trkpt><trkpt lat="44.4641256" lon="7.3254426"><ele>648.4285714285714</ele><time>2026-04-19T10:39:05.124Z</time></trkpt><trkpt lat="44.4641824" lon="7.3253616"><ele>648.8571428571429</ele><time>2026-04-19T10:39:07.217Z</time></trkpt><trkpt lat="44.4642238" lon="7.3252767"><ele>649.2857142857142</ele><time>2026-04-19T10:39:09.211Z</time></trkpt><trkpt lat="44.4642671" lon="7.3252013"><ele>649.7142857142858</ele><time>2026-04-19T10:39:11.196Z</time></trkpt><trkpt lat="44.4643129" lon="7.3251375"><ele>650.1428571428571</ele><time>2026-04-19T10:39:13.211Z</time></trkpt><trkpt lat="44.4643597" lon="7.3250678"><ele>650.5714285714286</ele><time>2026-04-19T10:39:15.211Z</time></trkpt><trkpt lat="44.4643989" lon="7.3249831"><ele>651.0</ele><time>2026-04-19T10:39:17.211Z</time></trkpt><trkpt lat="44.4644364" lon="7.3248872"><ele>651.0</ele><time>2026-04-19T10:39:19.211Z</time></trkpt><trkpt lat="44.4644666" lon="7.3247723"><ele>651.0</ele><time>2026-04-19T10:39:21.241Z</time></trkpt><trkpt lat="44.4644899" lon="7.3246584"><ele>651.0</ele><time>2026-04-19T10:39:23.211Z</time></trkpt><trkpt lat="44.4645159" lon="7.3245376"><ele>651.0</ele><time>2026-04-19T10:39:25.211Z</time></trkpt><trkpt lat="44.4645558" lon="7.3244178"><ele>651.0</ele><time>2026-04-19T10:39:27.213Z</time></trkpt><trkpt lat="44.4645966" lon="7.3242955"><ele>650.8</ele><time>2026-04-19T10:39:29.211Z</time></trkpt><trkpt lat="44.4646364" lon="7.3241799"><ele>650.5999999999999</ele><time>2026-04-19T10:39:31.211Z</time></trkpt><trkpt lat="44.4646829" lon="7.3240609"><ele>650.4</ele><time>2026-04-19T10:39:33.211Z</time></trkpt><trkpt lat="44.4647195" lon="7.3239393"><ele>650.2</ele><time>2026-04-19T10:39:35.213Z</time></trkpt><trkpt lat="44.4647582" lon="7.3238163"><ele>650.0</ele><time>2026-04-19T10:39:37.212Z</time></trkpt><trkpt lat="44.4647902" lon="7.3236872"><ele>650.4</ele><time>2026-04-19T10:39:39.211Z</time></trkpt><trkpt lat="44.464821" lon="7.3235577"><ele>650.8</ele><time>2026-04-19T10:39:41.211Z</time></trkpt><trkpt lat="44.4648493" lon="7.3234181"><ele>651.2</ele><time>2026-04-19T10:39:43.212Z</time></trkpt><trkpt lat="44.4648768" lon="7.3232826"><ele>651.6</ele><time>2026-04-19T10:39:45.212Z</time></trkpt><trkpt lat="44.4649035" lon="7.3231474"><ele>652.0</ele><time>2026-04-19T10:39:47.212Z</time></trkpt><trkpt lat="44.4649326" lon="7.3230129"><ele>652.4000000000001</ele><time>2026-04-19T10:39:49.211Z</time></trkpt><trkpt lat="44.4649646" lon="7.3228812"><ele>652.8000000000001</ele><time>2026-04-19T10:39:51.213Z</time></trkpt><trkpt lat="44.4650004" lon="7.3227527"><ele>653.2</ele><time>2026-04-19T10:39:53.212Z</time></trkpt><trkpt lat="44.4650389" lon="7.3226289"><ele>653.6</ele><time>2026-04-19T10:39:55.211Z</time></trkpt><trkpt lat="44.4650724" lon="7.3225034"><ele>654.0</ele><time>2026-04-19T10:39:57.212Z</time></trkpt><trkpt lat="44.4651049" lon="7.3223722"><ele>654.0</ele><time>2026-04-19T10:39:59.213Z</time></trkpt><trkpt lat="44.4651307" lon="7.3222491"><ele>654.0</ele><time>2026-04-19T10:40:01.212Z</time></trkpt><trkpt lat="44.4651523" lon="7.3221239"><ele>654.0</ele><time>2026-04-19T10:40:03.211Z</time></trkpt><trkpt lat="44.4651676" lon="7.3220029"><ele>654.0</ele><time>2026-04-19T10:40:05.211Z</time></trkpt><trkpt lat="44.4651731" lon="7.3218907"><ele>654.0</ele><time>2026-04-19T10:40:07.211Z</time></trkpt><trkpt lat="44.4651788" lon="7.3217847"><ele>654.0</ele><time>2026-04-19T10:40:09.212Z</time></trkpt><trkpt lat="44.4651819" lon="7.3216866"><ele>654.5714285714286</ele><time>2026-04-19T10:40:11.211Z</time></trkpt><trkpt lat="44.4651854" lon="7.3215934"><ele>655.1428571428571</ele><time>2026-04-19T10:40:13.211Z</time></trkpt><trkpt lat="44.4651863" lon="7.3215017"><ele>655.7142857142858</ele><time>2026-04-19T10:40:15.211Z</time></trkpt><trkpt lat="44.4651894" lon="7.3214075"><ele>656.2857142857142</ele><time>2026-04-19T10:40:17.212Z</time></trkpt><trkpt lat="44.4651884" lon="7.3213098"><ele>656.8571428571429</ele><time>2026-04-19T10:40:19.212Z</time></trkpt><trkpt lat="44.465188" lon="7.3212143"><ele>657.4285714285714</ele><time>2026-04-19T10:40:21.212Z</time></trkpt><trkpt lat="44.465196" lon="7.3211208"><ele>658.0</ele><time>2026-04-19T10:40:23.212Z</time></trkpt><trkpt lat="44.4652011" lon="7.3210302"><ele>658.0</ele><time>2026-04-19T10:40:25.211Z</time></trkpt><trkpt lat="44.4652085" lon="7.3209048"><ele>658.0</ele><time>2026-04-19T10:40:28.212Z</time></trkpt><trkpt lat="44.4652163" lon="7.3207818"><ele>658.0</ele><time>2026-04-19T10:40:31.211Z</time></trkpt><trkpt lat="44.465218" lon="7.320661"><ele>658.0</ele><time>2026-04-19T10:40:34.212Z</time></trkpt><trkpt lat="44.4652196" lon="7.3205318"><ele>658.0</ele><time>2026-04-19T10:40:37.211Z</time></trkpt><trkpt lat="44.4652164" lon="7.3204415"><ele>658.0</ele><time>2026-04-19T10:40:39.212Z</time></trkpt><trkpt lat="44.4652127" lon="7.3203495"><ele>658.0</ele><time>2026-04-19T10:40:41.211Z</time></trkpt><trkpt lat="44.4652106" lon="7.3202583"><ele>658.0</ele><time>2026-04-19T10:40:43.211Z</time></trkpt><trkpt lat="44.4652051" lon="7.3201643"><ele>658.0</ele><time>2026-04-19T10:40:45.211Z</time></trkpt><trkpt lat="44.4652039" lon="7.3200665"><ele>658.0</ele><time>2026-04-19T10:40:47.211Z</time></trkpt><trkpt lat="44.4651979" lon="7.3199602"><ele>658.0</ele><time>2026-04-19T10:40:49.211Z</time></trkpt><trkpt lat="44.4651897" lon="7.3198484"><ele>658.0</ele><time>2026-04-19T10:40:51.211Z</time></trkpt><trkpt lat="44.4651789" lon="7.319732"><ele>658.0</ele><time>2026-04-19T10:40:53.213Z</time></trkpt><trkpt lat="44.4651669" lon="7.3196088"><ele>658.0</ele><time>2026-04-19T10:40:55.211Z</time></trkpt><trkpt lat="44.4651535" lon="7.3194753"><ele>658.0</ele><time>2026-04-19T10:40:57.213Z</time></trkpt><trkpt lat="44.4651396" lon="7.3193348"><ele>658.0</ele><time>2026-04-19T10:40:59.211Z</time></trkpt><trkpt lat="44.4651229" lon="7.319187"><ele>658.0</ele><time>2026-04-19T10:41:01.212Z</time></trkpt><trkpt lat="44.4651022" lon="7.3190318"><ele>658.0</ele><time>2026-04-19T10:41:03.212Z</time></trkpt><trkpt lat="44.4650797" lon="7.3188751"><ele>658.2</ele><time>2026-04-19T10:41:05.212Z</time></trkpt><trkpt lat="44.4650592" lon="7.3187248"><ele>658.4</ele><time>2026-04-19T10:41:07.211Z</time></trkpt><trkpt lat="44.4650563" lon="7.3185786"><ele>658.6</ele><time>2026-04-19T10:41:09.212Z</time></trkpt><trkpt lat="44.4650955" lon="7.3184459"><ele>658.8000000000001</ele><time>2026-04-19T10:41:11.211Z</time></trkpt><trkpt lat="44.4651497" lon="7.3183257"><ele>659.0</ele><time>2026-04-19T10:41:13.212Z</time></trkpt><trkpt lat="44.4651997" lon="7.318223"><ele>659.0</ele><time>2026-04-19T10:41:15.211Z</time></trkpt><trkpt lat="44.4652434" lon="7.3181246"><ele>659.0</ele><time>2026-04-19T10:41:17.213Z</time></trkpt><trkpt lat="44.4652785" lon="7.3180255"><ele>659.0</ele><time>2026-04-19T10:41:19.21Z</time></trkpt><trkpt lat="44.4653117" lon="7.3179321"><ele>659.0</ele><time>2026-04-19T10:41:21.211Z</time></trkpt><trkpt lat="44.4653546" lon="7.317812"><ele>659.0</ele><time>2026-04-19T10:41:24.211Z</time></trkpt><trkpt lat="44.4653851" lon="7.317689"><ele>659.0</ele><time>2026-04-19T10:41:26.211Z</time></trkpt><trkpt lat="44.4654238" lon="7.3175802"><ele>659.7142857142858</ele><time>2026-04-19T10:41:28.21Z</time></trkpt><trkpt lat="44.4654611" lon="7.3174826"><ele>660.4285714285713</ele><time>2026-04-19T10:41:30.21Z</time></trkpt><trkpt lat="44.4655108" lon="7.3173991"><ele>661.1428571428571</ele><time>2026-04-19T10:41:32.211Z</time></trkpt><trkpt lat="44.465567" lon="7.3173258"><ele>661.8571428571429</ele><time>2026-04-19T10:41:34.211Z</time></trkpt><trkpt lat="44.4656184" lon="7.3172554"><ele>662.5714285714287</ele><time>2026-04-19T10:41:36.211Z</time></trkpt><trkpt lat="44.4656664" lon="7.3171879"><ele>663.2857142857142</ele><time>2026-04-19T10:41:38.211Z</time></trkpt><trkpt lat="44.4657086" lon="7.3171142"><ele>664.0</ele><time>2026-04-19T10:41:40.215Z</time></trkpt><trkpt lat="44.4657523" lon="7.3169965"><ele>664.0</ele><time>2026-04-19T10:41:43.211Z</time></trkpt><trkpt lat="44.4657772" lon="7.3168797"><ele>664.0</ele><time>2026-04-19T10:41:46.21Z</time></trkpt><trkpt lat="44.4658061" lon="7.3167681"><ele>664.0</ele><time>2026-04-19T10:41:49.21Z</time></trkpt><trkpt lat="44.4658401" lon="7.3166488"><ele>664.0</ele><time>2026-04-19T10:41:52.211Z</time></trkpt><trkpt lat="44.4658701" lon="7.3165428"><ele>664.0</ele><time>2026-04-19T10:41:55.211Z</time></trkpt><trkpt lat="44.4659285" lon="7.3165042"><ele>664.0</ele><time>2026-04-19T10:41:59.21Z</time></trkpt><trkpt lat="44.4659916" lon="7.3165844"><ele>664.0</ele><time>2026-04-19T10:42:03.21Z</time></trkpt><trkpt lat="44.46599" lon="7.3166793"><ele>664.0</ele><time>2026-04-19T10:42:05.211Z</time></trkpt><trkpt lat="44.4660021" lon="7.3167835"><ele>664.0</ele><time>2026-04-19T10:42:07.21Z</time></trkpt><trkpt lat="44.4660353" lon="7.3168895"><ele>664.0</ele><time>2026-04-19T10:42:09.211Z</time></trkpt><trkpt lat="44.4660811" lon="7.3169952"><ele>664.0</ele><time>2026-04-19T10:42:11.21Z</time></trkpt><trkpt lat="44.4661294" lon="7.3171112"><ele>664.0</ele><time>2026-04-19T10:42:13.21Z</time></trkpt><trkpt lat="44.4661695" lon="7.3172286"><ele>662.1666666666667</ele><time>2026-04-19T10:42:15.211Z</time></trkpt><trkpt lat="44.466205" lon="7.317337"><ele>660.3333333333334</ele><time>2026-04-19T10:42:17.21Z</time></trkpt><trkpt lat="44.4662415" lon="7.3174394"><ele>658.5</ele><time>2026-04-19T10:42:19.21Z</time></trkpt><trkpt lat="44.4662803" lon="7.3175349"><ele>656.6666666666666</ele><time>2026-04-19T10:42:21.211Z</time></trkpt><trkpt lat="44.4663158" lon="7.3176317"><ele>654.8333333333333</ele><time>2026-04-19T10:42:23.21Z</time></trkpt><trkpt lat="44.4663508" lon="7.3177323"><ele>653.0</ele><time>2026-04-19T10:42:25.21Z</time></trkpt><trkpt lat="44.4663907" lon="7.3178331"><ele>652.2</ele><time>2026-04-19T10:42:27.21Z</time></trkpt><trkpt lat="44.4664316" lon="7.3179463"><ele>651.4</ele><time>2026-04-19T10:42:29.211Z</time></trkpt><trkpt lat="44.4664818" lon="7.318067"><ele>650.6</ele><time>2026-04-19T10:42:31.21Z</time></trkpt><trkpt lat="44.46653" lon="7.3181856"><ele>649.8000000000001</ele><time>2026-04-19T10:42:33.211Z</time></trkpt><trkpt lat="44.466584" lon="7.3183144"><ele>649.0</ele><time>2026-04-19T10:42:35.21Z</time></trkpt><trkpt lat="44.4666349" lon="7.3184467"><ele>649.0</ele><time>2026-04-19T10:42:37.21Z</time></trkpt><trkpt lat="44.4666801" lon="7.3185719"><ele>649.0</ele><time>2026-04-19T10:42:39.21Z</time></trkpt><trkpt lat="44.466731" lon="7.3187046"><ele>649.0</ele><time>2026-04-19T10:42:41.211Z</time></trkpt><trkpt lat="44.4667788" lon="7.3188293"><ele>649.0</ele><time>2026-04-19T10:42:43.211Z</time></trkpt><trkpt lat="44.4668265" lon="7.3189631"><ele>649.0</ele><time>2026-04-19T10:42:45.211Z</time></trkpt><trkpt lat="44.4668761" lon="7.3190907"><ele>649.4000000000001</ele><time>2026-04-19T10:42:47.212Z</time></trkpt><trkpt lat="44.4669222" lon="7.3192169"><ele>649.8</ele><time>2026-04-19T10:42:49.21Z</time></trkpt><trkpt lat="44.4669733" lon="7.3193352"><ele>650.2</ele><time>2026-04-19T10:42:51.21Z</time></trkpt><trkpt lat="44.4670334" lon="7.3194457"><ele>650.5999999999999</ele><time>2026-04-19T10:42:53.21Z</time></trkpt><trkpt lat="44.4670972" lon="7.3195593"><ele>651.0</ele><time>2026-04-19T10:42:55.212Z</time></trkpt><trkpt lat="44.4671676" lon="7.3196636"><ele>652.5999999999999</ele><time>2026-04-19T10:42:57.211Z</time></trkpt><trkpt lat="44.4672384" lon="7.3197636"><ele>654.2</ele><time>2026-04-19T10:42:59.21Z</time></trkpt><trkpt lat="44.4673122" lon="7.3198654"><ele>655.8</ele><time>2026-04-19T10:43:01.21Z</time></trkpt><trkpt lat="44.4673826" lon="7.3199672"><ele>657.4000000000001</ele><time>2026-04-19T10:43:03.211Z</time></trkpt><trkpt lat="44.467453" lon="7.320074"><ele>659.0</ele><time>2026-04-19T10:43:05.211Z</time></trkpt><trkpt lat="44.4675264" lon="7.3201754"><ele>659.0</ele><time>2026-04-19T10:43:07.21Z</time></trkpt><trkpt lat="44.4675944" lon="7.3202835"><ele>659.0</ele><time>2026-04-19T10:43:09.211Z</time></trkpt><trkpt lat="44.4676684" lon="7.3203909"><ele>659.0</ele><time>2026-04-19T10:43:11.211Z</time></trkpt><trkpt lat="44.4677436" lon="7.3204926"><ele>659.0</ele><time>2026-04-19T10:43:13.21Z</time></trkpt><trkpt lat="44.4678145" lon="7.3205937"><ele>659.0</ele><time>2026-04-19T10:43:15.21Z</time></trkpt><trkpt lat="44.4678869" lon="7.3206888"><ele>659.6</ele><time>2026-04-19T10:43:17.211Z</time></trkpt><trkpt lat="44.4679541" lon="7.320784"><ele>660.2</ele><time>2026-04-19T10:43:19.21Z</time></trkpt><trkpt lat="44.4680184" lon="7.3208795"><ele>660.8000000000001</ele><time>2026-04-19T10:43:21.211Z</time></trkpt><trkpt lat="44.4680833" lon="7.3209695"><ele>661.4000000000001</ele><time>2026-04-19T10:43:23.21Z</time></trkpt><trkpt lat="44.4681473" lon="7.3210594"><ele>662.0</ele><time>2026-04-19T10:43:25.211Z</time></trkpt><trkpt lat="44.4682057" lon="7.3211571"><ele>662.0</ele><time>2026-04-19T10:43:27.211Z</time></trkpt><trkpt lat="44.4682583" lon="7.3212613"><ele>662.0</ele><time>2026-04-19T10:43:29.212Z</time></trkpt><trkpt lat="44.4683152" lon="7.3213649"><ele>662.0</ele><time>2026-04-19T10:43:31.21Z</time></trkpt><trkpt lat="44.4683765" lon="7.321472"><ele>662.0</ele><time>2026-04-19T10:43:33.211Z</time></trkpt><trkpt lat="44.4684416" lon="7.3215793"><ele>662.0</ele><time>2026-04-19T10:43:35.21Z</time></trkpt><trkpt lat="44.4685018" lon="7.3216866"><ele>661.4000000000001</ele><time>2026-04-19T10:43:37.211Z</time></trkpt><trkpt lat="44.4685617" lon="7.3217906"><ele>660.8000000000001</ele><time>2026-04-19T10:43:39.21Z</time></trkpt><trkpt lat="44.4686199" lon="7.321891"><ele>660.2</ele><time>2026-04-19T10:43:41.212Z</time></trkpt><trkpt lat="44.4686788" lon="7.3219922"><ele>659.6</ele><time>2026-04-19T10:43:43.21Z</time></trkpt><trkpt lat="44.4687349" lon="7.3220987"><ele>659.0</ele><time>2026-04-19T10:43:45.211Z</time></trkpt><trkpt lat="44.4687902" lon="7.322209"><ele>661.6</ele><time>2026-04-19T10:43:47.211Z</time></trkpt><trkpt lat="44.468834" lon="7.3223307"><ele>664.2</ele><time>2026-04-19T10:43:49.21Z</time></trkpt><trkpt lat="44.468876" lon="7.322448"><ele>666.8000000000001</ele><time>2026-04-19T10:43:51.21Z</time></trkpt><trkpt lat="44.4689083" lon="7.322564"><ele>669.4000000000001</ele><time>2026-04-19T10:43:53.211Z</time></trkpt><trkpt lat="44.4689299" lon="7.3226869"><ele>672.0</ele><time>2026-04-19T10:43:55.21Z</time></trkpt><trkpt lat="44.4689485" lon="7.3228111"><ele>672.0</ele><time>2026-04-19T10:43:57.21Z</time></trkpt><trkpt lat="44.4689649" lon="7.3229384"><ele>672.0</ele><time>2026-04-19T10:43:59.211Z</time></trkpt><trkpt lat="44.4689709" lon="7.3230624"><ele>672.0</ele><time>2026-04-19T10:44:01.211Z</time></trkpt><trkpt lat="44.4689743" lon="7.3231901"><ele>672.0</ele><time>2026-04-19T10:44:03.21Z</time></trkpt><trkpt lat="44.4689656" lon="7.3233207"><ele>672.0</ele><time>2026-04-19T10:44:05.211Z</time></trkpt><trkpt lat="44.4689511" lon="7.3234475"><ele>672.0</ele><time>2026-04-19T10:44:07.211Z</time></trkpt><trkpt lat="44.4689363" lon="7.323577"><ele>672.0</ele><time>2026-04-19T10:44:09.21Z</time></trkpt><trkpt lat="44.4689204" lon="7.3237072"><ele>672.0</ele><time>2026-04-19T10:44:11.211Z</time></trkpt><trkpt lat="44.4689084" lon="7.3238362"><ele>672.0</ele><time>2026-04-19T10:44:13.21Z</time></trkpt><trkpt lat="44.4689008" lon="7.3239584"><ele>672.0</ele><time>2026-04-19T10:44:15.21Z</time></trkpt><trkpt lat="44.4689004" lon="7.3240925"><ele>672.0</ele><time>2026-04-19T10:44:17.21Z</time></trkpt><trkpt lat="44.4689004" lon="7.3242285"><ele>672.0</ele><time>2026-04-19T10:44:19.211Z</time></trkpt><trkpt lat="44.4689052" lon="7.3243596"><ele>672.0</ele><time>2026-04-19T10:44:21.21Z</time></trkpt><trkpt lat="44.4689152" lon="7.3244934"><ele>672.0</ele><time>2026-04-19T10:44:23.21Z</time></trkpt><trkpt lat="44.4689277" lon="7.3246267"><ele>672.0</ele><time>2026-04-19T10:44:25.21Z</time></trkpt><trkpt lat="44.4689351" lon="7.3247579"><ele>671.0</ele><time>2026-04-19T10:44:27.21Z</time></trkpt><trkpt lat="44.4689422" lon="7.3248918"><ele>670.0</ele><time>2026-04-19T10:44:29.211Z</time></trkpt><trkpt lat="44.4689542" lon="7.32503"><ele>669.0</ele><time>2026-04-19T10:44:31.21Z</time></trkpt><trkpt lat="44.4689651" lon="7.3251661"><ele>668.0</ele><time>2026-04-19T10:44:33.211Z</time></trkpt><trkpt lat="44.4689782" lon="7.3253039"><ele>667.0</ele><time>2026-04-19T10:44:35.21Z</time></trkpt><trkpt lat="44.4689844" lon="7.3254417"><ele>666.2</ele><time>2026-04-19T10:44:37.21Z</time></trkpt><trkpt lat="44.4689971" lon="7.3255847"><ele>665.4000000000001</ele><time>2026-04-19T10:44:39.21Z</time></trkpt><trkpt lat="44.469011" lon="7.3257238"><ele>664.5999999999999</ele><time>2026-04-19T10:44:41.21Z</time></trkpt><trkpt lat="44.4690231" lon="7.3258647"><ele>663.8</ele><time>2026-04-19T10:44:43.21Z</time></trkpt><trkpt lat="44.469036" lon="7.326004"><ele>663.0</ele><time>2026-04-19T10:44:45.21Z</time></trkpt><trkpt lat="44.4690462" lon="7.3261426"><ele>663.0</ele><time>2026-04-19T10:44:47.211Z</time></trkpt><trkpt lat="44.4690591" lon="7.3262837"><ele>663.0</ele><time>2026-04-19T10:44:49.21Z</time></trkpt><trkpt lat="44.4690722" lon="7.3264302"><ele>663.0</ele><time>2026-04-19T10:44:51.21Z</time></trkpt><trkpt lat="44.4690714" lon="7.3265817"><ele>663.0</ele><time>2026-04-19T10:44:53.21Z</time></trkpt><trkpt lat="44.4690705" lon="7.3267299"><ele>663.0</ele><time>2026-04-19T10:44:55.21Z</time></trkpt><trkpt lat="44.4690674" lon="7.3268744"><ele>663.8333333333334</ele><time>2026-04-19T10:44:57.211Z</time></trkpt><trkpt lat="44.4690648" lon="7.3270062"><ele>664.6666666666666</ele><time>2026-04-19T10:44:59.21Z</time></trkpt><trkpt lat="44.4690571" lon="7.3271304"><ele>665.5</ele><time>2026-04-19T10:45:01.21Z</time></trkpt><trkpt lat="44.469044" lon="7.3272414"><ele>666.3333333333333</ele><time>2026-04-19T10:45:03.21Z</time></trkpt><trkpt lat="44.4690302" lon="7.3273481"><ele>667.1666666666666</ele><time>2026-04-19T10:45:05.211Z</time></trkpt><trkpt lat="44.469017" lon="7.3274683"><ele>668.0</ele><time>2026-04-19T10:45:08.21Z</time></trkpt><trkpt lat="44.4689989" lon="7.3275719"><ele>668.0</ele><time>2026-04-19T10:45:10.211Z</time></trkpt><trkpt lat="44.4689746" lon="7.3276576"><ele>668.0</ele><time>2026-04-19T10:45:12.21Z</time></trkpt><trkpt lat="44.4689482" lon="7.327751"><ele>668.0</ele><time>2026-04-19T10:45:15.212Z</time></trkpt><trkpt lat="44.4689825" lon="7.3278694"><ele>668.0</ele><time>2026-04-19T10:45:27.222Z</time></trkpt><trkpt lat="44.4690279" lon="7.3279666"><ele>668.0</ele><time>2026-04-19T10:45:30.21Z</time></trkpt><trkpt lat="44.4690588" lon="7.3280777"><ele>668.0</ele><time>2026-04-19T10:45:32.21Z</time></trkpt><trkpt lat="44.4690863" lon="7.3281809"><ele>668.0</ele><time>2026-04-19T10:45:34.105Z</time></trkpt><trkpt lat="44.4691297" lon="7.3282935"><ele>668.0</ele><time>2026-04-19T10:45:36.211Z</time></trkpt><trkpt lat="44.4691707" lon="7.3284112"><ele>668.0</ele><time>2026-04-19T10:45:38.211Z</time></trkpt><trkpt lat="44.4692054" lon="7.3285015"><ele>668.0</ele><time>2026-04-19T10:45:39.21Z</time></trkpt><trkpt lat="44.469225" lon="7.3286369"><ele>668.0</ele><time>2026-04-19T10:45:40.21Z</time></trkpt><trkpt lat="44.4692601" lon="7.3287911"><ele>667.3333333333333</ele><time>2026-04-19T10:45:42.21Z</time></trkpt><trkpt lat="44.4692999" lon="7.328925"><ele>666.6666666666666</ele><time>2026-04-19T10:45:44.21Z</time></trkpt><trkpt lat="44.4693365" lon="7.3290398"><ele>666.0</ele><time>2026-04-19T10:45:46.211Z</time></trkpt><trkpt lat="44.4693682" lon="7.329153"><ele>665.3333333333334</ele><time>2026-04-19T10:45:48.21Z</time></trkpt><trkpt lat="44.4694083" lon="7.3292557"><ele>664.6666666666667</ele><time>2026-04-19T10:45:50.211Z</time></trkpt><trkpt lat="44.4694571" lon="7.3293487"><ele>664.0</ele><time>2026-04-19T10:45:52.211Z</time></trkpt><trkpt lat="44.4695077" lon="7.329432"><ele>664.0</ele><time>2026-04-19T10:45:54.211Z</time></trkpt><trkpt lat="44.4695584" lon="7.3295233"><ele>664.0</ele><time>2026-04-19T10:45:56.211Z</time></trkpt><trkpt lat="44.4696145" lon="7.3296199"><ele>664.0</ele><time>2026-04-19T10:45:58.211Z</time></trkpt><trkpt lat="44.4696468" lon="7.3297443"><ele>664.0</ele><time>2026-04-19T10:46:00.211Z</time></trkpt><trkpt lat="44.469678" lon="7.3298789"><ele>664.0</ele><time>2026-04-19T10:46:02.21Z</time></trkpt><trkpt lat="44.4697243" lon="7.3300101"><ele>664.6</ele><time>2026-04-19T10:46:04.209Z</time></trkpt><trkpt lat="44.469782" lon="7.3301372"><ele>665.2</ele><time>2026-04-19T10:46:06.209Z</time></trkpt><trkpt lat="44.4698473" lon="7.3302528"><ele>665.8000000000001</ele><time>2026-04-19T10:46:08.209Z</time></trkpt><trkpt lat="44.4699146" lon="7.3303644"><ele>666.4000000000001</ele><time>2026-04-19T10:46:10.209Z</time></trkpt><trkpt lat="44.4699739" lon="7.330468"><ele>667.0</ele><time>2026-04-19T10:46:12.21Z</time></trkpt><trkpt lat="44.4700334" lon="7.3305652"><ele>667.0</ele><time>2026-04-19T10:46:14.209Z</time></trkpt><trkpt lat="44.4700953" lon="7.3306625"><ele>667.0</ele><time>2026-04-19T10:46:16.209Z</time></trkpt><trkpt lat="44.4701577" lon="7.33074"><ele>667.0</ele><time>2026-04-19T10:46:18.209Z</time></trkpt><trkpt lat="44.4702213" lon="7.3308082"><ele>667.0</ele><time>2026-04-19T10:46:20.209Z</time></trkpt><trkpt lat="44.4702831" lon="7.3308648"><ele>667.0</ele><time>2026-04-19T10:46:22.209Z</time></trkpt><trkpt lat="44.4703457" lon="7.3309163"><ele>667.0</ele><time>2026-04-19T10:46:24.209Z</time></trkpt><trkpt lat="44.4704145" lon="7.3309664"><ele>668.5714285714287</ele><time>2026-04-19T10:46:26.21Z</time></trkpt><trkpt lat="44.4704926" lon="7.3310031"><ele>670.1428571428571</ele><time>2026-04-19T10:46:28.211Z</time></trkpt><trkpt lat="44.470571" lon="7.3310047"><ele>671.7142857142858</ele><time>2026-04-19T10:46:30.21Z</time></trkpt><trkpt lat="44.4706456" lon="7.3310009"><ele>673.2857142857143</ele><time>2026-04-19T10:46:32.209Z</time></trkpt><trkpt lat="44.4707114" lon="7.3309904"><ele>674.8571428571429</ele><time>2026-04-19T10:46:34.209Z</time></trkpt><trkpt lat="44.470781" lon="7.3309903"><ele>676.4285714285714</ele><time>2026-04-19T10:46:36.209Z</time></trkpt><trkpt lat="44.4708493" lon="7.3310065"><ele>678.0</ele><time>2026-04-19T10:46:38.209Z</time></trkpt><trkpt lat="44.470922" lon="7.3310151"><ele>678.0</ele><time>2026-04-19T10:46:40.209Z</time></trkpt><trkpt lat="44.4709894" lon="7.3310252"><ele>678.0</ele><time>2026-04-19T10:46:42.21Z</time></trkpt><trkpt lat="44.4710529" lon="7.3310251"><ele>678.0</ele><time>2026-04-19T10:46:44.21Z</time></trkpt><trkpt lat="44.4711472" lon="7.331027"><ele>678.0</ele><time>2026-04-19T10:46:47.209Z</time></trkpt><trkpt lat="44.4712143" lon="7.3310171"><ele>678.0</ele><time>2026-04-19T10:46:49.209Z</time></trkpt><trkpt lat="44.4712909" lon="7.3310099"><ele>678.0</ele><time>2026-04-19T10:46:51.209Z</time></trkpt><trkpt lat="44.4713687" lon="7.3309989"><ele>678.0</ele><time>2026-04-19T10:46:53.21Z</time></trkpt><trkpt lat="44.4714419" lon="7.3309857"><ele>679.1428571428571</ele><time>2026-04-19T10:46:55.209Z</time></trkpt><trkpt lat="44.4715099" lon="7.3309681"><ele>680.2857142857143</ele><time>2026-04-19T10:46:57.209Z</time></trkpt><trkpt lat="44.4715786" lon="7.3309594"><ele>681.4285714285714</ele><time>2026-04-19T10:46:59.21Z</time></trkpt><trkpt lat="44.4716452" lon="7.3309606"><ele>682.5714285714286</ele><time>2026-04-19T10:47:01.209Z</time></trkpt><trkpt lat="44.4717131" lon="7.3309641"><ele>683.7142857142858</ele><time>2026-04-19T10:47:03.21Z</time></trkpt><trkpt lat="44.4717804" lon="7.3309714"><ele>684.8571428571429</ele><time>2026-04-19T10:47:05.209Z</time></trkpt><trkpt lat="44.4718486" lon="7.3309778"><ele>686.0</ele><time>2026-04-19T10:47:07.209Z</time></trkpt><trkpt lat="44.4719169" lon="7.330986"><ele>686.0</ele><time>2026-04-19T10:47:09.209Z</time></trkpt><trkpt lat="44.4719845" lon="7.3309817"><ele>686.0</ele><time>2026-04-19T10:47:11.209Z</time></trkpt><trkpt lat="44.4720529" lon="7.3309813"><ele>686.0</ele><time>2026-04-19T10:47:13.209Z</time></trkpt><trkpt lat="44.4721161" lon="7.3309733"><ele>686.0</ele><time>2026-04-19T10:47:15.209Z</time></trkpt><trkpt lat="44.4722017" lon="7.3309529"><ele>686.0</ele><time>2026-04-19T10:47:18.21Z</time></trkpt><trkpt lat="44.4722818" lon="7.3309128"><ele>686.0</ele><time>2026-04-19T10:47:21.21Z</time></trkpt><trkpt lat="44.4723496" lon="7.3308405"><ele>686.3333333333333</ele><time>2026-04-19T10:47:24.211Z</time></trkpt><trkpt lat="44.4724072" lon="7.3307593"><ele>686.6666666666666</ele><time>2026-04-19T10:47:27.21Z</time></trkpt><trkpt lat="44.4724633" lon="7.330668"><ele>687.0</ele><time>2026-04-19T10:47:30.209Z</time></trkpt><trkpt lat="44.4725104" lon="7.3305679"><ele>687.3333333333334</ele><time>2026-04-19T10:47:33.209Z</time></trkpt><trkpt lat="44.4725568" lon="7.3304655"><ele>687.6666666666667</ele><time>2026-04-19T10:47:36.209Z</time></trkpt><trkpt lat="44.4725989" lon="7.3303765"><ele>688.0</ele><time>2026-04-19T10:47:39.21Z</time></trkpt><trkpt lat="44.4726392" lon="7.3302966"><ele>690.1428571428572</ele><time>2026-04-19T10:47:42.209Z</time></trkpt><trkpt lat="44.4726801" lon="7.3302201"><ele>692.2857142857143</ele><time>2026-04-19T10:47:45.209Z</time></trkpt><trkpt lat="44.4727165" lon="7.3301121"><ele>694.4285714285714</ele><time>2026-04-19T10:47:49.21Z</time></trkpt><trkpt lat="44.472757" lon="7.3300263"><ele>696.5714285714287</ele><time>2026-04-19T10:47:52.21Z</time></trkpt><trkpt lat="44.4727863" lon="7.3299334"><ele>698.7142857142858</ele><time>2026-04-19T10:47:55.21Z</time></trkpt><trkpt lat="44.4728106" lon="7.3298372"><ele>700.8571428571429</ele><time>2026-04-19T10:47:58.21Z</time></trkpt><trkpt lat="44.4728313" lon="7.3297466"><ele>703.0</ele><time>2026-04-19T10:48:01.209Z</time></trkpt><trkpt lat="44.4728731" lon="7.3296437"><ele>705.0</ele><time>2026-04-19T10:48:05.209Z</time></trkpt><trkpt lat="44.4728997" lon="7.3295557"><ele>707.0</ele><time>2026-04-19T10:48:08.211Z</time></trkpt><trkpt lat="44.4728859" lon="7.3294641"><ele>709.0</ele><time>2026-04-19T10:48:11.21Z</time></trkpt><trkpt lat="44.4728205" lon="7.3294128"><ele>711.0</ele><time>2026-04-19T10:48:15.209Z</time></trkpt><trkpt lat="44.4727473" lon="7.329475"><ele>713.0</ele><time>2026-04-19T10:48:18.21Z</time></trkpt><trkpt lat="44.4726839" lon="7.3295551"><ele>715.0</ele><time>2026-04-19T10:48:21.209Z</time></trkpt><trkpt lat="44.4726219" lon="7.3296496"><ele>715.0</ele><time>2026-04-19T10:48:24.21Z</time></trkpt><trkpt lat="44.4725557" lon="7.3297248"><ele>715.0</ele><time>2026-04-19T10:48:27.209Z</time></trkpt><trkpt lat="44.4724867" lon="7.3298015"><ele>715.0</ele><time>2026-04-19T10:48:30.21Z</time></trkpt><trkpt lat="44.4724237" lon="7.3298806"><ele>715.0</ele><time>2026-04-19T10:48:33.21Z</time></trkpt><trkpt lat="44.4723577" lon="7.3299544"><ele>715.0</ele><time>2026-04-19T10:48:36.209Z</time></trkpt><trkpt lat="44.4722779" lon="7.3300081"><ele>715.0</ele><time>2026-04-19T10:48:39.21Z</time></trkpt><trkpt lat="44.4721964" lon="7.3300585"><ele>713.3333333333334</ele><time>2026-04-19T10:48:42.209Z</time></trkpt><trkpt lat="44.4721076" lon="7.3300677"><ele>711.6666666666667</ele><time>2026-04-19T10:48:45.209Z</time></trkpt><trkpt lat="44.4720216" lon="7.33007"><ele>710.0</ele><time>2026-04-19T10:48:48.21Z</time></trkpt><trkpt lat="44.4719399" lon="7.3300567"><ele>708.3333333333334</ele><time>2026-04-19T10:48:51.21Z</time></trkpt><trkpt lat="44.471856" lon="7.330029"><ele>706.6666666666666</ele><time>2026-04-19T10:48:54.21Z</time></trkpt><trkpt lat="44.4717692" lon="7.3300077"><ele>705.0</ele><time>2026-04-19T10:48:57.211Z</time></trkpt><trkpt lat="44.471678" lon="7.3299827"><ele>705.0</ele><time>2026-04-19T10:49:00.209Z</time></trkpt><trkpt lat="44.4716145" lon="7.329966"><ele>705.0</ele><time>2026-04-19T10:49:02.209Z</time></trkpt><trkpt lat="44.4715253" lon="7.3299363"><ele>705.0</ele><time>2026-04-19T10:49:05.21Z</time></trkpt><trkpt lat="44.4714509" lon="7.3298826"><ele>705.0</ele><time>2026-04-19T10:49:08.209Z</time></trkpt><trkpt lat="44.4713843" lon="7.3298152"><ele>705.0</ele><time>2026-04-19T10:49:11.211Z</time></trkpt><trkpt lat="44.4713319" lon="7.329724"><ele>705.0</ele><time>2026-04-19T10:49:14.21Z</time></trkpt><trkpt lat="44.4712865" lon="7.3296215"><ele>705.2857142857142</ele><time>2026-04-19T10:49:17.209Z</time></trkpt><trkpt lat="44.4712541" lon="7.3295003"><ele>705.5714285714286</ele><time>2026-04-19T10:49:20.209Z</time></trkpt><trkpt lat="44.4712226" lon="7.3294218"><ele>705.8571428571429</ele><time>2026-04-19T10:49:22.209Z</time></trkpt><trkpt lat="44.4711961" lon="7.3293342"><ele>706.1428571428571</ele><time>2026-04-19T10:49:24.209Z</time></trkpt><trkpt lat="44.471159" lon="7.3292518"><ele>706.4285714285714</ele><time>2026-04-19T10:49:26.209Z</time></trkpt><trkpt lat="44.4711235" lon="7.3291663"><ele>706.7142857142857</ele><time>2026-04-19T10:49:28.209Z</time></trkpt><trkpt lat="44.4710866" lon="7.3290811"><ele>707.0</ele><time>2026-04-19T10:49:30.209Z</time></trkpt><trkpt lat="44.4710455" lon="7.3290066"><ele>707.0</ele><time>2026-04-19T10:49:32.209Z</time></trkpt><trkpt lat="44.4710001" lon="7.32894"><ele>707.0</ele><time>2026-04-19T10:49:34.21Z</time></trkpt><trkpt lat="44.4709483" lon="7.3288777"><ele>707.0</ele><time>2026-04-19T10:49:36.21Z</time></trkpt><trkpt lat="44.470895" lon="7.3288153"><ele>707.0</ele><time>2026-04-19T10:49:38.211Z</time></trkpt><trkpt lat="44.4708396" lon="7.328752"><ele>707.0</ele><time>2026-04-19T10:49:40.211Z</time></trkpt><trkpt lat="44.4707945" lon="7.3286782"><ele>707.0</ele><time>2026-04-19T10:49:42.209Z</time></trkpt><trkpt lat="44.4707626" lon="7.3286001"><ele>707.0</ele><time>2026-04-19T10:49:44.209Z</time></trkpt><trkpt lat="44.4707442" lon="7.3284755"><ele>706.8333333333333</ele><time>2026-04-19T10:49:47.209Z</time></trkpt><trkpt lat="44.4707435" lon="7.3283452"><ele>706.6666666666666</ele><time>2026-04-19T10:49:50.21Z</time></trkpt><trkpt lat="44.4707433" lon="7.3282551"><ele>706.5</ele><time>2026-04-19T10:49:52.21Z</time></trkpt><trkpt lat="44.4707481" lon="7.3281649"><ele>706.3333333333334</ele><time>2026-04-19T10:49:54.209Z</time></trkpt><trkpt lat="44.4707729" lon="7.3280445"><ele>706.1666666666667</ele><time>2026-04-19T10:49:57.209Z</time></trkpt><trkpt lat="44.4708166" lon="7.3279458"><ele>706.0</ele><time>2026-04-19T10:50:00.209Z</time></trkpt><trkpt lat="44.4708836" lon="7.3278776"><ele>706.0</ele><time>2026-04-19T10:50:03.21Z</time></trkpt><trkpt lat="44.4709593" lon="7.3278278"><ele>706.0</ele><time>2026-04-19T10:50:06.209Z</time></trkpt><trkpt lat="44.4710486" lon="7.3278064"><ele>706.0</ele><time>2026-04-19T10:50:09.209Z</time></trkpt><trkpt lat="44.4711178" lon="7.3277969"><ele>706.0</ele><time>2026-04-19T10:50:11.209Z</time></trkpt><trkpt lat="44.4711852" lon="7.32779"><ele>706.0</ele><time>2026-04-19T10:50:13.211Z</time></trkpt><trkpt lat="44.4712555" lon="7.3277896"><ele>706.0</ele><time>2026-04-19T10:50:15.209Z</time></trkpt><trkpt lat="44.4713459" lon="7.3277784"><ele>708.3333333333334</ele><time>2026-04-19T10:50:18.209Z</time></trkpt><trkpt lat="44.4714396" lon="7.327775"><ele>710.6666666666667</ele><time>2026-04-19T10:50:21.209Z</time></trkpt><trkpt lat="44.4715303" lon="7.3277809"><ele>713.0</ele><time>2026-04-19T10:50:24.21Z</time></trkpt><trkpt lat="44.4716137" lon="7.3277887"><ele>715.3333333333334</ele><time>2026-04-19T10:50:27.21Z</time></trkpt><trkpt lat="44.4717042" lon="7.3278123"><ele>717.6666666666666</ele><time>2026-04-19T10:50:30.209Z</time></trkpt><trkpt lat="44.4717922" lon="7.3278107"><ele>720.0</ele><time>2026-04-19T10:50:33.21Z</time></trkpt><trkpt lat="44.4718716" lon="7.3278095"><ele>720.0</ele><time>2026-04-19T10:50:36.209Z</time></trkpt><trkpt lat="44.4719461" lon="7.3277666"><ele>720.0</ele><time>2026-04-19T10:50:39.21Z</time></trkpt><trkpt lat="44.4720016" lon="7.3276763"><ele>720.0</ele><time>2026-04-19T10:50:42.21Z</time></trkpt><trkpt lat="44.4720434" lon="7.3275739"><ele>720.0</ele><time>2026-04-19T10:50:45.21Z</time></trkpt><trkpt lat="44.4720911" lon="7.3275062"><ele>720.0</ele><time>2026-04-19T10:50:48.209Z</time></trkpt><trkpt lat="44.472162" lon="7.3275315"><ele>720.0</ele><time>2026-04-19T10:50:51.209Z</time></trkpt><trkpt lat="44.4721963" lon="7.3276308"><ele>722.8333333333334</ele><time>2026-04-19T10:50:54.209Z</time></trkpt><trkpt lat="44.4722047" lon="7.327751"><ele>725.6666666666666</ele><time>2026-04-19T10:50:57.209Z</time></trkpt><trkpt lat="44.4722203" lon="7.3278646"><ele>728.5</ele><time>2026-04-19T10:51:00.209Z</time></trkpt><trkpt lat="44.4722748" lon="7.3279387"><ele>731.3333333333333</ele><time>2026-04-19T10:51:03.21Z</time></trkpt><trkpt lat="44.4723425" lon="7.3279859"><ele>734.1666666666666</ele><time>2026-04-19T10:51:06.21Z</time></trkpt><trkpt lat="44.472406" lon="7.3280147"><ele>737.0</ele><time>2026-04-19T10:51:08.21Z</time></trkpt><trkpt lat="44.4724969" lon="7.328022"><ele>737.0</ele><time>2026-04-19T10:51:10.21Z</time></trkpt><trkpt lat="44.4726" lon="7.3280446"><ele>737.0</ele><time>2026-04-19T10:51:12.209Z</time></trkpt><trkpt lat="44.4727113" lon="7.3281061"><ele>737.0</ele><time>2026-04-19T10:51:14.209Z</time></trkpt><trkpt lat="44.4728146" lon="7.3282001"><ele>737.0</ele><time>2026-04-19T10:51:16.209Z</time></trkpt><trkpt lat="44.4728682" lon="7.3282519"><ele>737.0</ele><time>2026-04-19T10:51:17.209Z</time></trkpt><trkpt lat="44.4729244" lon="7.3282957"><ele>736.0000000000001</ele><time>2026-04-19T10:51:18.21Z</time></trkpt><trkpt lat="44.4729804" lon="7.328337"><ele>735.0</ele><time>2026-04-19T10:51:19.209Z</time></trkpt><trkpt lat="44.473046" lon="7.3283743"><ele>734.0</ele><time>2026-04-19T10:51:20.211Z</time></trkpt><trkpt lat="44.4731107" lon="7.3284102"><ele>733.0</ele><time>2026-04-19T10:51:21.21Z</time></trkpt><trkpt lat="44.473184" lon="7.3284294"><ele>732.0</ele><time>2026-04-19T10:51:22.209Z</time></trkpt><trkpt lat="44.4732642" lon="7.3284552"><ele>731.0000000000001</ele><time>2026-04-19T10:51:23.209Z</time></trkpt><trkpt lat="44.4733301" lon="7.3284634"><ele>730.0</ele><time>2026-04-19T10:51:24.209Z</time></trkpt><trkpt lat="44.4733971" lon="7.3284798"><ele>730.0</ele><time>2026-04-19T10:51:25.21Z</time></trkpt><trkpt lat="44.4734622" lon="7.3285009"><ele>730.0</ele><time>2026-04-19T10:51:26.209Z</time></trkpt><trkpt lat="44.473536" lon="7.3285065"><ele>730.0</ele><time>2026-04-19T10:51:27.209Z</time></trkpt><trkpt lat="44.4736103" lon="7.328518"><ele>730.0</ele><time>2026-04-19T10:51:28.209Z</time></trkpt><trkpt lat="44.4736899" lon="7.3285223"><ele>730.0</ele><time>2026-04-19T10:51:29.209Z</time></trkpt><trkpt lat="44.4737701" lon="7.328522"><ele>730.0</ele><time>2026-04-19T10:51:30.208Z</time></trkpt><trkpt lat="44.4738465" lon="7.3285223"><ele>730.5</ele><time>2026-04-19T10:51:31.209Z</time></trkpt><trkpt lat="44.4739194" lon="7.3285271"><ele>731.0</ele><time>2026-04-19T10:51:32.209Z</time></trkpt><trkpt lat="44.4739956" lon="7.3285412"><ele>731.5</ele><time>2026-04-19T10:51:33.208Z</time></trkpt><trkpt lat="44.4740745" lon="7.3285862"><ele>732.0</ele><time>2026-04-19T10:51:34.209Z</time></trkpt><trkpt lat="44.4741327" lon="7.3286729"><ele>732.5</ele><time>2026-04-19T10:51:35.208Z</time></trkpt><trkpt lat="44.4741863" lon="7.3287603"><ele>733.0</ele><time>2026-04-19T10:51:36.209Z</time></trkpt><trkpt lat="44.4742312" lon="7.3288648"><ele>730.8333333333334</ele><time>2026-04-19T10:51:37.208Z</time></trkpt><trkpt lat="44.4742485" lon="7.3289815"><ele>728.6666666666667</ele><time>2026-04-19T10:51:38.209Z</time></trkpt><trkpt lat="44.4742657" lon="7.3290894"><ele>726.5</ele><time>2026-04-19T10:51:39.209Z</time></trkpt><trkpt lat="44.4742968" lon="7.3291861"><ele>724.3333333333334</ele><time>2026-04-19T10:51:40.208Z</time></trkpt><trkpt lat="44.4743358" lon="7.3292742"><ele>722.1666666666666</ele><time>2026-04-19T10:51:41.208Z</time></trkpt><trkpt lat="44.4743892" lon="7.3293481"><ele>720.0</ele><time>2026-04-19T10:51:42.209Z</time></trkpt><trkpt lat="44.4744458" lon="7.3294188"><ele>720.0</ele><time>2026-04-19T10:51:43.209Z</time></trkpt><trkpt lat="44.4745014" lon="7.3294819"><ele>720.0</ele><time>2026-04-19T10:51:44.208Z</time></trkpt><trkpt lat="44.4745605" lon="7.3295453"><ele>720.0</ele><time>2026-04-19T10:51:45.208Z</time></trkpt><trkpt lat="44.4746144" lon="7.3296019"><ele>720.0</ele><time>2026-04-19T10:51:46.208Z</time></trkpt><trkpt lat="44.4746708" lon="7.3296457"><ele>720.0</ele><time>2026-04-19T10:51:47.209Z</time></trkpt><trkpt lat="44.4747862" lon="7.3296857"><ele>720.0</ele><time>2026-04-19T10:51:49.209Z</time></trkpt><trkpt lat="44.4749049" lon="7.3296705"><ele>720.2</ele><time>2026-04-19T10:51:51.209Z</time></trkpt><trkpt lat="44.475017" lon="7.3296258"><ele>720.4</ele><time>2026-04-19T10:51:53.208Z</time></trkpt><trkpt lat="44.475123" lon="7.3296688"><ele>720.5999999999999</ele><time>2026-04-19T10:51:55.208Z</time></trkpt><trkpt lat="44.4751696" lon="7.3298084"><ele>720.8</ele><time>2026-04-19T10:51:57.209Z</time></trkpt><trkpt lat="44.4751836" lon="7.3299326"><ele>721.0</ele><time>2026-04-19T10:51:59.209Z</time></trkpt><trkpt lat="44.4752018" lon="7.330051"><ele>721.0</ele><time>2026-04-19T10:52:01.208Z</time></trkpt><trkpt lat="44.4752425" lon="7.3301428"><ele>721.0</ele><time>2026-04-19T10:52:03.208Z</time></trkpt><trkpt lat="44.4753223" lon="7.3301911"><ele>721.0</ele><time>2026-04-19T10:52:05.208Z</time></trkpt><trkpt lat="44.4754168" lon="7.3302156"><ele>721.0</ele><time>2026-04-19T10:52:07.21Z</time></trkpt><trkpt lat="44.4755254" lon="7.3302271"><ele>721.0</ele><time>2026-04-19T10:52:09.208Z</time></trkpt><trkpt lat="44.4756338" lon="7.3302372"><ele>721.4</ele><time>2026-04-19T10:52:11.209Z</time></trkpt><trkpt lat="44.4757314" lon="7.3302862"><ele>721.8</ele><time>2026-04-19T10:52:13.208Z</time></trkpt><trkpt lat="44.4758" lon="7.330394"><ele>722.1999999999999</ele><time>2026-04-19T10:52:15.208Z</time></trkpt><trkpt lat="44.4758273" lon="7.3305424"><ele>722.5999999999999</ele><time>2026-04-19T10:52:17.208Z</time></trkpt><trkpt lat="44.4758213" lon="7.3306895"><ele>723.0</ele><time>2026-04-19T10:52:19.208Z</time></trkpt><trkpt lat="44.4758111" lon="7.3308005"><ele>723.0</ele><time>2026-04-19T10:52:21.208Z</time></trkpt><trkpt lat="44.4758508" lon="7.3309101"><ele>723.0</ele><time>2026-04-19T10:52:24.209Z</time></trkpt><trkpt lat="44.4759048" lon="7.330978"><ele>723.0</ele><time>2026-04-19T10:52:27.208Z</time></trkpt><trkpt lat="44.4759828" lon="7.3310262"><ele>723.0</ele><time>2026-04-19T10:52:30.208Z</time></trkpt><trkpt lat="44.4760545" lon="7.331061"><ele>723.0</ele><time>2026-04-19T10:52:32.208Z</time></trkpt><trkpt lat="44.4761441" lon="7.3311065"><ele>723.0</ele><time>2026-04-19T10:52:34.209Z</time></trkpt><trkpt lat="44.4762468" lon="7.3311637"><ele>723.0</ele><time>2026-04-19T10:52:36.209Z</time></trkpt><trkpt lat="44.4763539" lon="7.3312627"><ele>723.0</ele><time>2026-04-19T10:52:38.209Z</time></trkpt><trkpt lat="44.4763911" lon="7.3313371"><ele>723.0</ele><time>2026-04-19T10:52:39.208Z</time></trkpt><trkpt lat="44.4764227" lon="7.331503"><ele>723.0</ele><time>2026-04-19T10:52:41.208Z</time></trkpt><trkpt lat="44.4764709" lon="7.3316523"><ele>723.0</ele><time>2026-04-19T10:52:43.208Z</time></trkpt><trkpt lat="44.4765031" lon="7.3317289"><ele>723.0</ele><time>2026-04-19T10:52:44.208Z</time></trkpt><trkpt lat="44.4765446" lon="7.3318138"><ele>723.0</ele><time>2026-04-19T10:52:45.208Z</time></trkpt><trkpt lat="44.4765923" lon="7.3319004"><ele>723.0</ele><time>2026-04-19T10:52:46.21Z</time></trkpt><trkpt lat="44.4766539" lon="7.3319905"><ele>723.0</ele><time>2026-04-19T10:52:47.208Z</time></trkpt><trkpt lat="44.4767181" lon="7.3320751"><ele>723.0</ele><time>2026-04-19T10:52:48.208Z</time></trkpt><trkpt lat="44.4767852" lon="7.33215"><ele>723.0</ele><time>2026-04-19T10:52:49.208Z</time></trkpt><trkpt lat="44.4768556" lon="7.332199"><ele>722.1428571428572</ele><time>2026-04-19T10:52:50.208Z</time></trkpt><trkpt lat="44.476934" lon="7.3322446"><ele>721.2857142857143</ele><time>2026-04-19T10:52:51.208Z</time></trkpt><trkpt lat="44.4770084" lon="7.3322769"><ele>720.4285714285714</ele><time>2026-04-19T10:52:52.208Z</time></trkpt><trkpt lat="44.4770819" lon="7.3323103"><ele>719.5714285714287</ele><time>2026-04-19T10:52:53.209Z</time></trkpt><trkpt lat="44.4771482" lon="7.3323297"><ele>718.7142857142857</ele><time>2026-04-19T10:52:54.209Z</time></trkpt><trkpt lat="44.4772135" lon="7.3323408"><ele>717.8571428571429</ele><time>2026-04-19T10:52:55.209Z</time></trkpt><trkpt lat="44.4772781" lon="7.3323528"><ele>717.0</ele><time>2026-04-19T10:52:56.209Z</time></trkpt><trkpt lat="44.4773939" lon="7.3323682"><ele>717.0</ele><time>2026-04-19T10:52:58.208Z</time></trkpt><trkpt lat="44.477495" lon="7.3324047"><ele>717.0</ele><time>2026-04-19T10:53:00.21Z</time></trkpt><trkpt lat="44.4775758" lon="7.3324701"><ele>717.0</ele><time>2026-04-19T10:53:02.209Z</time></trkpt><trkpt lat="44.4776434" lon="7.33254"><ele>717.0</ele><time>2026-04-19T10:53:04.208Z</time></trkpt><trkpt lat="44.4777077" lon="7.3326087"><ele>717.0</ele><time>2026-04-19T10:53:06.209Z</time></trkpt><trkpt lat="44.4777815" lon="7.3326744"><ele>717.0</ele><time>2026-04-19T10:53:08.208Z</time></trkpt><trkpt lat="44.477863" lon="7.3327218"><ele>717.0</ele><time>2026-04-19T10:53:10.209Z</time></trkpt><trkpt lat="44.4779502" lon="7.3327646"><ele>717.0</ele><time>2026-04-19T10:53:12.209Z</time></trkpt><trkpt lat="44.4780405" lon="7.3327886"><ele>717.0</ele><time>2026-04-19T10:53:14.208Z</time></trkpt><trkpt lat="44.4781262" lon="7.3328044"><ele>717.0</ele><time>2026-04-19T10:53:16.208Z</time></trkpt><trkpt lat="44.4782146" lon="7.3328244"><ele>717.0</ele><time>2026-04-19T10:53:18.209Z</time></trkpt><trkpt lat="44.4783022" lon="7.3328697"><ele>717.4000000000001</ele><time>2026-04-19T10:53:20.209Z</time></trkpt><trkpt lat="44.4783717" lon="7.332985"><ele>717.8000000000001</ele><time>2026-04-19T10:53:22.208Z</time></trkpt><trkpt lat="44.47838" lon="7.3331326"><ele>718.2</ele><time>2026-04-19T10:53:24.208Z</time></trkpt><trkpt lat="44.4783415" lon="7.3332887"><ele>718.6</ele><time>2026-04-19T10:53:26.208Z</time></trkpt><trkpt lat="44.4783002" lon="7.3333575"><ele>719.0</ele><time>2026-04-19T10:53:27.209Z</time></trkpt><trkpt lat="44.4782366" lon="7.3334768"><ele>719.0</ele><time>2026-04-19T10:53:29.209Z</time></trkpt><trkpt lat="44.4781707" lon="7.3335917"><ele>719.0</ele><time>2026-04-19T10:53:31.208Z</time></trkpt><trkpt lat="44.4781389" lon="7.3337024"><ele>719.0</ele><time>2026-04-19T10:53:33.209Z</time></trkpt><trkpt lat="44.4781118" lon="7.3338243"><ele>719.0</ele><time>2026-04-19T10:53:35.209Z</time></trkpt><trkpt lat="44.4781099" lon="7.3339614"><ele>719.0</ele><time>2026-04-19T10:53:37.208Z</time></trkpt><trkpt lat="44.4781578" lon="7.334067"><ele>718.6</ele><time>2026-04-19T10:53:39.208Z</time></trkpt><trkpt lat="44.4782276" lon="7.3341786"><ele>718.2</ele><time>2026-04-19T10:53:41.209Z</time></trkpt><trkpt lat="44.4782943" lon="7.3342934"><ele>717.8000000000001</ele><time>2026-04-19T10:53:43.209Z</time></trkpt><trkpt lat="44.4783516" lon="7.3344149"><ele>717.4000000000001</ele><time>2026-04-19T10:53:45.208Z</time></trkpt><trkpt lat="44.4783859" lon="7.3345428"><ele>717.0</ele><time>2026-04-19T10:53:47.209Z</time></trkpt><trkpt lat="44.4783957" lon="7.3346833"><ele>716.6</ele><time>2026-04-19T10:53:49.208Z</time></trkpt><trkpt lat="44.4783912" lon="7.3348229"><ele>716.2</ele><time>2026-04-19T10:53:51.209Z</time></trkpt><trkpt lat="44.4784101" lon="7.3349543"><ele>715.8</ele><time>2026-04-19T10:53:53.208Z</time></trkpt><trkpt lat="44.4784485" lon="7.3350611"><ele>715.4</ele><time>2026-04-19T10:53:55.209Z</time></trkpt><trkpt lat="44.4784341" lon="7.3351917"><ele>715.0</ele><time>2026-04-19T10:53:57.208Z</time></trkpt><trkpt lat="44.4783802" lon="7.3353477"><ele>715.0</ele><time>2026-04-19T10:53:59.208Z</time></trkpt><trkpt lat="44.4783419" lon="7.3354298"><ele>715.0</ele><time>2026-04-19T10:54:00.209Z</time></trkpt><trkpt lat="44.478295" lon="7.3355166"><ele>715.0</ele><time>2026-04-19T10:54:01.208Z</time></trkpt><trkpt lat="44.4782435" lon="7.3356032"><ele>715.0</ele><time>2026-04-19T10:54:02.208Z</time></trkpt><trkpt lat="44.4781868" lon="7.3356787"><ele>715.0</ele><time>2026-04-19T10:54:03.208Z</time></trkpt><trkpt lat="44.4781233" lon="7.3357466"><ele>715.0</ele><time>2026-04-19T10:54:04.208Z</time></trkpt><trkpt lat="44.4780503" lon="7.3357654"><ele>714.0</ele><time>2026-04-19T10:54:05.209Z</time></trkpt><trkpt lat="44.4779841" lon="7.3357896"><ele>713.0</ele><time>2026-04-19T10:54:06.208Z</time></trkpt><trkpt lat="44.4778903" lon="7.3358585"><ele>712.0</ele><time>2026-04-19T10:54:08.208Z</time></trkpt><trkpt lat="44.4778451" lon="7.3359634"><ele>711.0</ele><time>2026-04-19T10:54:10.208Z</time></trkpt><trkpt lat="44.4778377" lon="7.3361049"><ele>710.0</ele><time>2026-04-19T10:54:12.21Z</time></trkpt><trkpt lat="44.4778492" lon="7.3362509"><ele>708.8333333333333</ele><time>2026-04-19T10:54:14.208Z</time></trkpt><trkpt lat="44.4778362" lon="7.336408"><ele>707.6666666666666</ele><time>2026-04-19T10:54:16.209Z</time></trkpt><trkpt lat="44.4778159" lon="7.3365772"><ele>706.5</ele><time>2026-04-19T10:54:18.209Z</time></trkpt><trkpt lat="44.4778011" lon="7.3366648"><ele>705.3333333333334</ele><time>2026-04-19T10:54:19.208Z</time></trkpt><trkpt lat="44.4777781" lon="7.3367491"><ele>704.1666666666667</ele><time>2026-04-19T10:54:20.208Z</time></trkpt><trkpt lat="44.4777489" lon="7.3368336"><ele>703.0</ele><time>2026-04-19T10:54:21.209Z</time></trkpt><trkpt lat="44.4777137" lon="7.336927"><ele>703.0</ele><time>2026-04-19T10:54:22.209Z</time></trkpt><trkpt lat="44.4776783" lon="7.3370134"><ele>703.0</ele><time>2026-04-19T10:54:23.208Z</time></trkpt><trkpt lat="44.4776433" lon="7.3370999"><ele>703.0</ele><time>2026-04-19T10:54:24.21Z</time></trkpt><trkpt lat="44.4776053" lon="7.3371859"><ele>703.0</ele><time>2026-04-19T10:54:25.209Z</time></trkpt><trkpt lat="44.4775611" lon="7.3372673"><ele>703.0</ele><time>2026-04-19T10:54:26.208Z</time></trkpt><trkpt lat="44.477512" lon="7.3373509"><ele>703.0</ele><time>2026-04-19T10:54:27.208Z</time></trkpt><trkpt lat="44.4774614" lon="7.3374289"><ele>703.0</ele><time>2026-04-19T10:54:28.208Z</time></trkpt><trkpt lat="44.4774078" lon="7.3375059"><ele>702.5</ele><time>2026-04-19T10:54:29.209Z</time></trkpt><trkpt lat="44.4773485" lon="7.3375808"><ele>702.0</ele><time>2026-04-19T10:54:30.209Z</time></trkpt><trkpt lat="44.4772833" lon="7.3376571"><ele>701.5</ele><time>2026-04-19T10:54:31.209Z</time></trkpt><trkpt lat="44.4772163" lon="7.3377424"><ele>701.0</ele><time>2026-04-19T10:54:32.208Z</time></trkpt><trkpt lat="44.4771523" lon="7.3378375"><ele>700.5</ele><time>2026-04-19T10:54:33.208Z</time></trkpt><trkpt lat="44.477096" lon="7.3379369"><ele>700.0</ele><time>2026-04-19T10:54:34.208Z</time></trkpt><trkpt lat="44.4770455" lon="7.3380367"><ele>698.6</ele><time>2026-04-19T10:54:35.208Z</time></trkpt><trkpt lat="44.4769934" lon="7.3381284"><ele>697.2</ele><time>2026-04-19T10:54:36.208Z</time></trkpt><trkpt lat="44.4769541" lon="7.3382215"><ele>695.8</ele><time>2026-04-19T10:54:37.209Z</time></trkpt><trkpt lat="44.4769273" lon="7.3383126"><ele>694.4</ele><time>2026-04-19T10:54:38.208Z</time></trkpt><trkpt lat="44.4769095" lon="7.3384698"><ele>693.0</ele><time>2026-04-19T10:54:40.208Z</time></trkpt><trkpt lat="44.4768455" lon="7.3385973"><ele>693.0</ele><time>2026-04-19T10:54:42.209Z</time></trkpt><trkpt lat="44.476749" lon="7.3387111"><ele>693.0</ele><time>2026-04-19T10:54:44.208Z</time></trkpt><trkpt lat="44.476695" lon="7.3387747"><ele>693.0</ele><time>2026-04-19T10:54:45.208Z</time></trkpt><trkpt lat="44.4766416" lon="7.3388355"><ele>693.0</ele><time>2026-04-19T10:54:46.208Z</time></trkpt><trkpt lat="44.4765843" lon="7.3389027"><ele>693.0</ele><time>2026-04-19T10:54:47.208Z</time></trkpt><trkpt lat="44.4765242" lon="7.3389706"><ele>693.0</ele><time>2026-04-19T10:54:48.208Z</time></trkpt><trkpt lat="44.4764645" lon="7.3390435"><ele>692.3333333333334</ele><time>2026-04-19T10:54:49.208Z</time></trkpt><trkpt lat="44.476403" lon="7.3391167"><ele>691.6666666666666</ele><time>2026-04-19T10:54:50.209Z</time></trkpt><trkpt lat="44.4763409" lon="7.3391948"><ele>691.0</ele><time>2026-04-19T10:54:51.208Z</time></trkpt><trkpt lat="44.4762793" lon="7.3392723"><ele>690.3333333333333</ele><time>2026-04-19T10:54:52.208Z</time></trkpt><trkpt lat="44.4762155" lon="7.3393526"><ele>689.6666666666666</ele><time>2026-04-19T10:54:53.208Z</time></trkpt><trkpt lat="44.4761524" lon="7.3394355"><ele>689.0</ele><time>2026-04-19T10:54:54.209Z</time></trkpt><trkpt lat="44.4760876" lon="7.3395046"><ele>688.0</ele><time>2026-04-19T10:54:55.208Z</time></trkpt><trkpt lat="44.4760275" lon="7.3395637"><ele>687.0</ele><time>2026-04-19T10:54:56.209Z</time></trkpt><trkpt lat="44.4759461" lon="7.3396724"><ele>686.0</ele><time>2026-04-19T10:54:58.209Z</time></trkpt><trkpt lat="44.4758855" lon="7.3397593"><ele>685.0</ele><time>2026-04-19T10:55:00.208Z</time></trkpt><trkpt lat="44.475837" lon="7.3398514"><ele>684.0</ele><time>2026-04-19T10:55:02.209Z</time></trkpt><trkpt lat="44.4758435" lon="7.3399506"><ele>683.0</ele><time>2026-04-19T10:55:05.209Z</time></trkpt><trkpt lat="44.4759197" lon="7.3399871"><ele>682.8333333333333</ele><time>2026-04-19T10:55:08.208Z</time></trkpt><trkpt lat="44.4760023" lon="7.3399917"><ele>682.6666666666666</ele><time>2026-04-19T10:55:11.208Z</time></trkpt><trkpt lat="44.4760854" lon="7.3400179"><ele>682.5</ele><time>2026-04-19T10:55:14.208Z</time></trkpt><trkpt lat="44.4761716" lon="7.3400505"><ele>682.3333333333334</ele><time>2026-04-19T10:55:17.208Z</time></trkpt><trkpt lat="44.4762257" lon="7.3401018"><ele>682.1666666666667</ele><time>2026-04-19T10:55:19.208Z</time></trkpt><trkpt lat="44.4762743" lon="7.3401785"><ele>682.0</ele><time>2026-04-19T10:55:21.209Z</time></trkpt><trkpt lat="44.4763135" lon="7.3402694"><ele>683.1666666666667</ele><time>2026-04-19T10:55:23.209Z</time></trkpt><trkpt lat="44.4763502" lon="7.340364"><ele>684.3333333333334</ele><time>2026-04-19T10:55:25.208Z</time></trkpt><trkpt lat="44.4763838" lon="7.3404632"><ele>685.5</ele><time>2026-04-19T10:55:27.208Z</time></trkpt><trkpt lat="44.476422" lon="7.3405629"><ele>686.6666666666666</ele><time>2026-04-19T10:55:29.209Z</time></trkpt><trkpt lat="44.4764624" lon="7.3406587"><ele>687.8333333333333</ele><time>2026-04-19T10:55:31.208Z</time></trkpt><trkpt lat="44.4765106" lon="7.3407521"><ele>689.0</ele><time>2026-04-19T10:55:33.208Z</time></trkpt><trkpt lat="44.4765876" lon="7.340814"><ele>689.0</ele><time>2026-04-19T10:55:35.208Z</time></trkpt><trkpt lat="44.4766729" lon="7.3408557"><ele>689.0</ele><time>2026-04-19T10:55:37.208Z</time></trkpt><trkpt lat="44.4767578" lon="7.3408873"><ele>689.0</ele><time>2026-04-19T10:55:39.208Z</time></trkpt><trkpt lat="44.4768365" lon="7.3409085"><ele>689.0</ele><time>2026-04-19T10:55:41.208Z</time></trkpt><trkpt lat="44.4769067" lon="7.3409724"><ele>689.0</ele><time>2026-04-19T10:55:43.209Z</time></trkpt><trkpt lat="44.47693" lon="7.3410882"><ele>689.0</ele><time>2026-04-19T10:55:45.208Z</time></trkpt><trkpt lat="44.4769364" lon="7.3412204"><ele>689.0</ele><time>2026-04-19T10:55:47.208Z</time></trkpt><trkpt lat="44.4769409" lon="7.3413437"><ele>689.0</ele><time>2026-04-19T10:55:49.208Z</time></trkpt><trkpt lat="44.476941" lon="7.3414591"><ele>689.0</ele><time>2026-04-19T10:55:51.208Z</time></trkpt><trkpt lat="44.4769387" lon="7.3415766"><ele>689.0</ele><time>2026-04-19T10:55:53.209Z</time></trkpt><trkpt lat="44.4769398" lon="7.341699"><ele>689.0</ele><time>2026-04-19T10:55:55.209Z</time></trkpt><trkpt lat="44.4769436" lon="7.3418195"><ele>689.0</ele><time>2026-04-19T10:55:57.208Z</time></trkpt><trkpt lat="44.4769586" lon="7.3419242"><ele>688.8333333333333</ele><time>2026-04-19T10:55:59.208Z</time></trkpt><trkpt lat="44.4769756" lon="7.3420125"><ele>688.6666666666666</ele><time>2026-04-19T10:56:01.209Z</time></trkpt><trkpt lat="44.4769984" lon="7.3421127"><ele>688.5</ele><time>2026-04-19T10:56:04.208Z</time></trkpt><trkpt lat="44.4770625" lon="7.3421804"><ele>688.3333333333334</ele><time>2026-04-19T10:56:07.209Z</time></trkpt><trkpt lat="44.4771513" lon="7.342205"><ele>688.1666666666667</ele><time>2026-04-19T10:56:10.209Z</time></trkpt><trkpt lat="44.4772253" lon="7.3422103"><ele>688.0</ele><time>2026-04-19T10:56:12.209Z</time></trkpt><trkpt lat="44.477298" lon="7.3421797"><ele>688.8571428571429</ele><time>2026-04-19T10:56:14.209Z</time></trkpt><trkpt lat="44.4773691" lon="7.3421501"><ele>689.7142857142858</ele><time>2026-04-19T10:56:16.208Z</time></trkpt><trkpt lat="44.4774373" lon="7.3421217"><ele>690.5714285714287</ele><time>2026-04-19T10:56:18.209Z</time></trkpt><trkpt lat="44.4775105" lon="7.3420978"><ele>691.4285714285714</ele><time>2026-04-19T10:56:20.208Z</time></trkpt><trkpt lat="44.4775813" lon="7.3420649"><ele>692.2857142857142</ele><time>2026-04-19T10:56:22.208Z</time></trkpt><trkpt lat="44.4776523" lon="7.3420406"><ele>693.1428571428572</ele><time>2026-04-19T10:56:24.209Z</time></trkpt><trkpt lat="44.4777185" lon="7.3419991"><ele>694.0</ele><time>2026-04-19T10:56:26.208Z</time></trkpt><trkpt lat="44.4777823" lon="7.341938"><ele>694.0</ele><time>2026-04-19T10:56:28.208Z</time></trkpt><trkpt lat="44.4778434" lon="7.3418627"><ele>694.0</ele><time>2026-04-19T10:56:30.209Z</time></trkpt><trkpt lat="44.4778947" lon="7.3417778"><ele>694.0</ele><time>2026-04-19T10:56:32.208Z</time></trkpt><trkpt lat="44.4779507" lon="7.3417011"><ele>694.0</ele><time>2026-04-19T10:56:34.209Z</time></trkpt><trkpt lat="44.4780084" lon="7.3416282"><ele>694.0</ele><time>2026-04-19T10:56:36.209Z</time></trkpt><trkpt lat="44.4780663" lon="7.3415552"><ele>694.0</ele><time>2026-04-19T10:56:38.209Z</time></trkpt><trkpt lat="44.4781366" lon="7.3415063"><ele>694.5714285714286</ele><time>2026-04-19T10:56:40.209Z</time></trkpt><trkpt lat="44.4782024" lon="7.3414608"><ele>695.1428571428571</ele><time>2026-04-19T10:56:42.208Z</time></trkpt><trkpt lat="44.4782659" lon="7.341424"><ele>695.7142857142857</ele><time>2026-04-19T10:56:44.209Z</time></trkpt><trkpt lat="44.4783245" lon="7.3413916"><ele>696.2857142857142</ele><time>2026-04-19T10:56:46.209Z</time></trkpt><trkpt lat="44.4783853" lon="7.3413628"><ele>696.8571428571429</ele><time>2026-04-19T10:56:48.208Z</time></trkpt><trkpt lat="44.4784495" lon="7.3413404"><ele>697.4285714285713</ele><time>2026-04-19T10:56:50.208Z</time></trkpt><trkpt lat="44.4785135" lon="7.3413092"><ele>698.0</ele><time>2026-04-19T10:56:52.208Z</time></trkpt><trkpt lat="44.4785746" lon="7.3412747"><ele>698.5</ele><time>2026-04-19T10:56:54.209Z</time></trkpt><trkpt lat="44.4786343" lon="7.3412463"><ele>699.0</ele><time>2026-04-19T10:56:56.208Z</time></trkpt><trkpt lat="44.4787266" lon="7.3412241"><ele>699.5</ele><time>2026-04-19T10:56:59.209Z</time></trkpt><trkpt lat="44.4788156" lon="7.3411922"><ele>700.0</ele><time>2026-04-19T10:57:02.208Z</time></trkpt><trkpt lat="44.4789063" lon="7.3411716"><ele>700.5</ele><time>2026-04-19T10:57:05.209Z</time></trkpt><trkpt lat="44.4789914" lon="7.3411517"><ele>701.0</ele><time>2026-04-19T10:57:08.209Z</time></trkpt><trkpt lat="44.4790735" lon="7.3411262"><ele>702.0</ele><time>2026-04-19T10:57:11.209Z</time></trkpt><trkpt lat="44.4791572" lon="7.3411036"><ele>703.0</ele><time>2026-04-19T10:57:14.208Z</time></trkpt><trkpt lat="44.4792416" lon="7.3410807"><ele>704.0</ele><time>2026-04-19T10:57:17.208Z</time></trkpt><trkpt lat="44.479318" lon="7.3410546"><ele>705.0</ele><time>2026-04-19T10:57:20.209Z</time></trkpt><trkpt lat="44.4793938" lon="7.3410255"><ele>706.0</ele><time>2026-04-19T10:57:23.209Z</time></trkpt><trkpt lat="44.4794688" lon="7.3409984"><ele>707.0</ele><time>2026-04-19T10:57:26.209Z</time></trkpt><trkpt lat="44.4795394" lon="7.3409679"><ele>708.5</ele><time>2026-04-19T10:57:29.209Z</time></trkpt><trkpt lat="44.4796062" lon="7.3409395"><ele>710.0</ele><time>2026-04-19T10:57:32.209Z</time></trkpt><trkpt lat="44.4796751" lon="7.3409195"><ele>711.5</ele><time>2026-04-19T10:57:35.208Z</time></trkpt><trkpt lat="44.4797558" lon="7.3409321"><ele>713.0</ele><time>2026-04-19T10:57:38.209Z</time></trkpt><trkpt lat="44.4798296" lon="7.3409882"><ele>714.5</ele><time>2026-04-19T10:57:41.209Z</time></trkpt><trkpt lat="44.4798952" lon="7.3410503"><ele>716.0</ele><time>2026-04-19T10:57:44.208Z</time></trkpt><trkpt lat="44.4799626" lon="7.3411096"><ele>716.0</ele><time>2026-04-19T10:57:47.208Z</time></trkpt><trkpt lat="44.4800316" lon="7.3411751"><ele>716.0</ele><time>2026-04-19T10:57:50.208Z</time></trkpt><trkpt lat="44.4800872" lon="7.3412177"><ele>716.0</ele><time>2026-04-19T10:57:52.208Z</time></trkpt><trkpt lat="44.480152" lon="7.3412664"><ele>716.0</ele><time>2026-04-19T10:57:54.208Z</time></trkpt><trkpt lat="44.4802354" lon="7.3413139"><ele>716.0</ele><time>2026-04-19T10:57:56.208Z</time></trkpt><trkpt lat="44.4803273" lon="7.3413545"><ele>716.0</ele><time>2026-04-19T10:57:58.208Z</time></trkpt><trkpt lat="44.4804288" lon="7.3414062"><ele>715.8</ele><time>2026-04-19T10:58:00.209Z</time></trkpt><trkpt lat="44.4805053" lon="7.3415296"><ele>715.5999999999999</ele><time>2026-04-19T10:58:02.208Z</time></trkpt><trkpt lat="44.4805247" lon="7.3416841"><ele>715.4</ele><time>2026-04-19T10:58:04.207Z</time></trkpt><trkpt lat="44.4804551" lon="7.3417686"><ele>715.2</ele><time>2026-04-19T10:58:06.207Z</time></trkpt><trkpt lat="44.4803889" lon="7.3418422"><ele>715.0</ele><time>2026-04-19T10:58:08.208Z</time></trkpt><trkpt lat="44.4803536" lon="7.3419282"><ele>715.0</ele><time>2026-04-19T10:58:10.208Z</time></trkpt><trkpt lat="44.4803271" lon="7.3420329"><ele>715.0</ele><time>2026-04-19T10:58:12.207Z</time></trkpt><trkpt lat="44.480312" lon="7.3421297"><ele>715.0</ele><time>2026-04-19T10:58:14.207Z</time></trkpt><trkpt lat="44.4803179" lon="7.3422213"><ele>715.0</ele><time>2026-04-19T10:58:16.208Z</time></trkpt><trkpt lat="44.4803392" lon="7.3423091"><ele>715.0</ele><time>2026-04-19T10:58:18.209Z</time></trkpt><trkpt lat="44.4803713" lon="7.3423854"><ele>715.0</ele><time>2026-04-19T10:58:20.207Z</time></trkpt><trkpt lat="44.4804107" lon="7.3424585"><ele>715.0</ele><time>2026-04-19T10:58:22.208Z</time></trkpt><trkpt lat="44.4804435" lon="7.3425388"><ele>716.8571428571429</ele><time>2026-04-19T10:58:24.207Z</time></trkpt><trkpt lat="44.4804781" lon="7.342618"><ele>718.7142857142857</ele><time>2026-04-19T10:58:26.207Z</time></trkpt><trkpt lat="44.4805129" lon="7.3426922"><ele>720.5714285714286</ele><time>2026-04-19T10:58:28.208Z</time></trkpt><trkpt lat="44.4805439" lon="7.342817"><ele>722.4285714285714</ele><time>2026-04-19T10:58:31.207Z</time></trkpt><trkpt lat="44.4805416" lon="7.3429442"><ele>724.2857142857142</ele><time>2026-04-19T10:58:34.207Z</time></trkpt><trkpt lat="44.4805157" lon="7.3430267"><ele>726.1428571428571</ele><time>2026-04-19T10:58:36.209Z</time></trkpt><trkpt lat="44.4804703" lon="7.3430894"><ele>728.0</ele><time>2026-04-19T10:58:38.209Z</time></trkpt><trkpt lat="44.4804152" lon="7.3431485"><ele>728.1666666666666</ele><time>2026-04-19T10:58:40.207Z</time></trkpt><trkpt lat="44.4803512" lon="7.3431853"><ele>728.3333333333333</ele><time>2026-04-19T10:58:42.208Z</time></trkpt><trkpt lat="44.4802873" lon="7.3432142"><ele>728.5</ele><time>2026-04-19T10:58:44.208Z</time></trkpt><trkpt lat="44.4802014" lon="7.3432473"><ele>728.6666666666666</ele><time>2026-04-19T10:58:47.208Z</time></trkpt><trkpt lat="44.4801263" lon="7.3432824"><ele>728.8333333333334</ele><time>2026-04-19T10:58:50.207Z</time></trkpt><trkpt lat="44.4800511" lon="7.3433278"><ele>729.0</ele><time>2026-04-19T10:58:53.208Z</time></trkpt><trkpt lat="44.4799922" lon="7.3433882"><ele>729.0</ele><time>2026-04-19T10:58:56.208Z</time></trkpt><trkpt lat="44.4799501" lon="7.343464"><ele>729.0</ele><time>2026-04-19T10:58:59.207Z</time></trkpt><trkpt lat="44.4799191" lon="7.343561"><ele>729.0</ele><time>2026-04-19T10:59:02.208Z</time></trkpt><trkpt lat="44.4798953" lon="7.3436704"><ele>729.0</ele><time>2026-04-19T10:59:05.207Z</time></trkpt><trkpt lat="44.4798775" lon="7.3437868"><ele>729.0</ele><time>2026-04-19T10:59:08.208Z</time></trkpt><trkpt lat="44.4798734" lon="7.3439032"><ele>729.0</ele><time>2026-04-19T10:59:11.208Z</time></trkpt><trkpt lat="44.479875" lon="7.3440186"><ele>730.4285714285714</ele><time>2026-04-19T10:59:14.207Z</time></trkpt><trkpt lat="44.4798915" lon="7.3441227"><ele>731.8571428571428</ele><time>2026-04-19T10:59:17.207Z</time></trkpt><trkpt lat="44.4799081" lon="7.3442207"><ele>733.2857142857142</ele><time>2026-04-19T10:59:20.208Z</time></trkpt><trkpt lat="44.4799223" lon="7.3443207"><ele>734.7142857142858</ele><time>2026-04-19T10:59:23.208Z</time></trkpt><trkpt lat="44.4799266" lon="7.3444238"><ele>736.1428571428571</ele><time>2026-04-19T10:59:26.207Z</time></trkpt><trkpt lat="44.4799133" lon="7.3445266"><ele>737.5714285714286</ele><time>2026-04-19T10:59:29.209Z</time></trkpt><trkpt lat="44.4798865" lon="7.3446273"><ele>739.0</ele><time>2026-04-19T10:59:32.209Z</time></trkpt><trkpt lat="44.4798523" lon="7.3447164"><ele>739.8571428571429</ele><time>2026-04-19T10:59:35.208Z</time></trkpt><trkpt lat="44.479815" lon="7.3447964"><ele>740.7142857142858</ele><time>2026-04-19T10:59:38.207Z</time></trkpt><trkpt lat="44.4797767" lon="7.3448858"><ele>741.5714285714286</ele><time>2026-04-19T10:59:41.208Z</time></trkpt><trkpt lat="44.4797582" lon="7.3449926"><ele>742.4285714285714</ele><time>2026-04-19T10:59:44.207Z</time></trkpt><trkpt lat="44.4797505" lon="7.3450881"><ele>743.2857142857142</ele><time>2026-04-19T10:59:47.207Z</time></trkpt><trkpt lat="44.479739" lon="7.3451755"><ele>744.1428571428571</ele><time>2026-04-19T10:59:50.208Z</time></trkpt><trkpt lat="44.4797262" lon="7.3452699"><ele>745.0</ele><time>2026-04-19T10:59:53.207Z</time></trkpt><trkpt lat="44.4797309" lon="7.3453634"><ele>745.0</ele><time>2026-04-19T10:59:55.208Z</time></trkpt><trkpt lat="44.4797489" lon="7.3454611"><ele>745.0</ele><time>2026-04-19T10:59:57.207Z</time></trkpt><trkpt lat="44.4797663" lon="7.3455697"><ele>745.0</ele><time>2026-04-19T10:59:59.207Z</time></trkpt><trkpt lat="44.4797827" lon="7.3456921"><ele>745.0</ele><time>2026-04-19T11:00:01.207Z</time></trkpt><trkpt lat="44.4798011" lon="7.3458126"><ele>745.0</ele><time>2026-04-19T11:00:03.208Z</time></trkpt><trkpt lat="44.4798145" lon="7.3459021"><ele>745.0</ele><time>2026-04-19T11:00:05.207Z</time></trkpt><trkpt lat="44.4798125" lon="7.3459988"><ele>745.1666666666667</ele><time>2026-04-19T11:00:07.208Z</time></trkpt><trkpt lat="44.4798357" lon="7.346101"><ele>745.3333333333334</ele><time>2026-04-19T11:00:10.208Z</time></trkpt><trkpt lat="44.4798539" lon="7.3462333"><ele>745.5</ele><time>2026-04-19T11:00:13.207Z</time></trkpt><trkpt lat="44.4798771" lon="7.3463479"><ele>745.6666666666666</ele><time>2026-04-19T11:00:15.207Z</time></trkpt><trkpt lat="44.4799026" lon="7.3464535"><ele>745.8333333333333</ele><time>2026-04-19T11:00:17.207Z</time></trkpt><trkpt lat="44.4799355" lon="7.3465369"><ele>746.0</ele><time>2026-04-19T11:00:19.208Z</time></trkpt><trkpt lat="44.4799757" lon="7.346612"><ele>746.4285714285714</ele><time>2026-04-19T11:00:21.208Z</time></trkpt><trkpt lat="44.4800192" lon="7.3466792"><ele>746.8571428571429</ele><time>2026-04-19T11:00:23.207Z</time></trkpt><trkpt lat="44.4800755" lon="7.3467765"><ele>747.2857142857142</ele><time>2026-04-19T11:00:26.208Z</time></trkpt><trkpt lat="44.4801105" lon="7.3468819"><ele>747.7142857142858</ele><time>2026-04-19T11:00:29.207Z</time></trkpt><trkpt lat="44.4801297" lon="7.346987"><ele>748.1428571428571</ele><time>2026-04-19T11:00:32.207Z</time></trkpt><trkpt lat="44.4801342" lon="7.3470816"><ele>748.5714285714286</ele><time>2026-04-19T11:00:34.207Z</time></trkpt><trkpt lat="44.4801001" lon="7.3471589"><ele>749.0</ele><time>2026-04-19T11:00:36.207Z</time></trkpt><trkpt lat="44.4800144" lon="7.3471686"><ele>749.0</ele><time>2026-04-19T11:00:39.209Z</time></trkpt><trkpt lat="44.4799419" lon="7.3471427"><ele>749.0</ele><time>2026-04-19T11:00:42.208Z</time></trkpt><trkpt lat="44.4798729" lon="7.3470824"><ele>749.0</ele><time>2026-04-19T11:00:45.208Z</time></trkpt><trkpt lat="44.4797951" lon="7.3470253"><ele>749.0</ele><time>2026-04-19T11:00:48.208Z</time></trkpt><trkpt lat="44.4797188" lon="7.3469544"><ele>749.0</ele><time>2026-04-19T11:00:51.207Z</time></trkpt><trkpt lat="44.4796654" lon="7.3469037"><ele>749.0</ele><time>2026-04-19T11:00:53.207Z</time></trkpt><trkpt lat="44.4795784" lon="7.3468981"><ele>748.6666666666666</ele><time>2026-04-19T11:00:56.207Z</time></trkpt><trkpt lat="44.4795028" lon="7.3469151"><ele>748.3333333333333</ele><time>2026-04-19T11:00:59.207Z</time></trkpt><trkpt lat="44.4794337" lon="7.3469359"><ele>748.0</ele><time>2026-04-19T11:01:02.207Z</time></trkpt><trkpt lat="44.479368" lon="7.3469234"><ele>747.6666666666666</ele><time>2026-04-19T11:01:05.208Z</time></trkpt><trkpt lat="44.4793078" lon="7.3468838"><ele>747.3333333333334</ele><time>2026-04-19T11:01:08.207Z</time></trkpt><trkpt lat="44.4792314" lon="7.3468363"><ele>747.0</ele><time>2026-04-19T11:01:11.207Z</time></trkpt><trkpt lat="44.4791451" lon="7.3468389"><ele>747.0</ele><time>2026-04-19T11:01:14.207Z</time></trkpt><trkpt lat="44.4790653" lon="7.3468961"><ele>747.0</ele><time>2026-04-19T11:01:17.207Z</time></trkpt><trkpt lat="44.4789971" lon="7.3469732"><ele>747.0</ele><time>2026-04-19T11:01:20.207Z</time></trkpt><trkpt lat="44.4789251" lon="7.347044"><ele>747.0</ele><time>2026-04-19T11:01:23.209Z</time></trkpt><trkpt lat="44.4788552" lon="7.3470902"><ele>747.0</ele><time>2026-04-19T11:01:25.903Z</time></trkpt><trkpt lat="44.4787884" lon="7.3471358"><ele>747.0</ele><time>2026-04-19T11:01:28.152Z</time></trkpt><trkpt lat="44.478725" lon="7.3471697"><ele>746.6666666666666</ele><time>2026-04-19T11:01:30.208Z</time></trkpt><trkpt lat="44.4786444" lon="7.3472049"><ele>746.3333333333334</ele><time>2026-04-19T11:01:33.207Z</time></trkpt><trkpt lat="44.478563" lon="7.3472419"><ele>746.0</ele><time>2026-04-19T11:01:36.207Z</time></trkpt><trkpt lat="44.4784977" lon="7.347322"><ele>745.6666666666667</ele><time>2026-04-19T11:01:39.219Z</time></trkpt><trkpt lat="44.4784475" lon="7.3474211"><ele>745.3333333333334</ele><time>2026-04-19T11:01:42.214Z</time></trkpt><trkpt lat="44.4784085" lon="7.3475378"><ele>745.0</ele><time>2026-04-19T11:01:45.209Z</time></trkpt><trkpt lat="44.4783522" lon="7.3476339"><ele>747.1666666666667</ele><time>2026-04-19T11:01:48.207Z</time></trkpt><trkpt lat="44.4782901" lon="7.3477293"><ele>749.3333333333334</ele><time>2026-04-19T11:01:51.207Z</time></trkpt><trkpt lat="44.4782255" lon="7.3478121"><ele>751.5</ele><time>2026-04-19T11:01:54.092Z</time></trkpt><trkpt lat="44.4781895" lon="7.3478865"><ele>753.6666666666666</ele><time>2026-04-19T11:01:56.208Z</time></trkpt><trkpt lat="44.4781465" lon="7.3480019"><ele>755.8333333333333</ele><time>2026-04-19T11:01:59.207Z</time></trkpt><trkpt lat="44.4781465" lon="7.3480956"><ele>758.0</ele><time>2026-04-19T11:02:01.208Z</time></trkpt><trkpt lat="44.478166" lon="7.3481965"><ele>758.5714285714287</ele><time>2026-04-19T11:02:03.232Z</time></trkpt><trkpt lat="44.4781919" lon="7.3482958"><ele>759.1428571428571</ele><time>2026-04-19T11:02:05.218Z</time></trkpt><trkpt lat="44.4782198" lon="7.3483925"><ele>759.7142857142858</ele><time>2026-04-19T11:02:07.131Z</time></trkpt><trkpt lat="44.4782471" lon="7.3485047"><ele>760.2857142857143</ele><time>2026-04-19T11:02:09.208Z</time></trkpt><trkpt lat="44.4782707" lon="7.3486133"><ele>760.8571428571429</ele><time>2026-04-19T11:02:11.209Z</time></trkpt><trkpt lat="44.4782894" lon="7.348704"><ele>761.4285714285714</ele><time>2026-04-19T11:02:13.208Z</time></trkpt><trkpt lat="44.478311" lon="7.3487905"><ele>762.0</ele><time>2026-04-19T11:02:15.207Z</time></trkpt><trkpt lat="44.4783376" lon="7.3488738"><ele>762.1666666666666</ele><time>2026-04-19T11:02:17.207Z</time></trkpt><trkpt lat="44.478379" lon="7.3489561"><ele>762.3333333333334</ele><time>2026-04-19T11:02:19.207Z</time></trkpt><trkpt lat="44.4784363" lon="7.3490391"><ele>762.5</ele><time>2026-04-19T11:02:21.208Z</time></trkpt><trkpt lat="44.47849" lon="7.3491314"><ele>762.6666666666667</ele><time>2026-04-19T11:02:23.184Z</time></trkpt><trkpt lat="44.4785245" lon="7.3492329"><ele>762.8333333333334</ele><time>2026-04-19T11:02:25.207Z</time></trkpt><trkpt lat="44.478556" lon="7.349314"><ele>763.0</ele><time>2026-04-19T11:02:27.208Z</time></trkpt><trkpt lat="44.4785806" lon="7.3493989"><ele>763.0</ele><time>2026-04-19T11:02:29.208Z</time></trkpt><trkpt lat="44.4785931" lon="7.3494905"><ele>763.0</ele><time>2026-04-19T11:02:31.218Z</time></trkpt><trkpt lat="44.4785382" lon="7.3495612"><ele>763.0</ele><time>2026-04-19T11:02:33.208Z</time></trkpt><trkpt lat="44.4784595" lon="7.3495814"><ele>763.0</ele><time>2026-04-19T11:02:35.145Z</time></trkpt><trkpt lat="44.4783657" lon="7.3495846"><ele>763.0</ele><time>2026-04-19T11:02:37.207Z</time></trkpt><trkpt lat="44.4782905" lon="7.3496055"><ele>763.0</ele><time>2026-04-19T11:02:39.06Z</time></trkpt><trkpt lat="44.4782094" lon="7.3496489"><ele>763.0</ele><time>2026-04-19T11:02:41.127Z</time></trkpt><trkpt lat="44.4781414" lon="7.3496987"><ele>763.0</ele><time>2026-04-19T11:02:43.208Z</time></trkpt><trkpt lat="44.4780814" lon="7.3497319"><ele>763.0</ele><time>2026-04-19T11:02:45.207Z</time></trkpt><trkpt lat="44.4780168" lon="7.3497542"><ele>763.0</ele><time>2026-04-19T11:02:47.207Z</time></trkpt><trkpt lat="44.4779384" lon="7.3497923"><ele>763.0</ele><time>2026-04-19T11:02:50.208Z</time></trkpt><trkpt lat="44.4778589" lon="7.3498418"><ele>763.0</ele><time>2026-04-19T11:02:53.208Z</time></trkpt><trkpt lat="44.4778022" lon="7.3499212"><ele>763.6666666666667</ele><time>2026-04-19T11:02:57.218Z</time></trkpt><trkpt lat="44.4777666" lon="7.3500203"><ele>764.3333333333334</ele><time>2026-04-19T11:03:00.208Z</time></trkpt><trkpt lat="44.4777327" lon="7.3500959"><ele>765.0</ele><time>2026-04-19T11:03:02.208Z</time></trkpt><trkpt lat="44.4776561" lon="7.3501532"><ele>765.6666666666666</ele><time>2026-04-19T11:03:04.208Z</time></trkpt><trkpt lat="44.4775795" lon="7.3501886"><ele>766.3333333333333</ele><time>2026-04-19T11:03:06.208Z</time></trkpt><trkpt lat="44.4775172" lon="7.3502181"><ele>767.0</ele><time>2026-04-19T11:03:08.208Z</time></trkpt><trkpt lat="44.4774427" lon="7.3502745"><ele>767.0</ele><time>2026-04-19T11:03:11.042Z</time></trkpt><trkpt lat="44.4773767" lon="7.3503338"><ele>767.0</ele><time>2026-04-19T11:03:14.208Z</time></trkpt><trkpt lat="44.4773045" lon="7.3504182"><ele>767.0</ele><time>2026-04-19T11:03:17.207Z</time></trkpt><trkpt lat="44.4772622" lon="7.3504928"><ele>767.0</ele><time>2026-04-19T11:03:19.208Z</time></trkpt><trkpt lat="44.4772351" lon="7.3505952"><ele>767.0</ele><time>2026-04-19T11:03:22.208Z</time></trkpt><trkpt lat="44.4772343" lon="7.3507028"><ele>767.0</ele><time>2026-04-19T11:03:25.208Z</time></trkpt><trkpt lat="44.4772241" lon="7.3508196"><ele>768.2857142857143</ele><time>2026-04-19T11:03:28.208Z</time></trkpt><trkpt lat="44.4772417" lon="7.350928"><ele>769.5714285714287</ele><time>2026-04-19T11:03:31.207Z</time></trkpt><trkpt lat="44.477269" lon="7.351023"><ele>770.8571428571429</ele><time>2026-04-19T11:03:34.165Z</time></trkpt><trkpt lat="44.4773005" lon="7.3511128"><ele>772.1428571428571</ele><time>2026-04-19T11:03:37.242Z</time></trkpt><trkpt lat="44.4773747" lon="7.3511398"><ele>773.4285714285714</ele><time>2026-04-19T11:03:42.207Z</time></trkpt><trkpt lat="44.4774177" lon="7.3512083"><ele>774.7142857142857</ele><time>2026-04-19T11:03:47.208Z</time></trkpt><trkpt lat="44.4774766" lon="7.351292"><ele>776.0</ele><time>2026-04-19T11:03:51.207Z</time></trkpt><trkpt lat="44.4775306" lon="7.3513994"><ele>776.0000000000001</ele><time>2026-04-19T11:03:54.208Z</time></trkpt><trkpt lat="44.4775623" lon="7.3514819"><ele>776.0</ele><time>2026-04-19T11:03:56.207Z</time></trkpt><trkpt lat="44.4776136" lon="7.3515706"><ele>776.0</ele><time>2026-04-19T11:03:58.207Z</time></trkpt><trkpt lat="44.4776765" lon="7.3516592"><ele>776.0</ele><time>2026-04-19T11:04:00.207Z</time></trkpt><trkpt lat="44.4777308" lon="7.3517425"><ele>776.0000000000001</ele><time>2026-04-19T11:04:02.209Z</time></trkpt><trkpt lat="44.4777799" lon="7.3518447"><ele>776.0</ele><time>2026-04-19T11:04:05.207Z</time></trkpt><trkpt lat="44.4778032" lon="7.3519669"><ele>776.0000000000001</ele><time>2026-04-19T11:04:07.208Z</time></trkpt><trkpt lat="44.477827" lon="7.3520694"><ele>776.0</ele><time>2026-04-19T11:04:09.207Z</time></trkpt><trkpt lat="44.4778447" lon="7.3521752"><ele>776.0</ele><time>2026-04-19T11:04:11.207Z</time></trkpt><trkpt lat="44.4778707" lon="7.3522981"><ele>776.0</ele><time>2026-04-19T11:04:13.207Z</time></trkpt><trkpt lat="44.4778915" lon="7.3524093"><ele>776.0000000000001</ele><time>2026-04-19T11:04:15.208Z</time></trkpt><trkpt lat="44.4779086" lon="7.3524984"><ele>776.0</ele><time>2026-04-19T11:04:17.208Z</time></trkpt><trkpt lat="44.4779421" lon="7.3525839"><ele>776.5714285714286</ele><time>2026-04-19T11:04:23.207Z</time></trkpt><trkpt lat="44.4779762" lon="7.3526723"><ele>777.1428571428572</ele><time>2026-04-19T11:04:41.207Z</time></trkpt><trkpt lat="44.4780149" lon="7.3527445"><ele>777.7142857142858</ele><time>2026-04-19T11:04:51.206Z</time></trkpt><trkpt lat="44.4780637" lon="7.3528065"><ele>778.2857142857142</ele><time>2026-04-19T11:05:01.207Z</time></trkpt><trkpt lat="44.4781155" lon="7.352882"><ele>778.8571428571429</ele><time>2026-04-19T11:05:05.206Z</time></trkpt><trkpt lat="44.4781803" lon="7.3529348"><ele>779.4285714285714</ele><time>2026-04-19T11:05:08.206Z</time></trkpt><trkpt lat="44.47827" lon="7.3529825"><ele>780.0</ele><time>2026-04-19T11:05:11.206Z</time></trkpt><trkpt lat="44.4783435" lon="7.3530248"><ele>776.4</ele><time>2026-04-19T11:05:14.207Z</time></trkpt><trkpt lat="44.4783948" lon="7.353091"><ele>772.8</ele><time>2026-04-19T11:05:16.206Z</time></trkpt><trkpt lat="44.4784442" lon="7.3532094"><ele>769.2</ele><time>2026-04-19T11:05:18.206Z</time></trkpt><trkpt lat="44.4785153" lon="7.3533429"><ele>765.6</ele><time>2026-04-19T11:05:20.206Z</time></trkpt><trkpt lat="44.478558" lon="7.3534081"><ele>762.0</ele><time>2026-04-19T11:05:21.206Z</time></trkpt><trkpt lat="44.4786413" lon="7.3535397"><ele>762.0</ele><time>2026-04-19T11:05:23.206Z</time></trkpt><trkpt lat="44.4786756" lon="7.3536138"><ele>762.0</ele><time>2026-04-19T11:05:24.206Z</time></trkpt><trkpt lat="44.4787523" lon="7.3537351"><ele>762.0</ele><time>2026-04-19T11:05:26.207Z</time></trkpt><trkpt lat="44.4788305" lon="7.3538324"><ele>762.0</ele><time>2026-04-19T11:05:28.207Z</time></trkpt><trkpt lat="44.4789123" lon="7.3539254"><ele>762.0</ele><time>2026-04-19T11:05:30.206Z</time></trkpt><trkpt lat="44.4790002" lon="7.3540207"><ele>763.4000000000001</ele><time>2026-04-19T11:05:32.207Z</time></trkpt><trkpt lat="44.4790503" lon="7.3541593"><ele>764.8000000000001</ele><time>2026-04-19T11:05:34.206Z</time></trkpt><trkpt lat="44.4790623" lon="7.3542966"><ele>766.2</ele><time>2026-04-19T11:05:36.207Z</time></trkpt><trkpt lat="44.4790373" lon="7.3544515"><ele>767.6</ele><time>2026-04-19T11:05:38.206Z</time></trkpt><trkpt lat="44.4789504" lon="7.3545455"><ele>769.0</ele><time>2026-04-19T11:05:40.207Z</time></trkpt><trkpt lat="44.4788493" lon="7.3545913"><ele>769.0</ele><time>2026-04-19T11:05:42.206Z</time></trkpt><trkpt lat="44.4787707" lon="7.3546431"><ele>769.0</ele><time>2026-04-19T11:05:44.206Z</time></trkpt><trkpt lat="44.4787231" lon="7.3547042"><ele>769.0</ele><time>2026-04-19T11:05:46.207Z</time></trkpt><trkpt lat="44.4786748" lon="7.3547796"><ele>769.0</ele><time>2026-04-19T11:05:48.206Z</time></trkpt><trkpt lat="44.478622" lon="7.3548533"><ele>769.0</ele><time>2026-04-19T11:05:50.206Z</time></trkpt><trkpt lat="44.4785716" lon="7.3549086"><ele>769.0</ele><time>2026-04-19T11:05:52.207Z</time></trkpt><trkpt lat="44.4785152" lon="7.3549847"><ele>769.0</ele><time>2026-04-19T11:05:55.207Z</time></trkpt><trkpt lat="44.4784797" lon="7.3550992"><ele>764.6666666666666</ele><time>2026-04-19T11:05:58.206Z</time></trkpt><trkpt lat="44.4784836" lon="7.3551965"><ele>760.3333333333333</ele><time>2026-04-19T11:06:00.206Z</time></trkpt><trkpt lat="44.4785001" lon="7.3553313"><ele>756.0</ele><time>2026-04-19T11:06:02.207Z</time></trkpt><trkpt lat="44.4785145" lon="7.3554754"><ele>751.6666666666666</ele><time>2026-04-19T11:06:04.207Z</time></trkpt><trkpt lat="44.4785384" lon="7.3555884"><ele>747.3333333333333</ele><time>2026-04-19T11:06:06.207Z</time></trkpt><trkpt lat="44.4785304" lon="7.3556785"><ele>743.0</ele><time>2026-04-19T11:06:09.206Z</time></trkpt><trkpt lat="44.4785355" lon="7.3557666"><ele>743.0</ele><time>2026-04-19T11:06:11.207Z</time></trkpt><trkpt lat="44.47855" lon="7.3558766"><ele>743.0</ele><time>2026-04-19T11:06:13.207Z</time></trkpt><trkpt lat="44.4785647" lon="7.355984"><ele>743.0</ele><time>2026-04-19T11:06:15.206Z</time></trkpt><trkpt lat="44.4785698" lon="7.3560941"><ele>743.0</ele><time>2026-04-19T11:06:17.208Z</time></trkpt><trkpt lat="44.4785084" lon="7.3562053"><ele>743.0</ele><time>2026-04-19T11:06:19.206Z</time></trkpt><trkpt lat="44.4784801" lon="7.3563118"><ele>743.0</ele><time>2026-04-19T11:06:21.206Z</time></trkpt><trkpt lat="44.4784483" lon="7.3564299"><ele>743.0</ele><time>2026-04-19T11:06:24.207Z</time></trkpt><trkpt lat="44.4784323" lon="7.3565196"><ele>743.0</ele><time>2026-04-19T11:06:27.208Z</time></trkpt><trkpt lat="44.478407" lon="7.3566174"><ele>743.0</ele><time>2026-04-19T11:06:29.207Z</time></trkpt><trkpt lat="44.4783664" lon="7.3567244"><ele>743.0</ele><time>2026-04-19T11:06:31.207Z</time></trkpt><trkpt lat="44.4783506" lon="7.3568147"><ele>743.0</ele><time>2026-04-19T11:06:33.207Z</time></trkpt><trkpt lat="44.4783416" lon="7.3569069"><ele>743.0</ele><time>2026-04-19T11:06:35.206Z</time></trkpt><trkpt lat="44.4783294" lon="7.3570071"><ele>743.0</ele><time>2026-04-19T11:06:37.206Z</time></trkpt><trkpt lat="44.4783085" lon="7.3571209"><ele>744.0</ele><time>2026-04-19T11:06:39.206Z</time></trkpt><trkpt lat="44.4782939" lon="7.3572538"><ele>745.0</ele><time>2026-04-19T11:06:42.208Z</time></trkpt><trkpt lat="44.4782536" lon="7.3573675"><ele>746.0</ele><time>2026-04-19T11:06:45.206Z</time></trkpt><trkpt lat="44.4782498" lon="7.3574687"><ele>747.0</ele><time>2026-04-19T11:06:47.206Z</time></trkpt><trkpt lat="44.4782508" lon="7.3575796"><ele>748.0</ele><time>2026-04-19T11:06:49.206Z</time></trkpt><trkpt lat="44.4782427" lon="7.3576827"><ele>749.0</ele><time>2026-04-19T11:06:51.206Z</time></trkpt><trkpt lat="44.4782316" lon="7.3577894"><ele>749.0</ele><time>2026-04-19T11:06:53.206Z</time></trkpt><trkpt lat="44.4782085" lon="7.3579179"><ele>749.0</ele><time>2026-04-19T11:06:55.207Z</time></trkpt><trkpt lat="44.47818" lon="7.3580431"><ele>749.0</ele><time>2026-04-19T11:06:57.207Z</time></trkpt><trkpt lat="44.4781323" lon="7.3581324"><ele>749.0</ele><time>2026-04-19T11:06:59.206Z</time></trkpt><trkpt lat="44.4780925" lon="7.358218"><ele>749.0</ele><time>2026-04-19T11:07:01.207Z</time></trkpt><trkpt lat="44.47808" lon="7.358325"><ele>749.0</ele><time>2026-04-19T11:07:03.206Z</time></trkpt><trkpt lat="44.4780981" lon="7.3584532"><ele>749.3333333333333</ele><time>2026-04-19T11:07:05.207Z</time></trkpt><trkpt lat="44.4781393" lon="7.3585739"><ele>749.6666666666666</ele><time>2026-04-19T11:07:07.206Z</time></trkpt><trkpt lat="44.4781758" lon="7.3586982"><ele>750.0</ele><time>2026-04-19T11:07:09.207Z</time></trkpt><trkpt lat="44.4781839" lon="7.3587862"><ele>750.3333333333334</ele><time>2026-04-19T11:07:10.206Z</time></trkpt><trkpt lat="44.4782071" lon="7.35888"><ele>750.6666666666667</ele><time>2026-04-19T11:07:11.207Z</time></trkpt><trkpt lat="44.478243" lon="7.3589655"><ele>751.0</ele><time>2026-04-19T11:07:12.207Z</time></trkpt><trkpt lat="44.4782747" lon="7.3590488"><ele>749.6666666666667</ele><time>2026-04-19T11:07:13.207Z</time></trkpt><trkpt lat="44.4783044" lon="7.3591289"><ele>748.3333333333334</ele><time>2026-04-19T11:07:14.206Z</time></trkpt><trkpt lat="44.478338" lon="7.3592044"><ele>747.0</ele><time>2026-04-19T11:07:15.206Z</time></trkpt><trkpt lat="44.4784077" lon="7.3593223"><ele>745.6666666666666</ele><time>2026-04-19T11:07:17.206Z</time></trkpt><trkpt lat="44.4784278" lon="7.3594367"><ele>744.3333333333333</ele><time>2026-04-19T11:07:19.207Z</time></trkpt><trkpt lat="44.4783838" lon="7.3595548"><ele>743.0</ele><time>2026-04-19T11:07:22.206Z</time></trkpt><trkpt lat="44.478307" lon="7.3596406"><ele>743.0</ele><time>2026-04-19T11:07:24.206Z</time></trkpt><trkpt lat="44.478251" lon="7.3596884"><ele>743.0</ele><time>2026-04-19T11:07:26.206Z</time></trkpt><trkpt lat="44.4781639" lon="7.3597371"><ele>743.0</ele><time>2026-04-19T11:07:28.207Z</time></trkpt><trkpt lat="44.4780987" lon="7.3598307"><ele>743.0</ele><time>2026-04-19T11:07:30.206Z</time></trkpt><trkpt lat="44.4780328" lon="7.3599763"><ele>743.0</ele><time>2026-04-19T11:07:32.206Z</time></trkpt><trkpt lat="44.4780243" lon="7.360093"><ele>744.0</ele><time>2026-04-19T11:07:34.207Z</time></trkpt><trkpt lat="44.4779859" lon="7.3601908"><ele>745.0</ele><time>2026-04-19T11:07:36.206Z</time></trkpt><trkpt lat="44.477931" lon="7.360298"><ele>746.0</ele><time>2026-04-19T11:07:38.206Z</time></trkpt><trkpt lat="44.4778861" lon="7.3603666"><ele>747.0</ele><time>2026-04-19T11:07:40.206Z</time></trkpt><trkpt lat="44.4778509" lon="7.3604798"><ele>748.0</ele><time>2026-04-19T11:07:43.206Z</time></trkpt><trkpt lat="44.4778567" lon="7.3605993"><ele>749.0</ele><time>2026-04-19T11:07:45.206Z</time></trkpt><trkpt lat="44.4778748" lon="7.3607338"><ele>750.0</ele><time>2026-04-19T11:07:47.207Z</time></trkpt><trkpt lat="44.4779116" lon="7.3608786"><ele>751.0</ele><time>2026-04-19T11:07:49.208Z</time></trkpt><trkpt lat="44.4779392" lon="7.3609847"><ele>752.0</ele><time>2026-04-19T11:07:50.206Z</time></trkpt><trkpt lat="44.4779456" lon="7.3610768"><ele>753.0</ele><time>2026-04-19T11:07:51.207Z</time></trkpt><trkpt lat="44.4779764" lon="7.3612416"><ele>754.0</ele><time>2026-04-19T11:07:53.207Z</time></trkpt><trkpt lat="44.4779917" lon="7.3613473"><ele>753.2</ele><time>2026-04-19T11:07:54.206Z</time></trkpt><trkpt lat="44.4780156" lon="7.3614477"><ele>752.4000000000001</ele><time>2026-04-19T11:07:55.206Z</time></trkpt><trkpt lat="44.4780379" lon="7.3615468"><ele>751.6</ele><time>2026-04-19T11:07:56.207Z</time></trkpt><trkpt lat="44.4780441" lon="7.3616449"><ele>750.8</ele><time>2026-04-19T11:07:57.206Z</time></trkpt><trkpt lat="44.4780824" lon="7.3618172"><ele>750.0</ele><time>2026-04-19T11:07:59.206Z</time></trkpt><trkpt lat="44.478124" lon="7.3619633"><ele>750.0</ele><time>2026-04-19T11:08:01.206Z</time></trkpt><trkpt lat="44.4781496" lon="7.3620829"><ele>750.0</ele><time>2026-04-19T11:08:03.206Z</time></trkpt><trkpt lat="44.4781857" lon="7.3622215"><ele>750.0</ele><time>2026-04-19T11:08:05.208Z</time></trkpt><trkpt lat="44.4782153" lon="7.3623184"><ele>750.0</ele><time>2026-04-19T11:08:07.207Z</time></trkpt><trkpt lat="44.4782498" lon="7.3624153"><ele>750.0</ele><time>2026-04-19T11:08:10.206Z</time></trkpt><trkpt lat="44.47829" lon="7.3625118"><ele>750.0</ele><time>2026-04-19T11:08:12.206Z</time></trkpt><trkpt lat="44.4783184" lon="7.3626269"><ele>748.8333333333334</ele><time>2026-04-19T11:08:14.206Z</time></trkpt><trkpt lat="44.4783563" lon="7.3627285"><ele>747.6666666666666</ele><time>2026-04-19T11:08:16.214Z</time></trkpt><trkpt lat="44.4784039" lon="7.3628377"><ele>746.5</ele><time>2026-04-19T11:08:18.206Z</time></trkpt><trkpt lat="44.4784339" lon="7.3629205"><ele>745.3333333333333</ele><time>2026-04-19T11:08:19.826Z</time></trkpt><trkpt lat="44.4784834" lon="7.3630092"><ele>744.1666666666666</ele><time>2026-04-19T11:08:22.123Z</time></trkpt><trkpt lat="44.4785408" lon="7.3630841"><ele>743.0</ele><time>2026-04-19T11:08:24.206Z</time></trkpt><trkpt lat="44.478606" lon="7.3631558"><ele>744.3333333333333</ele><time>2026-04-19T11:08:26.207Z</time></trkpt><trkpt lat="44.4786641" lon="7.3632514"><ele>745.6666666666666</ele><time>2026-04-19T11:08:28.206Z</time></trkpt><trkpt lat="44.4787058" lon="7.363349"><ele>747.0</ele><time>2026-04-19T11:08:30.129Z</time></trkpt><trkpt lat="44.4787501" lon="7.3634367"><ele>748.3333333333334</ele><time>2026-04-19T11:08:32.212Z</time></trkpt><trkpt lat="44.4787934" lon="7.3635101"><ele>749.6666666666667</ele><time>2026-04-19T11:08:34.206Z</time></trkpt><trkpt lat="44.4788424" lon="7.3635812"><ele>751.0</ele><time>2026-04-19T11:08:36.207Z</time></trkpt><trkpt lat="44.4788936" lon="7.3636479"><ele>751.0</ele><time>2026-04-19T11:08:38.207Z</time></trkpt><trkpt lat="44.4789488" lon="7.3637324"><ele>751.0</ele><time>2026-04-19T11:08:41.207Z</time></trkpt><trkpt lat="44.4790042" lon="7.3638131"><ele>751.0</ele><time>2026-04-19T11:08:44.207Z</time></trkpt><trkpt lat="44.4789721" lon="7.3639143"><ele>751.0</ele><time>2026-04-19T11:08:48.206Z</time></trkpt><trkpt lat="44.4788754" lon="7.363922"><ele>751.0</ele><time>2026-04-19T11:08:50.206Z</time></trkpt><trkpt lat="44.47876" lon="7.3639477"><ele>747.5</ele><time>2026-04-19T11:08:52.207Z</time></trkpt><trkpt lat="44.4786974" lon="7.3639635"><ele>744.0</ele><time>2026-04-19T11:08:53.207Z</time></trkpt><trkpt lat="44.4786346" lon="7.3639726"><ele>740.5</ele><time>2026-04-19T11:08:54.207Z</time></trkpt><trkpt lat="44.478526" lon="7.3639938"><ele>737.0</ele><time>2026-04-19T11:08:56.207Z</time></trkpt><trkpt lat="44.4784591" lon="7.3640565"><ele>733.5</ele><time>2026-04-19T11:08:58.206Z</time></trkpt><trkpt lat="44.478444" lon="7.3641873"><ele>730.0</ele><time>2026-04-19T11:09:02.207Z</time></trkpt><trkpt lat="44.4783762" lon="7.3643164"><ele>730.0</ele><time>2026-04-19T11:09:04.207Z</time></trkpt><trkpt lat="44.4783011" lon="7.3644281"><ele>730.0</ele><time>2026-04-19T11:09:06.207Z</time></trkpt><trkpt lat="44.4782244" lon="7.3645319"><ele>730.0</ele><time>2026-04-19T11:09:08.206Z</time></trkpt><trkpt lat="44.4781474" lon="7.364636"><ele>730.0</ele><time>2026-04-19T11:09:10.206Z</time></trkpt><trkpt lat="44.4780741" lon="7.3647457"><ele>730.0</ele><time>2026-04-19T11:09:12.207Z</time></trkpt><trkpt lat="44.4780009" lon="7.3648459"><ele>728.4</ele><time>2026-04-19T11:09:14.206Z</time></trkpt><trkpt lat="44.4779248" lon="7.3649451"><ele>726.8</ele><time>2026-04-19T11:09:16.206Z</time></trkpt><trkpt lat="44.4778461" lon="7.3650426"><ele>725.2</ele><time>2026-04-19T11:09:18.206Z</time></trkpt><trkpt lat="44.4777686" lon="7.365132"><ele>723.6</ele><time>2026-04-19T11:09:20.206Z</time></trkpt><trkpt lat="44.4776879" lon="7.3652093"><ele>722.0</ele><time>2026-04-19T11:09:22.207Z</time></trkpt><trkpt lat="44.4776041" lon="7.3652873"><ele>722.0</ele><time>2026-04-19T11:09:24.206Z</time></trkpt><trkpt lat="44.4775133" lon="7.3653591"><ele>722.0</ele><time>2026-04-19T11:09:26.208Z</time></trkpt><trkpt lat="44.4774233" lon="7.3654365"><ele>722.0</ele><time>2026-04-19T11:09:28.206Z</time></trkpt><trkpt lat="44.4773354" lon="7.3655362"><ele>722.0</ele><time>2026-04-19T11:09:30.207Z</time></trkpt><trkpt lat="44.4772355" lon="7.365658"><ele>721.8333333333333</ele><time>2026-04-19T11:09:32.207Z</time></trkpt><trkpt lat="44.4771843" lon="7.3657244"><ele>721.6666666666666</ele><time>2026-04-19T11:09:33.206Z</time></trkpt><trkpt lat="44.4771346" lon="7.3657844"><ele>721.5</ele><time>2026-04-19T11:09:34.206Z</time></trkpt><trkpt lat="44.4770775" lon="7.3658431"><ele>721.3333333333334</ele><time>2026-04-19T11:09:35.206Z</time></trkpt><trkpt lat="44.4770164" lon="7.365903"><ele>721.1666666666667</ele><time>2026-04-19T11:09:36.207Z</time></trkpt><trkpt lat="44.4769652" lon="7.3659671"><ele>721.0</ele><time>2026-04-19T11:09:37.207Z</time></trkpt><trkpt lat="44.4768805" lon="7.3660799"><ele>721.1666666666667</ele><time>2026-04-19T11:09:39.206Z</time></trkpt><trkpt lat="44.4768278" lon="7.3661477"><ele>721.3333333333334</ele><time>2026-04-19T11:09:41.206Z</time></trkpt><trkpt lat="44.4767717" lon="7.3662187"><ele>721.5</ele><time>2026-04-19T11:09:44.206Z</time></trkpt><trkpt lat="44.4767177" lon="7.3662982"><ele>721.6666666666666</ele><time>2026-04-19T11:09:48.206Z</time></trkpt><trkpt lat="44.4766644" lon="7.3663662"><ele>721.8333333333333</ele><time>2026-04-19T11:09:50.207Z</time></trkpt><trkpt lat="44.4766068" lon="7.3664126"><ele>722.0</ele><time>2026-04-19T11:09:52.206Z</time></trkpt><trkpt lat="44.4765201" lon="7.3664476"><ele>722.0</ele><time>2026-04-19T11:09:55.207Z</time></trkpt><trkpt lat="44.4764529" lon="7.3664713"><ele>722.0</ele><time>2026-04-19T11:09:57.206Z</time></trkpt><trkpt lat="44.4763801" lon="7.3664899"><ele>722.0</ele><time>2026-04-19T11:09:59.207Z</time></trkpt><trkpt lat="44.4763" lon="7.366484"><ele>722.0</ele><time>2026-04-19T11:10:01.207Z</time></trkpt><trkpt lat="44.4762186" lon="7.3664881"><ele>722.0</ele><time>2026-04-19T11:10:03.206Z</time></trkpt><trkpt lat="44.4761436" lon="7.3665276"><ele>722.0</ele><time>2026-04-19T11:10:06.207Z</time></trkpt><trkpt lat="44.4760947" lon="7.3666122"><ele>720.8333333333333</ele><time>2026-04-19T11:10:09.207Z</time></trkpt><trkpt lat="44.4760733" lon="7.3667093"><ele>719.6666666666666</ele><time>2026-04-19T11:10:11.207Z</time></trkpt><trkpt lat="44.4760518" lon="7.3668101"><ele>718.5</ele><time>2026-04-19T11:10:13.206Z</time></trkpt><trkpt lat="44.4759943" lon="7.3669008"><ele>717.3333333333334</ele><time>2026-04-19T11:10:15.207Z</time></trkpt><trkpt lat="44.4758838" lon="7.3670101"><ele>716.1666666666667</ele><time>2026-04-19T11:10:17.206Z</time></trkpt><trkpt lat="44.4758305" lon="7.3670738"><ele>715.0</ele><time>2026-04-19T11:10:19.206Z</time></trkpt><trkpt lat="44.4757626" lon="7.3670851"><ele>715.0</ele><time>2026-04-19T11:10:21.207Z</time></trkpt><trkpt lat="44.4756899" lon="7.3670975"><ele>715.0</ele><time>2026-04-19T11:10:23.206Z</time></trkpt><trkpt lat="44.4756016" lon="7.3671456"><ele>715.0</ele><time>2026-04-19T11:10:26.207Z</time></trkpt><trkpt lat="44.475545" lon="7.3671873"><ele>715.0</ele><time>2026-04-19T11:10:28.206Z</time></trkpt><trkpt lat="44.4754661" lon="7.367258"><ele>715.0</ele><time>2026-04-19T11:10:31.207Z</time></trkpt><trkpt lat="44.475396" lon="7.3672836"><ele>715.0</ele><time>2026-04-19T11:10:33.206Z</time></trkpt><trkpt lat="44.4753101" lon="7.367315"><ele>713.6</ele><time>2026-04-19T11:10:36.208Z</time></trkpt><trkpt lat="44.4751875" lon="7.3673231"><ele>712.2</ele><time>2026-04-19T11:10:38.206Z</time></trkpt><trkpt lat="44.4750921" lon="7.3672991"><ele>710.8</ele><time>2026-04-19T11:10:40.206Z</time></trkpt><trkpt lat="44.475021" lon="7.3672764"><ele>709.4</ele><time>2026-04-19T11:10:42.207Z</time></trkpt><trkpt lat="44.4749396" lon="7.3672328"><ele>708.0</ele><time>2026-04-19T11:10:44.206Z</time></trkpt><trkpt lat="44.4748687" lon="7.3671776"><ele>708.0</ele><time>2026-04-19T11:10:46.207Z</time></trkpt><trkpt lat="44.4747912" lon="7.3671176"><ele>708.0</ele><time>2026-04-19T11:10:48.207Z</time></trkpt><trkpt lat="44.474709" lon="7.3670635"><ele>708.0</ele><time>2026-04-19T11:10:50.207Z</time></trkpt><trkpt lat="44.4746316" lon="7.367017"><ele>708.0</ele><time>2026-04-19T11:10:52.207Z</time></trkpt><trkpt lat="44.4745578" lon="7.3669744"><ele>708.0</ele><time>2026-04-19T11:10:54.206Z</time></trkpt><trkpt lat="44.4744692" lon="7.3669287"><ele>708.0</ele><time>2026-04-19T11:10:56.205Z</time></trkpt><trkpt lat="44.4743899" lon="7.366883"><ele>709.1666666666666</ele><time>2026-04-19T11:10:58.205Z</time></trkpt><trkpt lat="44.4743108" lon="7.3668297"><ele>710.3333333333334</ele><time>2026-04-19T11:11:01.206Z</time></trkpt><trkpt lat="44.4742467" lon="7.366783"><ele>711.5</ele><time>2026-04-19T11:11:03.205Z</time></trkpt><trkpt lat="44.4741792" lon="7.3667229"><ele>712.6666666666667</ele><time>2026-04-19T11:11:05.205Z</time></trkpt><trkpt lat="44.4740923" lon="7.3666689"><ele>713.8333333333334</ele><time>2026-04-19T11:11:07.205Z</time></trkpt><trkpt lat="44.4740361" lon="7.3666243"><ele>715.0</ele><time>2026-04-19T11:11:08.205Z</time></trkpt><trkpt lat="44.4739329" lon="7.3665316"><ele>715.0</ele><time>2026-04-19T11:11:10.206Z</time></trkpt><trkpt lat="44.4738553" lon="7.3664404"><ele>715.0</ele><time>2026-04-19T11:11:12.205Z</time></trkpt><trkpt lat="44.4738022" lon="7.3663691"><ele>715.0</ele><time>2026-04-19T11:11:13.206Z</time></trkpt><trkpt lat="44.4737327" lon="7.3662272"><ele>715.0</ele><time>2026-04-19T11:11:15.206Z</time></trkpt><trkpt lat="44.4736746" lon="7.3660891"><ele>715.0</ele><time>2026-04-19T11:11:17.206Z</time></trkpt><trkpt lat="44.4736055" lon="7.3659887"><ele>712.6666666666667</ele><time>2026-04-19T11:11:19.205Z</time></trkpt><trkpt lat="44.4735356" lon="7.3659218"><ele>710.3333333333334</ele><time>2026-04-19T11:11:21.205Z</time></trkpt><trkpt lat="44.4734588" lon="7.3658647"><ele>708.0</ele><time>2026-04-19T11:11:23.205Z</time></trkpt><trkpt lat="44.4733879" lon="7.3658346"><ele>705.6666666666666</ele><time>2026-04-19T11:11:25.206Z</time></trkpt><trkpt lat="44.473313" lon="7.3658056"><ele>703.3333333333333</ele><time>2026-04-19T11:11:27.207Z</time></trkpt><trkpt lat="44.4732389" lon="7.3657791"><ele>701.0</ele><time>2026-04-19T11:11:29.205Z</time></trkpt><trkpt lat="44.4731714" lon="7.36577"><ele>701.0</ele><time>2026-04-19T11:11:31.206Z</time></trkpt><trkpt lat="44.4731083" lon="7.3658189"><ele>701.0</ele><time>2026-04-19T11:11:33.206Z</time></trkpt><trkpt lat="44.4730421" lon="7.3659334"><ele>701.0</ele><time>2026-04-19T11:11:35.206Z</time></trkpt><trkpt lat="44.472997" lon="7.3660028"><ele>701.0</ele><time>2026-04-19T11:11:36.205Z</time></trkpt><trkpt lat="44.4729436" lon="7.3660698"><ele>701.0</ele><time>2026-04-19T11:11:37.205Z</time></trkpt><trkpt lat="44.4728896" lon="7.3661404"><ele>701.0</ele><time>2026-04-19T11:11:38.205Z</time></trkpt><trkpt lat="44.4728364" lon="7.3662002"><ele>698.25</ele><time>2026-04-19T11:11:39.205Z</time></trkpt><trkpt lat="44.4727438" lon="7.3663099"><ele>695.5</ele><time>2026-04-19T11:11:41.205Z</time></trkpt><trkpt lat="44.472632" lon="7.3663728"><ele>692.75</ele><time>2026-04-19T11:11:43.205Z</time></trkpt><trkpt lat="44.472511" lon="7.3663691"><ele>690.0</ele><time>2026-04-19T11:11:45.206Z</time></trkpt><trkpt lat="44.4724038" lon="7.3662933"><ele>690.0</ele><time>2026-04-19T11:11:47.205Z</time></trkpt><trkpt lat="44.4723549" lon="7.3662341"><ele>690.0</ele><time>2026-04-19T11:11:48.207Z</time></trkpt><trkpt lat="44.4723091" lon="7.3661678"><ele>690.0</ele><time>2026-04-19T11:11:49.207Z</time></trkpt><trkpt lat="44.4722706" lon="7.3660839"><ele>690.0</ele><time>2026-04-19T11:11:50.205Z</time></trkpt><trkpt lat="44.4722157" lon="7.3659419"><ele>690.0</ele><time>2026-04-19T11:11:52.205Z</time></trkpt><trkpt lat="44.4721855" lon="7.3658549"><ele>690.0</ele><time>2026-04-19T11:11:53.205Z</time></trkpt><trkpt lat="44.472152" lon="7.3657643"><ele>690.0</ele><time>2026-04-19T11:11:54.205Z</time></trkpt><trkpt lat="44.4721248" lon="7.36568"><ele>690.0</ele><time>2026-04-19T11:11:55.205Z</time></trkpt><trkpt lat="44.472096" lon="7.3655962"><ele>690.0</ele><time>2026-04-19T11:11:56.206Z</time></trkpt><trkpt lat="44.4720515" lon="7.3654411"><ele>690.0</ele><time>2026-04-19T11:11:58.205Z</time></trkpt><trkpt lat="44.4720162" lon="7.3653598"><ele>690.0</ele><time>2026-04-19T11:11:59.206Z</time></trkpt><trkpt lat="44.4719728" lon="7.365219"><ele>690.0</ele><time>2026-04-19T11:12:01.206Z</time></trkpt><trkpt lat="44.4719369" lon="7.3651072"><ele>689.0</ele><time>2026-04-19T11:12:03.206Z</time></trkpt><trkpt lat="44.471852" lon="7.3650094"><ele>688.0</ele><time>2026-04-19T11:12:05.205Z</time></trkpt><trkpt lat="44.4717427" lon="7.3649512"><ele>687.0</ele><time>2026-04-19T11:12:07.206Z</time></trkpt><trkpt lat="44.4716714" lon="7.3649185"><ele>686.0</ele><time>2026-04-19T11:12:08.206Z</time></trkpt><trkpt lat="44.4715338" lon="7.3649281"><ele>685.0</ele><time>2026-04-19T11:12:10.206Z</time></trkpt><trkpt lat="44.4714617" lon="7.3649475"><ele>685.0</ele><time>2026-04-19T11:12:11.205Z</time></trkpt><trkpt lat="44.4713981" lon="7.364959"><ele>685.0</ele><time>2026-04-19T11:12:12.206Z</time></trkpt><trkpt lat="44.471324" lon="7.3649671"><ele>685.0</ele><time>2026-04-19T11:12:13.206Z</time></trkpt><trkpt lat="44.4712505" lon="7.364975"><ele>685.0</ele><time>2026-04-19T11:12:14.205Z</time></trkpt><trkpt lat="44.4711792" lon="7.3649966"><ele>685.0</ele><time>2026-04-19T11:12:15.206Z</time></trkpt><trkpt lat="44.4711103" lon="7.3650149"><ele>685.0</ele><time>2026-04-19T11:12:16.205Z</time></trkpt><trkpt lat="44.4710443" lon="7.3650277"><ele>685.0</ele><time>2026-04-19T11:12:17.207Z</time></trkpt><trkpt lat="44.4709273" lon="7.3650566"><ele>682.2</ele><time>2026-04-19T11:12:19.206Z</time></trkpt><trkpt lat="44.4708413" lon="7.3650706"><ele>679.4</ele><time>2026-04-19T11:12:21.205Z</time></trkpt><trkpt lat="44.4707618" lon="7.3650457"><ele>676.5999999999999</ele><time>2026-04-19T11:12:23.207Z</time></trkpt><trkpt lat="44.4706825" lon="7.3649273"><ele>673.8</ele><time>2026-04-19T11:12:25.206Z</time></trkpt><trkpt lat="44.4706303" lon="7.3648098"><ele>671.0</ele><time>2026-04-19T11:12:27.205Z</time></trkpt><trkpt lat="44.4705983" lon="7.3646732"><ele>669.6666666666666</ele><time>2026-04-19T11:12:29.205Z</time></trkpt><trkpt lat="44.4706028" lon="7.3644794"><ele>668.3333333333333</ele><time>2026-04-19T11:12:31.206Z</time></trkpt><trkpt lat="44.4706129" lon="7.3643612"><ele>667.0</ele><time>2026-04-19T11:12:32.205Z</time></trkpt><trkpt lat="44.4706309" lon="7.3642529"><ele>665.6666666666666</ele><time>2026-04-19T11:12:33.207Z</time></trkpt><trkpt lat="44.4706452" lon="7.3641512"><ele>664.3333333333334</ele><time>2026-04-19T11:12:34.206Z</time></trkpt><trkpt lat="44.4706495" lon="7.3640565"><ele>663.0</ele><time>2026-04-19T11:12:35.206Z</time></trkpt><trkpt lat="44.4706313" lon="7.3639155"><ele>659.5999999999999</ele><time>2026-04-19T11:12:37.205Z</time></trkpt><trkpt lat="44.470658" lon="7.3637777"><ele>656.1999999999999</ele><time>2026-04-19T11:12:39.206Z</time></trkpt><trkpt lat="44.4707614" lon="7.3636925"><ele>652.8</ele><time>2026-04-19T11:12:41.205Z</time></trkpt><trkpt lat="44.4708279" lon="7.3636804"><ele>649.4</ele><time>2026-04-19T11:12:42.206Z</time></trkpt><trkpt lat="44.4709617" lon="7.3636872"><ele>646.0</ele><time>2026-04-19T11:12:44.205Z</time></trkpt><trkpt lat="44.4710334" lon="7.3637195"><ele>646.0000000000001</ele><time>2026-04-19T11:12:45.206Z</time></trkpt><trkpt lat="44.4711046" lon="7.3637466"><ele>646.0</ele><time>2026-04-19T11:12:46.205Z</time></trkpt><trkpt lat="44.4711721" lon="7.3637562"><ele>646.0</ele><time>2026-04-19T11:12:47.205Z</time></trkpt><trkpt lat="44.4712396" lon="7.3637474"><ele>646.0</ele><time>2026-04-19T11:12:48.205Z</time></trkpt><trkpt lat="44.4713071" lon="7.3637349"><ele>646.0</ele><time>2026-04-19T11:12:49.206Z</time></trkpt><trkpt lat="44.4713757" lon="7.3637111"><ele>646.0000000000001</ele><time>2026-04-19T11:12:50.206Z</time></trkpt><trkpt lat="44.47144" lon="7.3636738"><ele>646.0</ele><time>2026-04-19T11:12:51.205Z</time></trkpt><trkpt lat="44.4715004" lon="7.3636373"><ele>645.5999999999999</ele><time>2026-04-19T11:12:52.205Z</time></trkpt><trkpt lat="44.4715859" lon="7.3635799"><ele>645.2</ele><time>2026-04-19T11:12:54.206Z</time></trkpt><trkpt lat="44.4716721" lon="7.3635341"><ele>644.8</ele><time>2026-04-19T11:12:56.205Z</time></trkpt><trkpt lat="44.471797" lon="7.3635043"><ele>644.4000000000001</ele><time>2026-04-19T11:12:58.206Z</time></trkpt><trkpt lat="44.4718639" lon="7.3634943"><ele>644.0</ele><time>2026-04-19T11:12:59.206Z</time></trkpt><trkpt lat="44.4719898" lon="7.3634782"><ele>644.0</ele><time>2026-04-19T11:13:01.205Z</time></trkpt><trkpt lat="44.4721" lon="7.3634676"><ele>644.0</ele><time>2026-04-19T11:13:03.206Z</time></trkpt><trkpt lat="44.4721285" lon="7.3633863"><ele>644.0</ele><time>2026-04-19T11:13:06.205Z</time></trkpt><trkpt lat="44.4720507" lon="7.3633135"><ele>644.0</ele><time>2026-04-19T11:13:08.206Z</time></trkpt><trkpt lat="44.4719938" lon="7.3632663"><ele>644.0</ele><time>2026-04-19T11:13:09.205Z</time></trkpt><trkpt lat="44.471937" lon="7.3632245"><ele>644.0</ele><time>2026-04-19T11:13:10.206Z</time></trkpt><trkpt lat="44.4718537" lon="7.3631791"><ele>644.0</ele><time>2026-04-19T11:13:11.205Z</time></trkpt><trkpt lat="44.4717823" lon="7.3631323"><ele>644.0</ele><time>2026-04-19T11:13:12.205Z</time></trkpt><trkpt lat="44.4717125" lon="7.363084"><ele>644.0</ele><time>2026-04-19T11:13:13.206Z</time></trkpt><trkpt lat="44.4716268" lon="7.3630274"><ele>644.0</ele><time>2026-04-19T11:13:14.205Z</time></trkpt><trkpt lat="44.4715456" lon="7.3629829"><ele>644.0</ele><time>2026-04-19T11:13:15.205Z</time></trkpt><trkpt lat="44.4714601" lon="7.3629313"><ele>644.0</ele><time>2026-04-19T11:13:16.206Z</time></trkpt><trkpt lat="44.4713687" lon="7.3628848"><ele>641.0</ele><time>2026-04-19T11:13:17.205Z</time></trkpt><trkpt lat="44.4712556" lon="7.3628676"><ele>638.0</ele><time>2026-04-19T11:13:18.206Z</time></trkpt><trkpt lat="44.4711483" lon="7.3628386"><ele>635.0</ele><time>2026-04-19T11:13:19.205Z</time></trkpt><trkpt lat="44.4710469" lon="7.3628256"><ele>632.0</ele><time>2026-04-19T11:13:20.206Z</time></trkpt><trkpt lat="44.4709532" lon="7.3628058"><ele>629.0</ele><time>2026-04-19T11:13:21.205Z</time></trkpt><trkpt lat="44.4708442" lon="7.3627926"><ele>629.0</ele><time>2026-04-19T11:13:22.205Z</time></trkpt><trkpt lat="44.4707326" lon="7.3627781"><ele>629.0</ele><time>2026-04-19T11:13:23.206Z</time></trkpt><trkpt lat="44.4706241" lon="7.3627898"><ele>629.0</ele><time>2026-04-19T11:13:24.207Z</time></trkpt><trkpt lat="44.4705193" lon="7.3628132"><ele>629.0</ele><time>2026-04-19T11:13:25.206Z</time></trkpt><trkpt lat="44.4704124" lon="7.3628257"><ele>629.0</ele><time>2026-04-19T11:13:26.207Z</time></trkpt><trkpt lat="44.4703024" lon="7.3628412"><ele>626.8</ele><time>2026-04-19T11:13:27.206Z</time></trkpt><trkpt lat="44.4702037" lon="7.3628686"><ele>624.5999999999999</ele><time>2026-04-19T11:13:28.205Z</time></trkpt><trkpt lat="44.470113" lon="7.3628762"><ele>622.4</ele><time>2026-04-19T11:13:29.205Z</time></trkpt><trkpt lat="44.4700288" lon="7.3628823"><ele>620.1999999999999</ele><time>2026-04-19T11:13:30.205Z</time></trkpt><trkpt lat="44.4699583" lon="7.362891"><ele>618.0</ele><time>2026-04-19T11:13:31.205Z</time></trkpt><trkpt lat="44.4698406" lon="7.3628866"><ele>618.0</ele><time>2026-04-19T11:13:33.206Z</time></trkpt><trkpt lat="44.4697745" lon="7.362925"><ele>618.0</ele><time>2026-04-19T11:13:34.207Z</time></trkpt><trkpt lat="44.4697167" lon="7.362964"><ele>618.0</ele><time>2026-04-19T11:13:35.205Z</time></trkpt><trkpt lat="44.4696135" lon="7.3630414"><ele>618.0</ele><time>2026-04-19T11:13:37.207Z</time></trkpt><trkpt lat="44.4695421" lon="7.3631698"><ele>618.0</ele><time>2026-04-19T11:13:39.207Z</time></trkpt><trkpt lat="44.4694826" lon="7.3632706"><ele>618.0</ele><time>2026-04-19T11:13:41.205Z</time></trkpt><trkpt lat="44.4694214" lon="7.3633384"><ele>618.0</ele><time>2026-04-19T11:13:43.207Z</time></trkpt><trkpt lat="44.4693657" lon="7.3633914"><ele>618.0</ele><time>2026-04-19T11:13:45.205Z</time></trkpt><trkpt lat="44.4692881" lon="7.3634504"><ele>618.0</ele><time>2026-04-19T11:13:48.205Z</time></trkpt><trkpt lat="44.4692035" lon="7.3634503"><ele>618.0</ele><time>2026-04-19T11:13:50.205Z</time></trkpt><trkpt lat="44.4691144" lon="7.3634112"><ele>618.0</ele><time>2026-04-19T11:13:52.205Z</time></trkpt><trkpt lat="44.4690319" lon="7.3633629"><ele>618.0</ele><time>2026-04-19T11:13:54.205Z</time></trkpt><trkpt lat="44.468948" lon="7.3633409"><ele>618.0</ele><time>2026-04-19T11:13:56.206Z</time></trkpt><trkpt lat="44.4688673" lon="7.363325"><ele>618.0</ele><time>2026-04-19T11:13:58.205Z</time></trkpt><trkpt lat="44.468781" lon="7.3633228"><ele>618.0</ele><time>2026-04-19T11:14:00.205Z</time></trkpt><trkpt lat="44.4686985" lon="7.363311"><ele>618.0</ele><time>2026-04-19T11:14:02.205Z</time></trkpt><trkpt lat="44.4686239" lon="7.3633002"><ele>618.0</ele><time>2026-04-19T11:14:04.205Z</time></trkpt><trkpt lat="44.4685537" lon="7.3632616"><ele>618.4285714285714</ele><time>2026-04-19T11:14:06.205Z</time></trkpt><trkpt lat="44.4684897" lon="7.3632144"><ele>618.8571428571429</ele><time>2026-04-19T11:14:08.205Z</time></trkpt><trkpt lat="44.4684238" lon="7.3631725"><ele>619.2857142857142</ele><time>2026-04-19T11:14:10.206Z</time></trkpt><trkpt lat="44.4683564" lon="7.3631371"><ele>619.7142857142858</ele><time>2026-04-19T11:14:12.207Z</time></trkpt><trkpt lat="44.4682928" lon="7.3630923"><ele>620.1428571428571</ele><time>2026-04-19T11:14:14.205Z</time></trkpt><trkpt lat="44.4682328" lon="7.3630516"><ele>620.5714285714286</ele><time>2026-04-19T11:14:16.206Z</time></trkpt><trkpt lat="44.4681547" lon="7.3629846"><ele>621.0</ele><time>2026-04-19T11:14:19.205Z</time></trkpt><trkpt lat="44.4680787" lon="7.3629126"><ele>621.0</ele><time>2026-04-19T11:14:22.205Z</time></trkpt><trkpt lat="44.4679982" lon="7.3629337"><ele>621.0</ele><time>2026-04-19T11:14:25.205Z</time></trkpt><trkpt lat="44.4679693" lon="7.3630549"><ele>621.0</ele><time>2026-04-19T11:14:28.206Z</time></trkpt><trkpt lat="44.4679556" lon="7.3631799"><ele>621.0</ele><time>2026-04-19T11:14:30.206Z</time></trkpt><trkpt lat="44.4679296" lon="7.3633001"><ele>621.0</ele><time>2026-04-19T11:14:32.205Z</time></trkpt><trkpt lat="44.4679076" lon="7.3634202"><ele>621.0</ele><time>2026-04-19T11:14:34.206Z</time></trkpt><trkpt lat="44.4678904" lon="7.3635302"><ele>621.0</ele><time>2026-04-19T11:14:36.206Z</time></trkpt><trkpt lat="44.4678645" lon="7.3636453"><ele>621.0</ele><time>2026-04-19T11:14:38.205Z</time></trkpt><trkpt lat="44.4678314" lon="7.3637597"><ele>621.0</ele><time>2026-04-19T11:14:40.207Z</time></trkpt><trkpt lat="44.4677693" lon="7.3638457"><ele>621.0</ele><time>2026-04-19T11:14:42.205Z</time></trkpt><trkpt lat="44.467711" lon="7.3639026"><ele>621.0</ele><time>2026-04-19T11:14:44.205Z</time></trkpt><trkpt lat="44.4676551" lon="7.3639889"><ele>621.0</ele><time>2026-04-19T11:14:46.205Z</time></trkpt><trkpt lat="44.4676039" lon="7.3640827"><ele>621.0</ele><time>2026-04-19T11:14:48.205Z</time></trkpt><trkpt lat="44.4675945" lon="7.3642104"><ele>621.0</ele><time>2026-04-19T11:14:50.205Z</time></trkpt><trkpt lat="44.4675959" lon="7.3643381"><ele>621.0</ele><time>2026-04-19T11:14:52.207Z</time></trkpt><trkpt lat="44.4675841" lon="7.3644647"><ele>621.0</ele><time>2026-04-19T11:14:54.205Z</time></trkpt><trkpt lat="44.4675702" lon="7.3645956"><ele>621.0</ele><time>2026-04-19T11:14:56.205Z</time></trkpt><trkpt lat="44.467537" lon="7.3647189"><ele>620.5</ele><time>2026-04-19T11:14:58.205Z</time></trkpt><trkpt lat="44.4674618" lon="7.3648019"><ele>620.0</ele><time>2026-04-19T11:15:00.205Z</time></trkpt><trkpt lat="44.4673876" lon="7.3648845"><ele>619.5</ele><time>2026-04-19T11:15:02.206Z</time></trkpt><trkpt lat="44.467303" lon="7.3649356"><ele>619.0</ele><time>2026-04-19T11:15:04.205Z</time></trkpt><trkpt lat="44.4672201" lon="7.3649449"><ele>618.5</ele><time>2026-04-19T11:15:06.206Z</time></trkpt><trkpt lat="44.4671464" lon="7.3649444"><ele>618.0</ele><time>2026-04-19T11:15:08.206Z</time></trkpt><trkpt lat="44.4670761" lon="7.3649414"><ele>618.0</ele><time>2026-04-19T11:15:10.206Z</time></trkpt><trkpt lat="44.4670066" lon="7.3649402"><ele>618.0</ele><time>2026-04-19T11:15:12.205Z</time></trkpt><trkpt lat="44.4669357" lon="7.3649394"><ele>618.0</ele><time>2026-04-19T11:15:14.207Z</time></trkpt><trkpt lat="44.4668657" lon="7.3649378"><ele>618.0</ele><time>2026-04-19T11:15:16.205Z</time></trkpt><trkpt lat="44.466779" lon="7.3649583"><ele>618.0</ele><time>2026-04-19T11:15:19.205Z</time></trkpt><trkpt lat="44.4667688" lon="7.3650863"><ele>618.0</ele><time>2026-04-19T11:15:22.205Z</time></trkpt><trkpt lat="44.4667798" lon="7.3651902"><ele>618.0</ele><time>2026-04-19T11:15:24.205Z</time></trkpt><trkpt lat="44.4667945" lon="7.3653054"><ele>618.0</ele><time>2026-04-19T11:15:26.205Z</time></trkpt><trkpt lat="44.4668004" lon="7.3654275"><ele>618.0</ele><time>2026-04-19T11:15:28.205Z</time></trkpt><trkpt lat="44.4667729" lon="7.3655276"><ele>618.0</ele><time>2026-04-19T11:15:30.206Z</time></trkpt><trkpt lat="44.4666985" lon="7.3656011"><ele>618.0</ele><time>2026-04-19T11:15:33.205Z</time></trkpt><trkpt lat="44.4666297" lon="7.3656258"><ele>618.0</ele><time>2026-04-19T11:15:35.206Z</time></trkpt><trkpt lat="44.4665512" lon="7.3655973"><ele>618.0</ele><time>2026-04-19T11:15:37.206Z</time></trkpt><trkpt lat="44.4664878" lon="7.3655272"><ele>618.0</ele><time>2026-04-19T11:15:39.207Z</time></trkpt><trkpt lat="44.4664315" lon="7.3654344"><ele>618.0</ele><time>2026-04-19T11:15:41.205Z</time></trkpt><trkpt lat="44.4663666" lon="7.3653394"><ele>618.0</ele><time>2026-04-19T11:15:43.205Z</time></trkpt><trkpt lat="44.4663203" lon="7.3652405"><ele>618.0</ele><time>2026-04-19T11:15:45.205Z</time></trkpt><trkpt lat="44.4662822" lon="7.365157"><ele>618.0</ele><time>2026-04-19T11:15:47.206Z</time></trkpt><trkpt lat="44.4662431" lon="7.3650579"><ele>616.5</ele><time>2026-04-19T11:15:49.206Z</time></trkpt><trkpt lat="44.4661969" lon="7.3649274"><ele>615.0</ele><time>2026-04-19T11:15:51.206Z</time></trkpt><trkpt lat="44.4661597" lon="7.3648391"><ele>613.5</ele><time>2026-04-19T11:15:53.206Z</time></trkpt><trkpt lat="44.4661217" lon="7.3647494"><ele>612.0</ele><time>2026-04-19T11:15:56.205Z</time></trkpt><trkpt lat="44.4660445" lon="7.3646875"><ele>610.5</ele><time>2026-04-19T11:15:59.205Z</time></trkpt><trkpt lat="44.4659773" lon="7.3646684"><ele>609.0</ele><time>2026-04-19T11:16:01.206Z</time></trkpt><trkpt lat="44.4658931" lon="7.3646531"><ele>609.0</ele><time>2026-04-19T11:16:03.206Z</time></trkpt><trkpt lat="44.4657919" lon="7.3646836"><ele>609.0</ele><time>2026-04-19T11:16:05.205Z</time></trkpt><trkpt lat="44.4657107" lon="7.3647677"><ele>609.0</ele><time>2026-04-19T11:16:07.205Z</time></trkpt><trkpt lat="44.4656582" lon="7.3648341"><ele>609.0</ele><time>2026-04-19T11:16:09.206Z</time></trkpt><trkpt lat="44.465607" lon="7.3648964"><ele>609.0</ele><time>2026-04-19T11:16:11.205Z</time></trkpt><trkpt lat="44.4655482" lon="7.3649521"><ele>609.0</ele><time>2026-04-19T11:16:15.206Z</time></trkpt><trkpt lat="44.4655008" lon="7.3650305"><ele>607.4</ele><time>2026-04-19T11:16:19.205Z</time></trkpt><trkpt lat="44.4654101" lon="7.3650902"><ele>605.8</ele><time>2026-04-19T11:16:22.205Z</time></trkpt><trkpt lat="44.4653199" lon="7.3650324"><ele>604.2</ele><time>2026-04-19T11:16:24.205Z</time></trkpt><trkpt lat="44.4652321" lon="7.3649866"><ele>602.6</ele><time>2026-04-19T11:16:26.205Z</time></trkpt><trkpt lat="44.4651442" lon="7.3649363"><ele>601.0</ele><time>2026-04-19T11:16:28.205Z</time></trkpt><trkpt lat="44.4650621" lon="7.3648952"><ele>601.0</ele><time>2026-04-19T11:16:30.205Z</time></trkpt><trkpt lat="44.4649846" lon="7.3648567"><ele>601.0</ele><time>2026-04-19T11:16:32.206Z</time></trkpt><trkpt lat="44.4649232" lon="7.3648187"><ele>601.0</ele><time>2026-04-19T11:16:34.205Z</time></trkpt><trkpt lat="44.4648305" lon="7.3647984"><ele>601.0</ele><time>2026-04-19T11:16:37.205Z</time></trkpt><trkpt lat="44.4647689" lon="7.3648344"><ele>601.0</ele><time>2026-04-19T11:16:39.205Z</time></trkpt><trkpt lat="44.4647035" lon="7.3648583"><ele>601.0</ele><time>2026-04-19T11:16:41.206Z</time></trkpt><trkpt lat="44.4646371" lon="7.3648866"><ele>601.0</ele><time>2026-04-19T11:16:43.205Z</time></trkpt><trkpt lat="44.4645665" lon="7.3649076"><ele>602.8333333333334</ele><time>2026-04-19T11:16:45.206Z</time></trkpt><trkpt lat="44.4644979" lon="7.3649153"><ele>604.6666666666667</ele><time>2026-04-19T11:16:47.205Z</time></trkpt><trkpt lat="44.4644331" lon="7.364922"><ele>606.5</ele><time>2026-04-19T11:16:49.206Z</time></trkpt><trkpt lat="44.4643405" lon="7.3649353"><ele>608.3333333333334</ele><time>2026-04-19T11:16:52.205Z</time></trkpt><trkpt lat="44.4642768" lon="7.3648517"><ele>610.1666666666666</ele><time>2026-04-19T11:16:55.205Z</time></trkpt><trkpt lat="44.4642825" lon="7.3647447"><ele>612.0</ele><time>2026-04-19T11:16:57.206Z</time></trkpt><trkpt lat="44.4642893" lon="7.3646338"><ele>612.1666666666666</ele><time>2026-04-19T11:16:59.206Z</time></trkpt><trkpt lat="44.4642976" lon="7.3645312"><ele>612.3333333333334</ele><time>2026-04-19T11:17:01.205Z</time></trkpt><trkpt lat="44.464309" lon="7.3644325"><ele>612.5</ele><time>2026-04-19T11:17:03.206Z</time></trkpt><trkpt lat="44.4643147" lon="7.3643266"><ele>612.6666666666667</ele><time>2026-04-19T11:17:05.205Z</time></trkpt><trkpt lat="44.4643054" lon="7.3642181"><ele>612.8333333333334</ele><time>2026-04-19T11:17:07.205Z</time></trkpt><trkpt lat="44.4643013" lon="7.3641039"><ele>613.0</ele><time>2026-04-19T11:17:09.205Z</time></trkpt><trkpt lat="44.4642888" lon="7.3639912"><ele>613.0</ele><time>2026-04-19T11:17:11.205Z</time></trkpt><trkpt lat="44.4642767" lon="7.3638831"><ele>613.0</ele><time>2026-04-19T11:17:13.205Z</time></trkpt><trkpt lat="44.4642685" lon="7.3637766"><ele>613.0</ele><time>2026-04-19T11:17:15.206Z</time></trkpt><trkpt lat="44.4642594" lon="7.3636635"><ele>613.0</ele><time>2026-04-19T11:17:17.206Z</time></trkpt><trkpt lat="44.4642524" lon="7.3635484"><ele>613.0</ele><time>2026-04-19T11:17:19.205Z</time></trkpt><trkpt lat="44.46423" lon="7.363444"><ele>613.0</ele><time>2026-04-19T11:17:21.206Z</time></trkpt><trkpt lat="44.4642163" lon="7.3633519"><ele>613.0</ele><time>2026-04-19T11:17:23.205Z</time></trkpt><trkpt lat="44.4642021" lon="7.3632225"><ele>613.0</ele><time>2026-04-19T11:17:26.205Z</time></trkpt><trkpt lat="44.4641879" lon="7.3631181"><ele>613.0</ele><time>2026-04-19T11:17:28.207Z</time></trkpt><trkpt lat="44.4641695" lon="7.3630249"><ele>613.0</ele><time>2026-04-19T11:17:30.205Z</time></trkpt><trkpt lat="44.464176" lon="7.3629275"><ele>613.0</ele><time>2026-04-19T11:17:32.206Z</time></trkpt><trkpt lat="44.4641897" lon="7.3628308"><ele>613.0</ele><time>2026-04-19T11:17:34.206Z</time></trkpt><trkpt lat="44.4641903" lon="7.3627246"><ele>613.0</ele><time>2026-04-19T11:17:36.205Z</time></trkpt><trkpt lat="44.4641985" lon="7.3626175"><ele>613.0</ele><time>2026-04-19T11:17:38.206Z</time></trkpt><trkpt lat="44.4641996" lon="7.3625032"><ele>613.0</ele><time>2026-04-19T11:17:40.205Z</time></trkpt><trkpt lat="44.4642053" lon="7.3623923"><ele>613.0</ele><time>2026-04-19T11:17:42.206Z</time></trkpt><trkpt lat="44.4642118" lon="7.3622758"><ele>613.0</ele><time>2026-04-19T11:17:44.206Z</time></trkpt><trkpt lat="44.4642176" lon="7.3621614"><ele>613.0</ele><time>2026-04-19T11:17:46.146Z</time></trkpt><trkpt lat="44.4642325" lon="7.3620399"><ele>613.0</ele><time>2026-04-19T11:17:48.205Z</time></trkpt><trkpt lat="44.4642553" lon="7.3619239"><ele>613.0</ele><time>2026-04-19T11:17:50.206Z</time></trkpt><trkpt lat="44.4642735" lon="7.3618055"><ele>613.0</ele><time>2026-04-19T11:17:52.205Z</time></trkpt><trkpt lat="44.4642841" lon="7.3616846"><ele>613.0</ele><time>2026-04-19T11:17:54.205Z</time></trkpt><trkpt lat="44.4642874" lon="7.3615739"><ele>613.0</ele><time>2026-04-19T11:17:56.205Z</time></trkpt><trkpt lat="44.4642626" lon="7.3614913"><ele>613.0</ele><time>2026-04-19T11:17:58.205Z</time></trkpt><trkpt lat="44.4641907" lon="7.3615385"><ele>613.0</ele><time>2026-04-19T11:18:00.205Z</time></trkpt><trkpt lat="44.4641144" lon="7.3615685"><ele>613.0</ele><time>2026-04-19T11:18:02.205Z</time></trkpt><trkpt lat="44.4640365" lon="7.3615919"><ele>613.0</ele><time>2026-04-19T11:18:04.205Z</time></trkpt><trkpt lat="44.463961" lon="7.3616086"><ele>613.0</ele><time>2026-04-19T11:18:06.204Z</time></trkpt><trkpt lat="44.4638899" lon="7.3616207"><ele>613.0</ele><time>2026-04-19T11:18:08.204Z</time></trkpt><trkpt lat="44.4638206" lon="7.3616414"><ele>613.0</ele><time>2026-04-19T11:18:10.204Z</time></trkpt><trkpt lat="44.4637472" lon="7.3616675"><ele>613.1666666666667</ele><time>2026-04-19T11:18:12.205Z</time></trkpt><trkpt lat="44.4636745" lon="7.3616978"><ele>613.3333333333334</ele><time>2026-04-19T11:18:14.205Z</time></trkpt><trkpt lat="44.4635981" lon="7.3617165"><ele>613.5</ele><time>2026-04-19T11:18:16.204Z</time></trkpt><trkpt lat="44.463519" lon="7.3617407"><ele>613.6666666666666</ele><time>2026-04-19T11:18:18.204Z</time></trkpt><trkpt lat="44.4634405" lon="7.3617682"><ele>613.8333333333333</ele><time>2026-04-19T11:18:20.204Z</time></trkpt><trkpt lat="44.4633573" lon="7.3618049"><ele>614.0</ele><time>2026-04-19T11:18:22.204Z</time></trkpt><trkpt lat="44.4632684" lon="7.3618381"><ele>614.0</ele><time>2026-04-19T11:18:24.205Z</time></trkpt><trkpt lat="44.4631796" lon="7.3618788"><ele>614.0</ele><time>2026-04-19T11:18:26.204Z</time></trkpt><trkpt lat="44.4630971" lon="7.3619256"><ele>614.0</ele><time>2026-04-19T11:18:28.205Z</time></trkpt><trkpt lat="44.46303" lon="7.3619721"><ele>614.0</ele><time>2026-04-19T11:18:30.204Z</time></trkpt><trkpt lat="44.462968" lon="7.3620113"><ele>614.0</ele><time>2026-04-19T11:18:32.205Z</time></trkpt><trkpt lat="44.4629064" lon="7.3620579"><ele>614.0</ele><time>2026-04-19T11:18:35.205Z</time></trkpt><trkpt lat="44.4628915" lon="7.362176"><ele>614.7142857142857</ele><time>2026-04-19T11:18:38.205Z</time></trkpt><trkpt lat="44.4628917" lon="7.3622697"><ele>615.4285714285714</ele><time>2026-04-19T11:18:40.204Z</time></trkpt><trkpt lat="44.4628931" lon="7.3623653"><ele>616.1428571428571</ele><time>2026-04-19T11:18:42.205Z</time></trkpt><trkpt lat="44.4629033" lon="7.3624668"><ele>616.8571428571429</ele><time>2026-04-19T11:18:44.205Z</time></trkpt><trkpt lat="44.4629074" lon="7.3625716"><ele>617.5714285714286</ele><time>2026-04-19T11:18:46.205Z</time></trkpt><trkpt lat="44.4629158" lon="7.3626837"><ele>618.2857142857142</ele><time>2026-04-19T11:18:48.205Z</time></trkpt><trkpt lat="44.4629205" lon="7.3627973"><ele>619.0</ele><time>2026-04-19T11:18:50.205Z</time></trkpt><trkpt lat="44.4629199" lon="7.3629093"><ele>619.0</ele><time>2026-04-19T11:18:52.204Z</time></trkpt><trkpt lat="44.462904" lon="7.3630102"><ele>619.0</ele><time>2026-04-19T11:18:54.204Z</time></trkpt><trkpt lat="44.4628941" lon="7.3631025"><ele>619.0</ele><time>2026-04-19T11:18:56.205Z</time></trkpt><trkpt lat="44.4628974" lon="7.363224"><ele>619.0</ele><time>2026-04-19T11:18:59.205Z</time></trkpt><trkpt lat="44.4629052" lon="7.3633333"><ele>619.0</ele><time>2026-04-19T11:19:02.205Z</time></trkpt><trkpt lat="44.4629255" lon="7.3634544"><ele>619.0</ele><time>2026-04-19T11:19:05.205Z</time></trkpt><trkpt lat="44.4629451" lon="7.36354"><ele>618.3333333333334</ele><time>2026-04-19T11:19:07.205Z</time></trkpt><trkpt lat="44.4629646" lon="7.3636318"><ele>617.6666666666667</ele><time>2026-04-19T11:19:09.204Z</time></trkpt><trkpt lat="44.4629886" lon="7.3637282"><ele>617.0</ele><time>2026-04-19T11:19:11.206Z</time></trkpt><trkpt lat="44.4630135" lon="7.3638283"><ele>616.3333333333334</ele><time>2026-04-19T11:19:13.204Z</time></trkpt><trkpt lat="44.463039" lon="7.363933"><ele>615.6666666666666</ele><time>2026-04-19T11:19:15.204Z</time></trkpt><trkpt lat="44.4630596" lon="7.3640414"><ele>615.0</ele><time>2026-04-19T11:19:17.204Z</time></trkpt><trkpt lat="44.4630914" lon="7.3641462"><ele>615.0</ele><time>2026-04-19T11:19:19.204Z</time></trkpt><trkpt lat="44.4631194" lon="7.3642513"><ele>615.0</ele><time>2026-04-19T11:19:21.204Z</time></trkpt><trkpt lat="44.4631438" lon="7.364359"><ele>615.0</ele><time>2026-04-19T11:19:23.205Z</time></trkpt><trkpt lat="44.46317" lon="7.3644664"><ele>615.0</ele><time>2026-04-19T11:19:25.205Z</time></trkpt><trkpt lat="44.4631771" lon="7.3645649"><ele>615.0</ele><time>2026-04-19T11:19:27.204Z</time></trkpt><trkpt lat="44.4631048" lon="7.3646406"><ele>615.0</ele><time>2026-04-19T11:19:30.205Z</time></trkpt><trkpt lat="44.4630134" lon="7.3646768"><ele>615.5</ele><time>2026-04-19T11:19:33.205Z</time></trkpt><trkpt lat="44.4629418" lon="7.3646949"><ele>616.0</ele><time>2026-04-19T11:19:35.204Z</time></trkpt><trkpt lat="44.4628663" lon="7.3647123"><ele>616.5</ele><time>2026-04-19T11:19:37.204Z</time></trkpt><trkpt lat="44.4628078" lon="7.3647565"><ele>617.0</ele><time>2026-04-19T11:19:39.205Z</time></trkpt><trkpt lat="44.46278" lon="7.3648811"><ele>617.5</ele><time>2026-04-19T11:19:42.204Z</time></trkpt><trkpt lat="44.4627832" lon="7.3650094"><ele>618.0</ele><time>2026-04-19T11:19:45.205Z</time></trkpt><trkpt lat="44.4627847" lon="7.3651044"><ele>618.0</ele><time>2026-04-19T11:19:47.204Z</time></trkpt><trkpt lat="44.4627909" lon="7.3652082"><ele>618.0</ele><time>2026-04-19T11:19:49.205Z</time></trkpt><trkpt lat="44.4627979" lon="7.3653192"><ele>618.0</ele><time>2026-04-19T11:19:51.204Z</time></trkpt><trkpt lat="44.462803" lon="7.3654369"><ele>618.0</ele><time>2026-04-19T11:19:53.204Z</time></trkpt><trkpt lat="44.4628074" lon="7.3655504"><ele>618.0</ele><time>2026-04-19T11:19:55.205Z</time></trkpt><trkpt lat="44.4628089" lon="7.3656565"><ele>618.0</ele><time>2026-04-19T11:19:57.204Z</time></trkpt><trkpt lat="44.4628231" lon="7.3657584"><ele>618.0</ele><time>2026-04-19T11:19:59.204Z</time></trkpt><trkpt lat="44.4628274" lon="7.365855"><ele>618.0</ele><time>2026-04-19T11:20:01.205Z</time></trkpt><trkpt lat="44.4627519" lon="7.3659221"><ele>618.0</ele><time>2026-04-19T11:20:04.205Z</time></trkpt><trkpt lat="44.4626778" lon="7.3659374"><ele>618.0</ele><time>2026-04-19T11:20:06.204Z</time></trkpt><trkpt lat="44.4625969" lon="7.3659458"><ele>618.0</ele><time>2026-04-19T11:20:08.204Z</time></trkpt><trkpt lat="44.4625158" lon="7.3659481"><ele>618.0</ele><time>2026-04-19T11:20:10.205Z</time></trkpt><trkpt lat="44.4624368" lon="7.3659512"><ele>618.0</ele><time>2026-04-19T11:20:12.204Z</time></trkpt><trkpt lat="44.4623559" lon="7.365958"><ele>618.0</ele><time>2026-04-19T11:20:14.204Z</time></trkpt><trkpt lat="44.4622747" lon="7.365957"><ele>618.0</ele><time>2026-04-19T11:20:16.205Z</time></trkpt><trkpt lat="44.462191" lon="7.3659561"><ele>618.0</ele><time>2026-04-19T11:20:18.204Z</time></trkpt><trkpt lat="44.4621057" lon="7.3659599"><ele>618.0</ele><time>2026-04-19T11:20:20.204Z</time></trkpt><trkpt lat="44.4620218" lon="7.3659658"><ele>618.0</ele><time>2026-04-19T11:20:22.204Z</time></trkpt><trkpt lat="44.4619403" lon="7.365973"><ele>618.0</ele><time>2026-04-19T11:20:24.204Z</time></trkpt><trkpt lat="44.4618598" lon="7.3659788"><ele>618.0</ele><time>2026-04-19T11:20:26.205Z</time></trkpt><trkpt lat="44.4617785" lon="7.3659936"><ele>618.0</ele><time>2026-04-19T11:20:28.204Z</time></trkpt><trkpt lat="44.4616973" lon="7.3660066"><ele>618.0</ele><time>2026-04-19T11:20:30.205Z</time></trkpt><trkpt lat="44.4616166" lon="7.3660231"><ele>618.0</ele><time>2026-04-19T11:20:32.205Z</time></trkpt><trkpt lat="44.4615331" lon="7.3660402"><ele>618.0</ele><time>2026-04-19T11:20:34.204Z</time></trkpt><trkpt lat="44.461451" lon="7.3660598"><ele>618.0</ele><time>2026-04-19T11:20:36.204Z</time></trkpt><trkpt lat="44.4613774" lon="7.3660806"><ele>618.0</ele><time>2026-04-19T11:20:38.204Z</time></trkpt><trkpt lat="44.4612895" lon="7.3660952"><ele>618.0</ele><time>2026-04-19T11:20:41.204Z</time></trkpt><trkpt lat="44.4612106" lon="7.3661054"><ele>618.0</ele><time>2026-04-19T11:20:44.205Z</time></trkpt><trkpt lat="44.4611203" lon="7.3661388"><ele>618.0</ele><time>2026-04-19T11:20:47.205Z</time></trkpt><trkpt lat="44.4610546" lon="7.3661545"><ele>618.0</ele><time>2026-04-19T11:20:49.204Z</time></trkpt><trkpt lat="44.4609861" lon="7.3661741"><ele>617.7142857142858</ele><time>2026-04-19T11:20:51.204Z</time></trkpt><trkpt lat="44.4609161" lon="7.3661896"><ele>617.4285714285714</ele><time>2026-04-19T11:20:53.205Z</time></trkpt><trkpt lat="44.4608458" lon="7.3661979"><ele>617.1428571428571</ele><time>2026-04-19T11:20:55.205Z</time></trkpt><trkpt lat="44.4607749" lon="7.3662115"><ele>616.8571428571429</ele><time>2026-04-19T11:20:57.204Z</time></trkpt><trkpt lat="44.4607042" lon="7.3662322"><ele>616.5714285714286</ele><time>2026-04-19T11:20:59.204Z</time></trkpt><trkpt lat="44.4606333" lon="7.3662459"><ele>616.2857142857143</ele><time>2026-04-19T11:21:01.204Z</time></trkpt><trkpt lat="44.4605639" lon="7.3662654"><ele>616.0</ele><time>2026-04-19T11:21:03.206Z</time></trkpt><trkpt lat="44.4604918" lon="7.3662842"><ele>616.3333333333334</ele><time>2026-04-19T11:21:05.206Z</time></trkpt><trkpt lat="44.4604179" lon="7.3663027"><ele>616.6666666666667</ele><time>2026-04-19T11:21:07.205Z</time></trkpt><trkpt lat="44.4603569" lon="7.3663438"><ele>617.0</ele><time>2026-04-19T11:21:09.206Z</time></trkpt><trkpt lat="44.4603006" lon="7.366439"><ele>617.3333333333334</ele><time>2026-04-19T11:21:12.204Z</time></trkpt><trkpt lat="44.4602927" lon="7.3665689"><ele>617.6666666666666</ele><time>2026-04-19T11:21:15.205Z</time></trkpt><trkpt lat="44.4602915" lon="7.3666633"><ele>618.0</ele><time>2026-04-19T11:21:17.204Z</time></trkpt><trkpt lat="44.4602931" lon="7.3667624"><ele>618.1666666666666</ele><time>2026-04-19T11:21:19.204Z</time></trkpt><trkpt lat="44.4602953" lon="7.3668648"><ele>618.3333333333334</ele><time>2026-04-19T11:21:21.205Z</time></trkpt><trkpt lat="44.4602982" lon="7.3669742"><ele>618.5</ele><time>2026-04-19T11:21:23.204Z</time></trkpt><trkpt lat="44.4603082" lon="7.3670838"><ele>618.6666666666667</ele><time>2026-04-19T11:21:25.204Z</time></trkpt><trkpt lat="44.4603138" lon="7.3671936"><ele>618.8333333333334</ele><time>2026-04-19T11:21:27.204Z</time></trkpt><trkpt lat="44.4603204" lon="7.3672998"><ele>619.0</ele><time>2026-04-19T11:21:29.205Z</time></trkpt><trkpt lat="44.4603186" lon="7.3674044"><ele>618.8571428571429</ele><time>2026-04-19T11:21:31.204Z</time></trkpt><trkpt lat="44.4603273" lon="7.3675112"><ele>618.7142857142858</ele><time>2026-04-19T11:21:33.204Z</time></trkpt><trkpt lat="44.4603283" lon="7.3676147"><ele>618.5714285714287</ele><time>2026-04-19T11:21:35.205Z</time></trkpt><trkpt lat="44.4603275" lon="7.3677127"><ele>618.4285714285714</ele><time>2026-04-19T11:21:37.205Z</time></trkpt><trkpt lat="44.4603353" lon="7.3678066"><ele>618.2857142857143</ele><time>2026-04-19T11:21:39.205Z</time></trkpt><trkpt lat="44.460339" lon="7.3679093"><ele>618.1428571428572</ele><time>2026-04-19T11:21:41.204Z</time></trkpt><trkpt lat="44.460344" lon="7.3680196"><ele>618.0</ele><time>2026-04-19T11:21:43.205Z</time></trkpt><trkpt lat="44.4603489" lon="7.3681345"><ele>618.0</ele><time>2026-04-19T11:21:45.204Z</time></trkpt><trkpt lat="44.4603581" lon="7.3682513"><ele>618.0</ele><time>2026-04-19T11:21:47.205Z</time></trkpt><trkpt lat="44.4603599" lon="7.3683696"><ele>618.0</ele><time>2026-04-19T11:21:49.204Z</time></trkpt><trkpt lat="44.4603637" lon="7.368481"><ele>618.0</ele><time>2026-04-19T11:21:51.204Z</time></trkpt><trkpt lat="44.4603647" lon="7.3685905"><ele>618.0</ele><time>2026-04-19T11:21:53.205Z</time></trkpt><trkpt lat="44.460371" lon="7.3686961"><ele>618.0</ele><time>2026-04-19T11:21:55.204Z</time></trkpt><trkpt lat="44.4603727" lon="7.3687975"><ele>618.1428571428572</ele><time>2026-04-19T11:21:57.205Z</time></trkpt><trkpt lat="44.4603764" lon="7.3688974"><ele>618.2857142857143</ele><time>2026-04-19T11:21:59.204Z</time></trkpt><trkpt lat="44.4603816" lon="7.3689963"><ele>618.4285714285714</ele><time>2026-04-19T11:22:01.204Z</time></trkpt><trkpt lat="44.4603872" lon="7.3690939"><ele>618.5714285714287</ele><time>2026-04-19T11:22:03.204Z</time></trkpt><trkpt lat="44.4603934" lon="7.3691867"><ele>618.7142857142858</ele><time>2026-04-19T11:22:05.205Z</time></trkpt><trkpt lat="44.460397" lon="7.3692767"><ele>618.8571428571429</ele><time>2026-04-19T11:22:07.204Z</time></trkpt><trkpt lat="44.4603999" lon="7.3694046"><ele>619.0</ele><time>2026-04-19T11:22:10.205Z</time></trkpt><trkpt lat="44.4603981" lon="7.3695257"><ele>619.0</ele><time>2026-04-19T11:22:13.205Z</time></trkpt><trkpt lat="44.4604022" lon="7.3696539"><ele>619.0</ele><time>2026-04-19T11:22:16.204Z</time></trkpt><trkpt lat="44.4604039" lon="7.3697589"><ele>619.0</ele><time>2026-04-19T11:22:18.204Z</time></trkpt><trkpt lat="44.4604106" lon="7.3698693"><ele>619.0</ele><time>2026-04-19T11:22:20.204Z</time></trkpt><trkpt lat="44.4604127" lon="7.369987"><ele>619.0</ele><time>2026-04-19T11:22:22.204Z</time></trkpt><trkpt lat="44.4604168" lon="7.370103"><ele>619.0</ele><time>2026-04-19T11:22:24.204Z</time></trkpt><trkpt lat="44.4604138" lon="7.3702082"><ele>618.6666666666667</ele><time>2026-04-19T11:22:26.204Z</time></trkpt><trkpt lat="44.460419" lon="7.3703104"><ele>618.3333333333334</ele><time>2026-04-19T11:22:28.204Z</time></trkpt><trkpt lat="44.4604213" lon="7.3704121"><ele>618.0</ele><time>2026-04-19T11:22:30.204Z</time></trkpt><trkpt lat="44.4604275" lon="7.370508"><ele>617.6666666666666</ele><time>2026-04-19T11:22:32.205Z</time></trkpt><trkpt lat="44.4604269" lon="7.370598"><ele>617.3333333333333</ele><time>2026-04-19T11:22:34.204Z</time></trkpt><trkpt lat="44.4604273" lon="7.3707224"><ele>617.0</ele><time>2026-04-19T11:22:37.205Z</time></trkpt><trkpt lat="44.460435" lon="7.3708402"><ele>616.8571428571429</ele><time>2026-04-19T11:22:40.205Z</time></trkpt><trkpt lat="44.4604427" lon="7.3709302"><ele>616.7142857142857</ele><time>2026-04-19T11:22:42.205Z</time></trkpt><trkpt lat="44.4604478" lon="7.3710283"><ele>616.5714285714286</ele><time>2026-04-19T11:22:44.205Z</time></trkpt><trkpt lat="44.4604582" lon="7.3711308"><ele>616.4285714285714</ele><time>2026-04-19T11:22:46.204Z</time></trkpt><trkpt lat="44.4604622" lon="7.3712398"><ele>616.2857142857142</ele><time>2026-04-19T11:22:48.205Z</time></trkpt><trkpt lat="44.4604581" lon="7.3713446"><ele>616.1428571428571</ele><time>2026-04-19T11:22:50.205Z</time></trkpt><trkpt lat="44.4604642" lon="7.3714421"><ele>616.0</ele><time>2026-04-19T11:22:52.205Z</time></trkpt><trkpt lat="44.4604891" lon="7.3715295"><ele>616.0</ele><time>2026-04-19T11:22:54.205Z</time></trkpt><trkpt lat="44.4605179" lon="7.3716127"><ele>616.0</ele><time>2026-04-19T11:22:56.205Z</time></trkpt><trkpt lat="44.4605232" lon="7.3717242"><ele>616.0</ele><time>2026-04-19T11:22:59.204Z</time></trkpt><trkpt lat="44.4605047" lon="7.37183"><ele>616.0</ele><time>2026-04-19T11:23:02.205Z</time></trkpt><trkpt lat="44.4604759" lon="7.3719556"><ele>616.0</ele><time>2026-04-19T11:23:05.205Z</time></trkpt><trkpt lat="44.4604162" lon="7.3720011"><ele>616.0</ele><time>2026-04-19T11:23:07.205Z</time></trkpt><trkpt lat="44.4603432" lon="7.3720157"><ele>616.3333333333334</ele><time>2026-04-19T11:23:09.205Z</time></trkpt><trkpt lat="44.4602636" lon="7.3720143"><ele>616.6666666666667</ele><time>2026-04-19T11:23:11.205Z</time></trkpt><trkpt lat="44.4601831" lon="7.3720131"><ele>617.0</ele><time>2026-04-19T11:23:13.204Z</time></trkpt><trkpt lat="44.460101" lon="7.3720214"><ele>617.3333333333334</ele><time>2026-04-19T11:23:15.204Z</time></trkpt><trkpt lat="44.4600193" lon="7.3720237"><ele>617.6666666666666</ele><time>2026-04-19T11:23:17.204Z</time></trkpt><trkpt lat="44.4599424" lon="7.372023"><ele>618.0</ele><time>2026-04-19T11:23:19.204Z</time></trkpt><trkpt lat="44.459873" lon="7.3720209"><ele>618.0</ele><time>2026-04-19T11:23:21.204Z</time></trkpt><trkpt lat="44.4597818" lon="7.372024"><ele>618.0</ele><time>2026-04-19T11:23:24.204Z</time></trkpt><trkpt lat="44.4596925" lon="7.3720262"><ele>618.0</ele><time>2026-04-19T11:23:27.205Z</time></trkpt><trkpt lat="44.4596265" lon="7.3720252"><ele>618.0</ele><time>2026-04-19T11:23:29.205Z</time></trkpt><trkpt lat="44.4595547" lon="7.3720261"><ele>618.0</ele><time>2026-04-19T11:23:31.205Z</time></trkpt><trkpt lat="44.4594804" lon="7.3720226"><ele>618.0</ele><time>2026-04-19T11:23:33.204Z</time></trkpt><trkpt lat="44.4594051" lon="7.3720095"><ele>617.8333333333334</ele><time>2026-04-19T11:23:35.204Z</time></trkpt><trkpt lat="44.4593284" lon="7.3719994"><ele>617.6666666666666</ele><time>2026-04-19T11:23:37.204Z</time></trkpt><trkpt lat="44.4592517" lon="7.3719945"><ele>617.5</ele><time>2026-04-19T11:23:39.204Z</time></trkpt><trkpt lat="44.4591763" lon="7.372005"><ele>617.3333333333333</ele><time>2026-04-19T11:23:41.204Z</time></trkpt><trkpt lat="44.4591079" lon="7.3720033"><ele>617.1666666666666</ele><time>2026-04-19T11:23:43.204Z</time></trkpt><trkpt lat="44.4590223" lon="7.3720113"><ele>617.0</ele><time>2026-04-19T11:23:46.204Z</time></trkpt><trkpt lat="44.4589398" lon="7.3720191"><ele>617.0</ele><time>2026-04-19T11:23:49.204Z</time></trkpt><trkpt lat="44.4588739" lon="7.3720215"><ele>617.0</ele><time>2026-04-19T11:23:51.205Z</time></trkpt><trkpt lat="44.4588017" lon="7.3720266"><ele>617.0</ele><time>2026-04-19T11:23:53.204Z</time></trkpt><trkpt lat="44.4587264" lon="7.3720292"><ele>617.0</ele><time>2026-04-19T11:23:55.205Z</time></trkpt><trkpt lat="44.4586473" lon="7.3720324"><ele>617.0</ele><time>2026-04-19T11:23:57.205Z</time></trkpt><trkpt lat="44.4585646" lon="7.3720329"><ele>617.0</ele><time>2026-04-19T11:23:59.204Z</time></trkpt><trkpt lat="44.458479" lon="7.3720322"><ele>617.1666666666666</ele><time>2026-04-19T11:24:01.205Z</time></trkpt><trkpt lat="44.4583922" lon="7.3720408"><ele>617.3333333333333</ele><time>2026-04-19T11:24:03.204Z</time></trkpt><trkpt lat="44.4583063" lon="7.3720453"><ele>617.5</ele><time>2026-04-19T11:24:05.205Z</time></trkpt><trkpt lat="44.4582195" lon="7.3720461"><ele>617.6666666666666</ele><time>2026-04-19T11:24:07.204Z</time></trkpt><trkpt lat="44.4581307" lon="7.3720435"><ele>617.8333333333334</ele><time>2026-04-19T11:24:09.204Z</time></trkpt><trkpt lat="44.4580366" lon="7.372045"><ele>618.0</ele><time>2026-04-19T11:24:11.205Z</time></trkpt><trkpt lat="44.4579528" lon="7.3720436"><ele>618.0</ele><time>2026-04-19T11:24:13.204Z</time></trkpt><trkpt lat="44.4578714" lon="7.3720465"><ele>618.0</ele><time>2026-04-19T11:24:15.204Z</time></trkpt><trkpt lat="44.4577895" lon="7.3720509"><ele>618.0</ele><time>2026-04-19T11:24:17.204Z</time></trkpt><trkpt lat="44.4577078" lon="7.3720553"><ele>618.0</ele><time>2026-04-19T11:24:19.204Z</time></trkpt><trkpt lat="44.4576228" lon="7.372052"><ele>618.0</ele><time>2026-04-19T11:24:21.205Z</time></trkpt><trkpt lat="44.4575374" lon="7.3720581"><ele>618.0</ele><time>2026-04-19T11:24:23.204Z</time></trkpt><trkpt lat="44.4574439" lon="7.3720523"><ele>618.0</ele><time>2026-04-19T11:24:25.204Z</time></trkpt><trkpt lat="44.4573525" lon="7.3720538"><ele>618.0</ele><time>2026-04-19T11:24:27.204Z</time></trkpt><trkpt lat="44.4572622" lon="7.3720562"><ele>618.0</ele><time>2026-04-19T11:24:29.204Z</time></trkpt><trkpt lat="44.4571745" lon="7.3720509"><ele>618.0</ele><time>2026-04-19T11:24:31.204Z</time></trkpt><trkpt lat="44.4570922" lon="7.3720498"><ele>618.0</ele><time>2026-04-19T11:24:33.204Z</time></trkpt><trkpt lat="44.4570119" lon="7.372034"><ele>618.0</ele><time>2026-04-19T11:24:35.204Z</time></trkpt><trkpt lat="44.4569364" lon="7.3719972"><ele>620.1428571428572</ele><time>2026-04-19T11:24:37.203Z</time></trkpt><trkpt lat="44.4568661" lon="7.3720275"><ele>622.2857142857143</ele><time>2026-04-19T11:24:39.204Z</time></trkpt><trkpt lat="44.4568397" lon="7.3721243"><ele>624.4285714285714</ele><time>2026-04-19T11:24:41.203Z</time></trkpt><trkpt lat="44.456861" lon="7.3722491"><ele>626.5714285714287</ele><time>2026-04-19T11:24:44.204Z</time></trkpt><trkpt lat="44.4568693" lon="7.3723378"><ele>628.7142857142858</ele><time>2026-04-19T11:24:46.203Z</time></trkpt><trkpt lat="44.4568782" lon="7.3724384"><ele>630.8571428571429</ele><time>2026-04-19T11:24:48.204Z</time></trkpt><trkpt lat="44.4568847" lon="7.3725413"><ele>633.0</ele><time>2026-04-19T11:24:50.204Z</time></trkpt><trkpt lat="44.4568942" lon="7.3726367"><ele>633.0</ele><time>2026-04-19T11:24:52.203Z</time></trkpt><trkpt lat="44.4568971" lon="7.3727334"><ele>633.0</ele><time>2026-04-19T11:24:54.203Z</time></trkpt><trkpt lat="44.4568953" lon="7.3728234"><ele>633.0</ele><time>2026-04-19T11:24:56.204Z</time></trkpt><trkpt lat="44.4568862" lon="7.3729436"><ele>633.0</ele><time>2026-04-19T11:24:59.203Z</time></trkpt><trkpt lat="44.4568686" lon="7.3730653"><ele>633.0</ele><time>2026-04-19T11:25:02.203Z</time></trkpt><trkpt lat="44.4568539" lon="7.3731569"><ele>633.0</ele><time>2026-04-19T11:25:04.204Z</time></trkpt><trkpt lat="44.4568406" lon="7.3732464"><ele>633.0</ele><time>2026-04-19T11:25:06.203Z</time></trkpt><trkpt lat="44.4568134" lon="7.3733327"><ele>632.0</ele><time>2026-04-19T11:25:08.204Z</time></trkpt><trkpt lat="44.4567891" lon="7.3734313"><ele>631.0</ele><time>2026-04-19T11:25:10.204Z</time></trkpt><trkpt lat="44.4567639" lon="7.3735346"><ele>630.0</ele><time>2026-04-19T11:25:12.204Z</time></trkpt><trkpt lat="44.4567441" lon="7.3736358"><ele>629.0</ele><time>2026-04-19T11:25:14.204Z</time></trkpt><trkpt lat="44.4567326" lon="7.3737502"><ele>628.0</ele><time>2026-04-19T11:25:16.203Z</time></trkpt><trkpt lat="44.4567038" lon="7.3738742"><ele>627.0</ele><time>2026-04-19T11:25:18.204Z</time></trkpt><trkpt lat="44.4566677" lon="7.3739943"><ele>626.0</ele><time>2026-04-19T11:25:20.205Z</time></trkpt><trkpt lat="44.4566241" lon="7.3741072"><ele>625.0</ele><time>2026-04-19T11:25:22.203Z</time></trkpt><trkpt lat="44.4565687" lon="7.3742036"><ele>624.0</ele><time>2026-04-19T11:25:24.204Z</time></trkpt><trkpt lat="44.4565365" lon="7.3742803"><ele>623.0</ele><time>2026-04-19T11:25:26.204Z</time></trkpt><trkpt lat="44.45659" lon="7.374367"><ele>622.0</ele><time>2026-04-19T11:25:29.203Z</time></trkpt><trkpt lat="44.4566823" lon="7.3743575"><ele>621.0</ele><time>2026-04-19T11:25:32.203Z</time></trkpt><trkpt lat="44.4567749" lon="7.3743437"><ele>620.9999999999999</ele><time>2026-04-19T11:25:35.204Z</time></trkpt><trkpt lat="44.456841" lon="7.3743364"><ele>621.0</ele><time>2026-04-19T11:25:37.203Z</time></trkpt><trkpt lat="44.4569079" lon="7.3743289"><ele>621.0</ele><time>2026-04-19T11:25:39.203Z</time></trkpt><trkpt lat="44.4569742" lon="7.3743168"><ele>621.0</ele><time>2026-04-19T11:25:41.204Z</time></trkpt><trkpt lat="44.4570404" lon="7.3743086"><ele>621.0</ele><time>2026-04-19T11:25:43.203Z</time></trkpt><trkpt lat="44.4571116" lon="7.3743007"><ele>620.9999999999999</ele><time>2026-04-19T11:25:45.204Z</time></trkpt><trkpt lat="44.4571922" lon="7.3742902"><ele>621.0</ele><time>2026-04-19T11:25:47.203Z</time></trkpt><trkpt lat="44.4572807" lon="7.3742781"><ele>620.1666666666666</ele><time>2026-04-19T11:25:49.203Z</time></trkpt><trkpt lat="44.4573743" lon="7.3742685"><ele>619.3333333333334</ele><time>2026-04-19T11:25:51.203Z</time></trkpt><trkpt lat="44.4574636" lon="7.3742467"><ele>618.5</ele><time>2026-04-19T11:25:53.204Z</time></trkpt><trkpt lat="44.4575466" lon="7.3742364"><ele>617.6666666666667</ele><time>2026-04-19T11:25:55.203Z</time></trkpt><trkpt lat="44.4576333" lon="7.374223"><ele>616.8333333333334</ele><time>2026-04-19T11:25:57.203Z</time></trkpt><trkpt lat="44.457705" lon="7.3742186"><ele>616.0</ele><time>2026-04-19T11:25:59.203Z</time></trkpt><trkpt lat="44.4577901" lon="7.3742172"><ele>616.0</ele><time>2026-04-19T11:26:02.205Z</time></trkpt><trkpt lat="44.4578392" lon="7.3741557"><ele>616.0</ele><time>2026-04-19T11:26:06.203Z</time></trkpt><trkpt lat="44.4578147" lon="7.3740713"><ele>616.0</ele><time>2026-04-19T11:27:05.204Z</time></trkpt><trkpt lat="44.4578019" lon="7.3739703"><ele>616.0</ele><time>2026-04-19T11:27:09.203Z</time></trkpt><trkpt lat="44.457862" lon="7.3739157"><ele>616.0</ele><time>2026-04-19T11:27:13.205Z</time></trkpt></trkseg></trk></gpx>